<?xml version='1.0' encoding='UTF-8'?><gpx version="1.1" creator="JPX - https://github.com/jenetics/jpx" xmlns="http://www.topografix.com/GPX/1/1"><trk><trkseg><trkpt lat="37.6735534" lon="15.0645071"><ele>1109.0</ele><time>2026-05-02T07:39:14.822Z</time></trkpt><trkpt lat="37.6734561" lon="15.0644837"><ele>1109.0</ele><time>2026-05-02T07:39:16.822Z</time></trkpt><trkpt lat="37.6733354" lon="15.0644415"><ele>1109.0</ele><time>2026-05-02T07:39:18.822Z</time></trkpt><trkpt lat="37.6732677" lon="15.0644197"><ele>1109.0</ele><time>2026-05-02T07:39:19.823Z</time></trkpt><trkpt lat="37.6731993" lon="15.0644002"><ele>1109.0</ele><time>2026-05-02T07:39:20.822Z</time></trkpt><trkpt lat="37.6731364" lon="15.0643804"><ele>1109.0</ele><time>2026-05-02T07:39:21.823Z</time></trkpt><trkpt lat="37.6730576" lon="15.0643318"><ele>1109.0</ele><time>2026-05-02T07:39:23.822Z</time></trkpt><trkpt lat="37.6730589" lon="15.0642313"><ele>1109.0</ele><time>2026-05-02T07:39:26.822Z</time></trkpt><trkpt lat="37.6731111" lon="15.0641125"><ele>1109.0</ele><time>2026-05-02T07:39:28.822Z</time></trkpt><trkpt lat="37.6731471" lon="15.0639722"><ele>1109.0</ele><time>2026-05-02T07:39:30.822Z</time></trkpt><trkpt lat="37.6731653" lon="15.0638867"><ele>1109.0</ele><time>2026-05-02T07:39:31.822Z</time></trkpt><trkpt lat="37.6731849" lon="15.0637949"><ele>1109.0</ele><time>2026-05-02T07:39:32.823Z</time></trkpt><trkpt lat="37.6731995" lon="15.0637033"><ele>1109.7142857142856</ele><time>2026-05-02T07:39:33.822Z</time></trkpt><trkpt lat="37.6732112" lon="15.0636074"><ele>1110.4285714285713</ele><time>2026-05-02T07:39:34.822Z</time></trkpt><trkpt lat="37.673211" lon="15.0635095"><ele>1111.142857142857</ele><time>2026-05-02T07:39:35.823Z</time></trkpt><trkpt lat="37.6732152" lon="15.0634128"><ele>1111.8571428571427</ele><time>2026-05-02T07:39:36.822Z</time></trkpt><trkpt lat="37.6732149" lon="15.0633216"><ele>1112.5714285714284</ele><time>2026-05-02T07:39:37.823Z</time></trkpt><trkpt lat="37.6732035" lon="15.0632429"><ele>1113.2857142857142</ele><time>2026-05-02T07:39:38.822Z</time></trkpt><trkpt lat="37.6731687" lon="15.0631651"><ele>1114.0</ele><time>2026-05-02T07:39:39.822Z</time></trkpt><trkpt lat="37.6731292" lon="15.0630858"><ele>1116.0</ele><time>2026-05-02T07:39:40.822Z</time></trkpt><trkpt lat="37.6730876" lon="15.0630056"><ele>1118.0</ele><time>2026-05-02T07:39:41.824Z</time></trkpt><trkpt lat="37.6730427" lon="15.0629274"><ele>1120.0</ele><time>2026-05-02T07:39:42.822Z</time></trkpt><trkpt lat="37.6729968" lon="15.0628457"><ele>1122.0</ele><time>2026-05-02T07:39:43.822Z</time></trkpt><trkpt lat="37.6729536" lon="15.0627656"><ele>1124.0</ele><time>2026-05-02T07:39:44.822Z</time></trkpt><trkpt lat="37.6729095" lon="15.0626845"><ele>1126.0</ele><time>2026-05-02T07:39:45.822Z</time></trkpt><trkpt lat="37.6728642" lon="15.0626053"><ele>1126.0</ele><time>2026-05-02T07:39:46.822Z</time></trkpt><trkpt lat="37.672822" lon="15.0625296"><ele>1126.0</ele><time>2026-05-02T07:39:47.822Z</time></trkpt><trkpt lat="37.6727776" lon="15.0624623"><ele>1126.0</ele><time>2026-05-02T07:39:48.823Z</time></trkpt><trkpt lat="37.6727344" lon="15.0624038"><ele>1126.0</ele><time>2026-05-02T07:39:49.822Z</time></trkpt><trkpt lat="37.6726487" lon="15.0623074"><ele>1126.0</ele><time>2026-05-02T07:39:51.822Z</time></trkpt><trkpt lat="37.6725636" lon="15.0622237"><ele>1126.0</ele><time>2026-05-02T07:39:53.822Z</time></trkpt><trkpt lat="37.6725062" lon="15.0621674"><ele>1125.1666666666665</ele><time>2026-05-02T07:39:55.821Z</time></trkpt><trkpt lat="37.6724797" lon="15.0620881"><ele>1124.3333333333333</ele><time>2026-05-02T07:40:19.823Z</time></trkpt><trkpt lat="37.6725212" lon="15.0620037"><ele>1123.5</ele><time>2026-05-02T07:40:22.822Z</time></trkpt><trkpt lat="37.6725993" lon="15.0619338"><ele>1122.6666666666667</ele><time>2026-05-02T07:40:24.822Z</time></trkpt><trkpt lat="37.6727046" lon="15.0618576"><ele>1121.8333333333335</ele><time>2026-05-02T07:40:26.821Z</time></trkpt><trkpt lat="37.6727732" lon="15.0618108"><ele>1121.0</ele><time>2026-05-02T07:40:27.823Z</time></trkpt><trkpt lat="37.6728253" lon="15.0617632"><ele>1123.0</ele><time>2026-05-02T07:40:28.822Z</time></trkpt><trkpt lat="37.672882" lon="15.0617105"><ele>1125.0</ele><time>2026-05-02T07:40:29.822Z</time></trkpt><trkpt lat="37.6729408" lon="15.0616622"><ele>1127.0</ele><time>2026-05-02T07:40:30.822Z</time></trkpt><trkpt lat="37.6729966" lon="15.0616057"><ele>1129.0</ele><time>2026-05-02T07:40:31.823Z</time></trkpt><trkpt lat="37.6730586" lon="15.0615489"><ele>1131.0</ele><time>2026-05-02T07:40:32.822Z</time></trkpt><trkpt lat="37.6731203" lon="15.0614925"><ele>1133.0</ele><time>2026-05-02T07:40:33.822Z</time></trkpt><trkpt lat="37.6731981" lon="15.0614281"><ele>1133.6666666666667</ele><time>2026-05-02T07:40:34.823Z</time></trkpt><trkpt lat="37.6732705" lon="15.0613668"><ele>1134.3333333333335</ele><time>2026-05-02T07:40:35.821Z</time></trkpt><trkpt lat="37.6733472" lon="15.0612982"><ele>1135.0</ele><time>2026-05-02T07:40:36.822Z</time></trkpt><trkpt lat="37.6734106" lon="15.0612445"><ele>1135.6666666666667</ele><time>2026-05-02T07:40:37.822Z</time></trkpt><trkpt lat="37.6734764" lon="15.0611848"><ele>1136.3333333333333</ele><time>2026-05-02T07:40:38.823Z</time></trkpt><trkpt lat="37.6735395" lon="15.0611264"><ele>1137.0</ele><time>2026-05-02T07:40:39.822Z</time></trkpt><trkpt lat="37.6736055" lon="15.0610663"><ele>1137.8571428571427</ele><time>2026-05-02T07:40:40.823Z</time></trkpt><trkpt lat="37.6736709" lon="15.0610093"><ele>1138.7142857142858</ele><time>2026-05-02T07:40:41.823Z</time></trkpt><trkpt lat="37.67374" lon="15.0609569"><ele>1139.5714285714284</ele><time>2026-05-02T07:40:42.823Z</time></trkpt><trkpt lat="37.6738003" lon="15.0609167"><ele>1140.4285714285713</ele><time>2026-05-02T07:40:43.822Z</time></trkpt><trkpt lat="37.673864" lon="15.0608624"><ele>1141.2857142857142</ele><time>2026-05-02T07:40:44.822Z</time></trkpt><trkpt lat="37.6739176" lon="15.0608102"><ele>1142.142857142857</ele><time>2026-05-02T07:40:45.822Z</time></trkpt><trkpt lat="37.6739731" lon="15.0607456"><ele>1143.0</ele><time>2026-05-02T07:40:46.821Z</time></trkpt><trkpt lat="37.674041" lon="15.0606984"><ele>1144.0</ele><time>2026-05-02T07:40:47.822Z</time></trkpt><trkpt lat="37.6741023" lon="15.0606361"><ele>1145.0</ele><time>2026-05-02T07:40:48.822Z</time></trkpt><trkpt lat="37.6741713" lon="15.0605732"><ele>1146.0</ele><time>2026-05-02T07:40:49.822Z</time></trkpt><trkpt lat="37.6742383" lon="15.0605145"><ele>1147.0</ele><time>2026-05-02T07:40:50.822Z</time></trkpt><trkpt lat="37.674296" lon="15.0604653"><ele>1148.0</ele><time>2026-05-02T07:40:51.822Z</time></trkpt><trkpt lat="37.6743548" lon="15.0604089"><ele>1149.0</ele><time>2026-05-02T07:40:52.822Z</time></trkpt><trkpt lat="37.6744139" lon="15.0603627"><ele>1150.6666666666667</ele><time>2026-05-02T07:40:53.821Z</time></trkpt><trkpt lat="37.6744633" lon="15.0603124"><ele>1152.3333333333333</ele><time>2026-05-02T07:40:54.822Z</time></trkpt><trkpt lat="37.6745574" lon="15.0602145"><ele>1154.0</ele><time>2026-05-02T07:40:56.821Z</time></trkpt><trkpt lat="37.6746146" lon="15.0601539"><ele>1155.6666666666665</ele><time>2026-05-02T07:40:57.822Z</time></trkpt><trkpt lat="37.6746772" lon="15.060106"><ele>1157.3333333333333</ele><time>2026-05-02T07:40:58.821Z</time></trkpt><trkpt lat="37.6747345" lon="15.0600468"><ele>1159.0</ele><time>2026-05-02T07:40:59.822Z</time></trkpt><trkpt lat="37.674801" lon="15.0599923"><ele>1161.1666666666665</ele><time>2026-05-02T07:41:00.823Z</time></trkpt><trkpt lat="37.6748586" lon="15.0599427"><ele>1163.3333333333333</ele><time>2026-05-02T07:41:01.821Z</time></trkpt><trkpt lat="37.6749102" lon="15.0598837"><ele>1165.5</ele><time>2026-05-02T07:41:02.822Z</time></trkpt><trkpt lat="37.6750098" lon="15.0597938"><ele>1167.6666666666667</ele><time>2026-05-02T07:41:04.822Z</time></trkpt><trkpt lat="37.6750723" lon="15.0597404"><ele>1169.8333333333335</ele><time>2026-05-02T07:41:05.822Z</time></trkpt><trkpt lat="37.675158" lon="15.0596583"><ele>1172.0</ele><time>2026-05-02T07:41:07.823Z</time></trkpt><trkpt lat="37.6752418" lon="15.059567"><ele>1173.6</ele><time>2026-05-02T07:41:09.822Z</time></trkpt><trkpt lat="37.6753466" lon="15.0594847"><ele>1175.2</ele><time>2026-05-02T07:41:11.823Z</time></trkpt><trkpt lat="37.6754082" lon="15.0594389"><ele>1176.8</ele><time>2026-05-02T07:41:12.822Z</time></trkpt><trkpt lat="37.6755055" lon="15.0593641"><ele>1178.4</ele><time>2026-05-02T07:41:14.823Z</time></trkpt><trkpt lat="37.6756063" lon="15.0592731"><ele>1180.0</ele><time>2026-05-02T07:41:16.822Z</time></trkpt><trkpt lat="37.6756975" lon="15.0591789"><ele>1180.0</ele><time>2026-05-02T07:41:18.822Z</time></trkpt><trkpt lat="37.6757513" lon="15.0591332"><ele>1180.0</ele><time>2026-05-02T07:41:19.823Z</time></trkpt><trkpt lat="37.6758556" lon="15.0590452"><ele>1180.0</ele><time>2026-05-02T07:41:21.821Z</time></trkpt><trkpt lat="37.675914" lon="15.058999"><ele>1180.0</ele><time>2026-05-02T07:41:22.822Z</time></trkpt><trkpt lat="37.6759761" lon="15.0589444"><ele>1180.0</ele><time>2026-05-02T07:41:23.822Z</time></trkpt><trkpt lat="37.6760325" lon="15.0588976"><ele>1180.0</ele><time>2026-05-02T07:41:24.823Z</time></trkpt><trkpt lat="37.6761432" lon="15.0588066"><ele>1183.0</ele><time>2026-05-02T07:41:26.821Z</time></trkpt><trkpt lat="37.6762022" lon="15.0587589"><ele>1186.0</ele><time>2026-05-02T07:41:27.821Z</time></trkpt><trkpt lat="37.6762977" lon="15.0586808"><ele>1189.0</ele><time>2026-05-02T07:41:29.823Z</time></trkpt><trkpt lat="37.6763935" lon="15.0586048"><ele>1192.0</ele><time>2026-05-02T07:41:31.822Z</time></trkpt><trkpt lat="37.6764786" lon="15.0585189"><ele>1195.0</ele><time>2026-05-02T07:41:33.822Z</time></trkpt><trkpt lat="37.6765332" lon="15.0584667"><ele>1195.0</ele><time>2026-05-02T07:41:34.822Z</time></trkpt><trkpt lat="37.6765935" lon="15.0584126"><ele>1195.0</ele><time>2026-05-02T07:41:35.822Z</time></trkpt><trkpt lat="37.6766511" lon="15.0583421"><ele>1195.0</ele><time>2026-05-02T07:41:36.822Z</time></trkpt><trkpt lat="37.6767041" lon="15.0582876"><ele>1195.0</ele><time>2026-05-02T07:41:37.823Z</time></trkpt><trkpt lat="37.6768182" lon="15.0581788"><ele>1195.0</ele><time>2026-05-02T07:41:39.822Z</time></trkpt><trkpt lat="37.6768774" lon="15.0581335"><ele>1195.0</ele><time>2026-05-02T07:41:40.821Z</time></trkpt><trkpt lat="37.6769327" lon="15.0580867"><ele>1196.3333333333333</ele><time>2026-05-02T07:41:41.822Z</time></trkpt><trkpt lat="37.6769881" lon="15.0580389"><ele>1197.6666666666665</ele><time>2026-05-02T07:41:42.822Z</time></trkpt><trkpt lat="37.6770382" lon="15.0579903"><ele>1199.0</ele><time>2026-05-02T07:41:43.822Z</time></trkpt><trkpt lat="37.6770937" lon="15.0579388"><ele>1200.3333333333333</ele><time>2026-05-02T07:41:44.822Z</time></trkpt><trkpt lat="37.6771467" lon="15.0578946"><ele>1201.6666666666667</ele><time>2026-05-02T07:41:45.821Z</time></trkpt><trkpt lat="37.6772259" lon="15.0578262"><ele>1203.0</ele><time>2026-05-02T07:41:47.822Z</time></trkpt><trkpt lat="37.6773078" lon="15.0577634"><ele>1203.0</ele><time>2026-05-02T07:41:49.822Z</time></trkpt><trkpt lat="37.6774047" lon="15.0576861"><ele>1203.0</ele><time>2026-05-02T07:41:51.822Z</time></trkpt><trkpt lat="37.677453" lon="15.0576298"><ele>1203.0</ele><time>2026-05-02T07:41:52.822Z</time></trkpt><trkpt lat="37.6775679" lon="15.0575295"><ele>1203.0</ele><time>2026-05-02T07:41:54.823Z</time></trkpt><trkpt lat="37.6776295" lon="15.0574767"><ele>1203.0</ele><time>2026-05-02T07:41:55.823Z</time></trkpt><trkpt lat="37.6776967" lon="15.0574241"><ele>1204.6</ele><time>2026-05-02T07:41:56.824Z</time></trkpt><trkpt lat="37.6777562" lon="15.0573811"><ele>1206.1999999999998</ele><time>2026-05-02T07:41:57.824Z</time></trkpt><trkpt lat="37.6778558" lon="15.0572793"><ele>1207.8</ele><time>2026-05-02T07:41:59.823Z</time></trkpt><trkpt lat="37.6779154" lon="15.0572281"><ele>1209.3999999999999</ele><time>2026-05-02T07:42:00.822Z</time></trkpt><trkpt lat="37.6779708" lon="15.0571791"><ele>1211.0</ele><time>2026-05-02T07:42:01.822Z</time></trkpt><trkpt lat="37.678065" lon="15.0570805"><ele>1212.2</ele><time>2026-05-02T07:42:03.822Z</time></trkpt><trkpt lat="37.6781401" lon="15.0570114"><ele>1213.3999999999999</ele><time>2026-05-02T07:42:05.823Z</time></trkpt><trkpt lat="37.6781402" lon="15.056895"><ele>1214.6</ele><time>2026-05-02T07:42:08.821Z</time></trkpt><trkpt lat="37.6780945" lon="15.0567981"><ele>1215.8</ele><time>2026-05-02T07:42:10.822Z</time></trkpt><trkpt lat="37.6780145" lon="15.0566815"><ele>1217.0</ele><time>2026-05-02T07:42:12.823Z</time></trkpt><trkpt lat="37.6779694" lon="15.0566045"><ele>1217.6</ele><time>2026-05-02T07:42:13.823Z</time></trkpt><trkpt lat="37.6779296" lon="15.0565282"><ele>1218.2</ele><time>2026-05-02T07:42:14.821Z</time></trkpt><trkpt lat="37.6778804" lon="15.0564338"><ele>1218.8</ele><time>2026-05-02T07:42:15.822Z</time></trkpt><trkpt lat="37.6778276" lon="15.0563252"><ele>1219.4</ele><time>2026-05-02T07:42:16.822Z</time></trkpt><trkpt lat="37.6777744" lon="15.0562221"><ele>1220.0</ele><time>2026-05-02T07:42:17.822Z</time></trkpt><trkpt lat="37.6777035" lon="15.0561192"><ele>1220.0</ele><time>2026-05-02T07:42:18.821Z</time></trkpt><trkpt lat="37.6776579" lon="15.0560286"><ele>1220.0</ele><time>2026-05-02T07:42:19.822Z</time></trkpt><trkpt lat="37.6776081" lon="15.0559334"><ele>1220.0</ele><time>2026-05-02T07:42:20.821Z</time></trkpt><trkpt lat="37.6775661" lon="15.055837"><ele>1220.0</ele><time>2026-05-02T07:42:21.822Z</time></trkpt><trkpt lat="37.6775196" lon="15.0557391"><ele>1220.0</ele><time>2026-05-02T07:42:22.822Z</time></trkpt><trkpt lat="37.6774682" lon="15.0556457"><ele>1220.0</ele><time>2026-05-02T07:42:23.822Z</time></trkpt><trkpt lat="37.6774256" lon="15.0555836"><ele>1221.4</ele><time>2026-05-02T07:42:24.822Z</time></trkpt><trkpt lat="37.677327" lon="15.0554815"><ele>1222.8</ele><time>2026-05-02T07:42:26.822Z</time></trkpt><trkpt lat="37.6772291" lon="15.0554195"><ele>1224.2</ele><time>2026-05-02T07:42:28.821Z</time></trkpt><trkpt lat="37.6771794" lon="15.0553521"><ele>1225.6</ele><time>2026-05-02T07:42:30.823Z</time></trkpt><trkpt lat="37.6772116" lon="15.0552451"><ele>1227.0</ele><time>2026-05-02T07:42:32.821Z</time></trkpt><trkpt lat="37.677287" lon="15.0551422"><ele>1227.0</ele><time>2026-05-02T07:42:34.821Z</time></trkpt><trkpt lat="37.677356" lon="15.0550062"><ele>1227.0</ele><time>2026-05-02T07:42:36.822Z</time></trkpt><trkpt lat="37.6774082" lon="15.0548862"><ele>1227.0</ele><time>2026-05-02T07:42:38.821Z</time></trkpt><trkpt lat="37.6774469" lon="15.0547928"><ele>1227.0</ele><time>2026-05-02T07:42:40.822Z</time></trkpt><trkpt lat="37.677467" lon="15.0546886"><ele>1227.0</ele><time>2026-05-02T07:42:42.822Z</time></trkpt><trkpt lat="37.6774466" lon="15.0545441"><ele>1228.2</ele><time>2026-05-02T07:42:44.822Z</time></trkpt><trkpt lat="37.6774511" lon="15.0544173"><ele>1229.4</ele><time>2026-05-02T07:42:46.822Z</time></trkpt><trkpt lat="37.677452" lon="15.0543151"><ele>1230.6</ele><time>2026-05-02T07:42:48.823Z</time></trkpt><trkpt lat="37.6774653" lon="15.0541855"><ele>1231.8</ele><time>2026-05-02T07:42:50.822Z</time></trkpt><trkpt lat="37.6774946" lon="15.0540425"><ele>1233.0</ele><time>2026-05-02T07:42:52.821Z</time></trkpt><trkpt lat="37.6774866" lon="15.0539109"><ele>1234.8</ele><time>2026-05-02T07:42:54.823Z</time></trkpt><trkpt lat="37.6774628" lon="15.0537767"><ele>1236.6</ele><time>2026-05-02T07:42:56.823Z</time></trkpt><trkpt lat="37.6774523" lon="15.0536342"><ele>1238.4</ele><time>2026-05-02T07:42:58.822Z</time></trkpt><trkpt lat="37.6774257" lon="15.053496"><ele>1240.2</ele><time>2026-05-02T07:43:00.822Z</time></trkpt><trkpt lat="37.6774038" lon="15.0533611"><ele>1242.0</ele><time>2026-05-02T07:43:02.822Z</time></trkpt><trkpt lat="37.677366" lon="15.0532259"><ele>1243.6</ele><time>2026-05-02T07:43:04.822Z</time></trkpt><trkpt lat="37.6773079" lon="15.0531361"><ele>1245.2</ele><time>2026-05-02T07:43:06.822Z</time></trkpt><trkpt lat="37.6772923" lon="15.0530057"><ele>1246.8</ele><time>2026-05-02T07:43:08.822Z</time></trkpt><trkpt lat="37.6772517" lon="15.052904"><ele>1248.4</ele><time>2026-05-02T07:43:10.823Z</time></trkpt><trkpt lat="37.6772087" lon="15.0527912"><ele>1250.0</ele><time>2026-05-02T07:43:12.822Z</time></trkpt><trkpt lat="37.6771912" lon="15.0526735"><ele>1250.0</ele><time>2026-05-02T07:43:14.822Z</time></trkpt><trkpt lat="37.6771505" lon="15.052576"><ele>1250.0</ele><time>2026-05-02T07:43:16.824Z</time></trkpt><trkpt lat="37.6770737" lon="15.0525069"><ele>1250.0</ele><time>2026-05-02T07:43:18.822Z</time></trkpt><trkpt lat="37.6769547" lon="15.0524169"><ele>1250.0</ele><time>2026-05-02T07:43:20.821Z</time></trkpt><trkpt lat="37.6768844" lon="15.052372"><ele>1250.0</ele><time>2026-05-02T07:43:21.822Z</time></trkpt><trkpt lat="37.6767993" lon="15.052345"><ele>1252.1666666666667</ele><time>2026-05-02T07:43:22.821Z</time></trkpt><trkpt lat="37.6767237" lon="15.0523442"><ele>1254.3333333333335</ele><time>2026-05-02T07:43:23.822Z</time></trkpt><trkpt lat="37.6766592" lon="15.052348"><ele>1256.5</ele><time>2026-05-02T07:43:24.822Z</time></trkpt><trkpt lat="37.6765797" lon="15.0523216"><ele>1258.6666666666667</ele><time>2026-05-02T07:43:26.822Z</time></trkpt><trkpt lat="37.6765068" lon="15.0522402"><ele>1260.8333333333333</ele><time>2026-05-02T07:43:28.823Z</time></trkpt><trkpt lat="37.6764542" lon="15.0521166"><ele>1263.0</ele><time>2026-05-02T07:43:30.822Z</time></trkpt><trkpt lat="37.6764698" lon="15.0519757"><ele>1263.0</ele><time>2026-05-02T07:43:32.821Z</time></trkpt><trkpt lat="37.6764564" lon="15.0518478"><ele>1263.0</ele><time>2026-05-02T07:43:34.822Z</time></trkpt><trkpt lat="37.6764401" lon="15.0517613"><ele>1263.0</ele><time>2026-05-02T07:43:35.822Z</time></trkpt><trkpt lat="37.6764184" lon="15.0516194"><ele>1263.0</ele><time>2026-05-02T07:43:37.822Z</time></trkpt><trkpt lat="37.6763766" lon="15.0514832"><ele>1263.0</ele><time>2026-05-02T07:43:39.822Z</time></trkpt><trkpt lat="37.6763334" lon="15.0513965"><ele>1264.5</ele><time>2026-05-02T07:43:41.822Z</time></trkpt><trkpt lat="37.6763634" lon="15.0512977"><ele>1266.0</ele><time>2026-05-02T07:43:43.822Z</time></trkpt><trkpt lat="37.6763908" lon="15.0512006"><ele>1267.5</ele><time>2026-05-02T07:43:45.822Z</time></trkpt><trkpt lat="37.6763597" lon="15.051106"><ele>1269.0</ele><time>2026-05-02T07:43:47.821Z</time></trkpt><trkpt lat="37.6763599" lon="15.0510142"><ele>1270.5</ele><time>2026-05-02T07:43:49.822Z</time></trkpt><trkpt lat="37.6763611" lon="15.0509099"><ele>1272.0</ele><time>2026-05-02T07:43:51.822Z</time></trkpt><trkpt lat="37.6763182" lon="15.0507929"><ele>1273.6666666666667</ele><time>2026-05-02T07:43:53.822Z</time></trkpt><trkpt lat="37.676259" lon="15.0507063"><ele>1275.3333333333333</ele><time>2026-05-02T07:43:55.822Z</time></trkpt><trkpt lat="37.6762113" lon="15.0506168"><ele>1277.0</ele><time>2026-05-02T07:43:58.822Z</time></trkpt><trkpt lat="37.6762283" lon="15.0505328"><ele>1278.6666666666665</ele><time>2026-05-02T07:44:00.821Z</time></trkpt><trkpt lat="37.6762355" lon="15.0504451"><ele>1280.3333333333333</ele><time>2026-05-02T07:44:02.822Z</time></trkpt><trkpt lat="37.6762238" lon="15.0503616"><ele>1282.0</ele><time>2026-05-02T07:44:04.821Z</time></trkpt><trkpt lat="37.6762324" lon="15.0502562"><ele>1282.0</ele><time>2026-05-02T07:44:06.823Z</time></trkpt><trkpt lat="37.6762303" lon="15.0501743"><ele>1282.0</ele><time>2026-05-02T07:44:08.821Z</time></trkpt><trkpt lat="37.6762077" lon="15.0500754"><ele>1282.0</ele><time>2026-05-02T07:44:10.821Z</time></trkpt><trkpt lat="37.6761919" lon="15.0499784"><ele>1282.0</ele><time>2026-05-02T07:44:12.821Z</time></trkpt><trkpt lat="37.6761923" lon="15.0498682"><ele>1282.0</ele><time>2026-05-02T07:44:14.822Z</time></trkpt><trkpt lat="37.6761332" lon="15.0497747"><ele>1282.0</ele><time>2026-05-02T07:44:17.822Z</time></trkpt><trkpt lat="37.6761008" lon="15.0497006"><ele>1283.8333333333333</ele><time>2026-05-02T07:44:19.822Z</time></trkpt><trkpt lat="37.676089" lon="15.0496137"><ele>1285.6666666666665</ele><time>2026-05-02T07:44:21.821Z</time></trkpt><trkpt lat="37.6760935" lon="15.049523"><ele>1287.5</ele><time>2026-05-02T07:44:23.822Z</time></trkpt><trkpt lat="37.6760612" lon="15.0494259"><ele>1289.3333333333333</ele><time>2026-05-02T07:44:26.821Z</time></trkpt><trkpt lat="37.676011" lon="15.049357"><ele>1291.1666666666667</ele><time>2026-05-02T07:44:29.821Z</time></trkpt><trkpt lat="37.6759735" lon="15.0492424"><ele>1293.0</ele><time>2026-05-02T07:44:32.823Z</time></trkpt><trkpt lat="37.675934" lon="15.0491752"><ele>1295.6000000000001</ele><time>2026-05-02T07:44:34.822Z</time></trkpt><trkpt lat="37.6759078" lon="15.0490699"><ele>1298.2</ele><time>2026-05-02T07:44:37.821Z</time></trkpt><trkpt lat="37.6758811" lon="15.0489806"><ele>1300.8</ele><time>2026-05-02T07:44:39.822Z</time></trkpt><trkpt lat="37.675854" lon="15.0488817"><ele>1303.4</ele><time>2026-05-02T07:44:41.822Z</time></trkpt><trkpt lat="37.6758171" lon="15.0487645"><ele>1306.0</ele><time>2026-05-02T07:44:43.823Z</time></trkpt><trkpt lat="37.6757491" lon="15.0486361"><ele>1306.0</ele><time>2026-05-02T07:44:45.822Z</time></trkpt><trkpt lat="37.6757056" lon="15.0485772"><ele>1306.0</ele><time>2026-05-02T07:44:46.822Z</time></trkpt><trkpt lat="37.6756424" lon="15.0484666"><ele>1306.0</ele><time>2026-05-02T07:44:48.821Z</time></trkpt><trkpt lat="37.6756052" lon="15.048394"><ele>1306.0</ele><time>2026-05-02T07:44:50.822Z</time></trkpt><trkpt lat="37.6755688" lon="15.0483019"><ele>1306.0</ele><time>2026-05-02T07:44:52.822Z</time></trkpt><trkpt lat="37.6755296" lon="15.0482123"><ele>1306.0</ele><time>2026-05-02T07:44:54.822Z</time></trkpt><trkpt lat="37.675564" lon="15.0481078"><ele>1307.2857142857144</ele><time>2026-05-02T07:44:57.821Z</time></trkpt><trkpt lat="37.6756093" lon="15.048038"><ele>1308.5714285714287</ele><time>2026-05-02T07:45:00.821Z</time></trkpt><trkpt lat="37.6756421" lon="15.0479663"><ele>1309.857142857143</ele><time>2026-05-02T07:45:05.659Z</time></trkpt><trkpt lat="37.6757012" lon="15.0479201"><ele>1311.1428571428573</ele><time>2026-05-02T07:45:21.822Z</time></trkpt><trkpt lat="37.6757541" lon="15.0478492"><ele>1312.4285714285716</ele><time>2026-05-02T07:45:24.822Z</time></trkpt><trkpt lat="37.6758222" lon="15.0477808"><ele>1313.7142857142858</ele><time>2026-05-02T07:45:27.822Z</time></trkpt><trkpt lat="37.6758583" lon="15.0477064"><ele>1315.0</ele><time>2026-05-02T07:45:41.823Z</time></trkpt><trkpt lat="37.6759178" lon="15.0476734"><ele>1315.0</ele><time>2026-05-02T07:45:44.822Z</time></trkpt><trkpt lat="37.6759903" lon="15.0476215"><ele>1315.0</ele><time>2026-05-02T07:45:47.822Z</time></trkpt><trkpt lat="37.6760667" lon="15.0475611"><ele>1315.0</ele><time>2026-05-02T07:45:50.822Z</time></trkpt><trkpt lat="37.6761542" lon="15.0475599"><ele>1315.0</ele><time>2026-05-02T07:45:53.822Z</time></trkpt><trkpt lat="37.676223" lon="15.0475422"><ele>1315.0</ele><time>2026-05-02T07:45:55.822Z</time></trkpt><trkpt lat="37.6762739" lon="15.0474802"><ele>1315.0</ele><time>2026-05-02T07:45:57.823Z</time></trkpt><trkpt lat="37.6763514" lon="15.0474121"><ele>1318.1666666666665</ele><time>2026-05-02T07:46:00.822Z</time></trkpt><trkpt lat="37.6764418" lon="15.0473841"><ele>1321.3333333333333</ele><time>2026-05-02T07:46:03.822Z</time></trkpt><trkpt lat="37.6765066" lon="15.0473356"><ele>1324.5</ele><time>2026-05-02T07:46:05.821Z</time></trkpt><trkpt lat="37.676577" lon="15.0472919"><ele>1327.6666666666667</ele><time>2026-05-02T07:46:07.822Z</time></trkpt><trkpt lat="37.6766479" lon="15.0472749"><ele>1330.8333333333335</ele><time>2026-05-02T07:46:10.822Z</time></trkpt><trkpt lat="37.6766319" lon="15.0471792"><ele>1334.0</ele><time>2026-05-02T07:48:34.822Z</time></trkpt><trkpt lat="37.6767009" lon="15.0471485"><ele>1334.0</ele><time>2026-05-02T07:49:01.821Z</time></trkpt><trkpt lat="37.6767708" lon="15.0471194"><ele>1334.0</ele><time>2026-05-02T07:49:05.821Z</time></trkpt><trkpt lat="37.6768145" lon="15.0470304"><ele>1334.0</ele><time>2026-05-02T07:50:25.821Z</time></trkpt><trkpt lat="37.6768951" lon="15.0469742"><ele>1334.0</ele><time>2026-05-02T07:50:28.821Z</time></trkpt><trkpt lat="37.6769393" lon="15.0468826"><ele>1334.0</ele><time>2026-05-02T07:50:31.821Z</time></trkpt><trkpt lat="37.6769874" lon="15.0468037"><ele>1334.0</ele><time>2026-05-02T07:50:33.821Z</time></trkpt><trkpt lat="37.6770829" lon="15.0467526"><ele>1334.0000000000002</ele><time>2026-05-02T07:50:35.821Z</time></trkpt><trkpt lat="37.6771481" lon="15.0467067"><ele>1334.0</ele><time>2026-05-02T07:50:37.821Z</time></trkpt><trkpt lat="37.677219" lon="15.0466569"><ele>1334.0</ele><time>2026-05-02T07:50:40.821Z</time></trkpt><trkpt lat="37.6772733" lon="15.0466114"><ele>1334.0</ele><time>2026-05-02T07:50:42.822Z</time></trkpt><trkpt lat="37.6773242" lon="15.0465343"><ele>1334.0</ele><time>2026-05-02T07:50:45.82Z</time></trkpt><trkpt lat="37.6773341" lon="15.046451"><ele>1334.0000000000002</ele><time>2026-05-02T07:50:47.821Z</time></trkpt><trkpt lat="37.6772869" lon="15.0463827"><ele>1334.0</ele><time>2026-05-02T07:51:04.82Z</time></trkpt><trkpt lat="37.677318" lon="15.0464704"><ele>1334.0</ele><time>2026-05-02T07:51:23.822Z</time></trkpt><trkpt lat="37.6772885" lon="15.0465814"><ele>1334.0</ele><time>2026-05-02T07:51:26.821Z</time></trkpt><trkpt lat="37.677232" lon="15.0466289"><ele>1334.0</ele><time>2026-05-02T07:51:28.821Z</time></trkpt><trkpt lat="37.6771747" lon="15.0466702"><ele>1334.0</ele><time>2026-05-02T07:51:30.822Z</time></trkpt><trkpt lat="37.6770944" lon="15.0467303"><ele>1334.0</ele><time>2026-05-02T07:51:33.821Z</time></trkpt><trkpt lat="37.6770127" lon="15.0467932"><ele>1334.0</ele><time>2026-05-02T07:51:36.821Z</time></trkpt><trkpt lat="37.6769598" lon="15.0468549"><ele>1334.0</ele><time>2026-05-02T07:51:38.821Z</time></trkpt><trkpt lat="37.6769262" lon="15.0469257"><ele>1334.0</ele><time>2026-05-02T07:51:40.82Z</time></trkpt><trkpt lat="37.6768818" lon="15.0470169"><ele>1334.0</ele><time>2026-05-02T07:51:43.821Z</time></trkpt><trkpt lat="37.6768036" lon="15.0470466"><ele>1334.0</ele><time>2026-05-02T07:51:46.821Z</time></trkpt><trkpt lat="37.6767382" lon="15.04698"><ele>1334.0</ele><time>2026-05-02T07:51:49.82Z</time></trkpt><trkpt lat="37.6767042" lon="15.0468725"><ele>1334.0</ele><time>2026-05-02T07:51:52.822Z</time></trkpt><trkpt lat="37.6766635" lon="15.0467987"><ele>1334.0</ele><time>2026-05-02T07:51:54.822Z</time></trkpt><trkpt lat="37.6766618" lon="15.0466816"><ele>1334.0</ele><time>2026-05-02T07:51:56.821Z</time></trkpt><trkpt lat="37.6766365" lon="15.046551"><ele>1334.0</ele><time>2026-05-02T07:51:58.82Z</time></trkpt><trkpt lat="37.6766193" lon="15.0464195"><ele>1334.0</ele><time>2026-05-02T07:52:00.82Z</time></trkpt><trkpt lat="37.6766063" lon="15.046298"><ele>1334.0</ele><time>2026-05-02T07:52:02.821Z</time></trkpt><trkpt lat="37.6765971" lon="15.0461957"><ele>1335.6666666666667</ele><time>2026-05-02T07:52:04.821Z</time></trkpt><trkpt lat="37.6765692" lon="15.0461111"><ele>1337.3333333333335</ele><time>2026-05-02T07:52:06.821Z</time></trkpt><trkpt lat="37.6765285" lon="15.0460032"><ele>1339.0</ele><time>2026-05-02T07:52:08.82Z</time></trkpt><trkpt lat="37.676469" lon="15.0459062"><ele>1340.6666666666667</ele><time>2026-05-02T07:52:10.822Z</time></trkpt><trkpt lat="37.6764041" lon="15.0458311"><ele>1342.3333333333333</ele><time>2026-05-02T07:52:12.821Z</time></trkpt><trkpt lat="37.6763857" lon="15.0457441"><ele>1344.0</ele><time>2026-05-02T07:52:14.821Z</time></trkpt><trkpt lat="37.6763699" lon="15.0456276"><ele>1345.2</ele><time>2026-05-02T07:52:16.821Z</time></trkpt><trkpt lat="37.6763661" lon="15.0454982"><ele>1346.4</ele><time>2026-05-02T07:52:18.821Z</time></trkpt><trkpt lat="37.6763495" lon="15.0453805"><ele>1347.6</ele><time>2026-05-02T07:52:20.82Z</time></trkpt><trkpt lat="37.6763195" lon="15.045254"><ele>1348.8</ele><time>2026-05-02T07:52:22.82Z</time></trkpt><trkpt lat="37.6762863" lon="15.0451316"><ele>1350.0</ele><time>2026-05-02T07:52:24.821Z</time></trkpt><trkpt lat="37.6762572" lon="15.045022"><ele>1349.0</ele><time>2026-05-02T07:52:26.822Z</time></trkpt><trkpt lat="37.6761828" lon="15.0449059"><ele>1348.0</ele><time>2026-05-02T07:52:28.821Z</time></trkpt><trkpt lat="37.6761169" lon="15.0448176"><ele>1347.0</ele><time>2026-05-02T07:52:30.82Z</time></trkpt><trkpt lat="37.6760738" lon="15.0447075"><ele>1346.0</ele><time>2026-05-02T07:52:32.821Z</time></trkpt><trkpt lat="37.6760469" lon="15.0445811"><ele>1345.0</ele><time>2026-05-02T07:52:34.821Z</time></trkpt><trkpt lat="37.6760154" lon="15.0444598"><ele>1345.0</ele><time>2026-05-02T07:52:36.823Z</time></trkpt><trkpt lat="37.6759855" lon="15.0443447"><ele>1345.0</ele><time>2026-05-02T07:52:38.82Z</time></trkpt><trkpt lat="37.675961" lon="15.0442412"><ele>1345.0</ele><time>2026-05-02T07:52:40.821Z</time></trkpt><trkpt lat="37.6759423" lon="15.0441305"><ele>1345.0</ele><time>2026-05-02T07:52:42.82Z</time></trkpt><trkpt lat="37.6759079" lon="15.0440355"><ele>1345.0</ele><time>2026-05-02T07:52:44.821Z</time></trkpt><trkpt lat="37.6758719" lon="15.0439624"><ele>1345.0</ele><time>2026-05-02T07:52:46.82Z</time></trkpt><trkpt lat="37.6758444" lon="15.0438522"><ele>1345.8</ele><time>2026-05-02T07:52:48.82Z</time></trkpt><trkpt lat="37.6758393" lon="15.0437265"><ele>1346.6</ele><time>2026-05-02T07:52:50.821Z</time></trkpt><trkpt lat="37.6758274" lon="15.0436096"><ele>1347.4</ele><time>2026-05-02T07:52:52.822Z</time></trkpt><trkpt lat="37.6757787" lon="15.0435014"><ele>1348.2</ele><time>2026-05-02T07:52:54.821Z</time></trkpt><trkpt lat="37.6757361" lon="15.0433995"><ele>1349.0</ele><time>2026-05-02T07:52:56.821Z</time></trkpt><trkpt lat="37.6757094" lon="15.0432715"><ele>1349.2</ele><time>2026-05-02T07:52:58.82Z</time></trkpt><trkpt lat="37.6756394" lon="15.0431882"><ele>1349.4</ele><time>2026-05-02T07:53:00.822Z</time></trkpt><trkpt lat="37.6755648" lon="15.0431614"><ele>1349.6</ele><time>2026-05-02T07:53:02.821Z</time></trkpt><trkpt lat="37.6754969" lon="15.0430433"><ele>1349.8</ele><time>2026-05-02T07:53:05.821Z</time></trkpt><trkpt lat="37.6754443" lon="15.042929"><ele>1350.0</ele><time>2026-05-02T07:53:07.821Z</time></trkpt><trkpt lat="37.6754214" lon="15.0428223"><ele>1350.0</ele><time>2026-05-02T07:53:09.82Z</time></trkpt><trkpt lat="37.6754166" lon="15.0427205"><ele>1350.0</ele><time>2026-05-02T07:53:11.821Z</time></trkpt><trkpt lat="37.6754254" lon="15.0426085"><ele>1350.0</ele><time>2026-05-02T07:53:13.821Z</time></trkpt><trkpt lat="37.6754441" lon="15.0424917"><ele>1350.0</ele><time>2026-05-02T07:53:15.82Z</time></trkpt><trkpt lat="37.6754398" lon="15.0424104"><ele>1350.0</ele><time>2026-05-02T07:53:16.822Z</time></trkpt><trkpt lat="37.6754005" lon="15.0422656"><ele>1350.0</ele><time>2026-05-02T07:53:18.82Z</time></trkpt><trkpt lat="37.6753785" lon="15.0421794"><ele>1350.0</ele><time>2026-05-02T07:53:19.82Z</time></trkpt><trkpt lat="37.6753502" lon="15.0421051"><ele>1350.0</ele><time>2026-05-02T07:53:20.82Z</time></trkpt><trkpt lat="37.6753364" lon="15.0420247"><ele>1350.0</ele><time>2026-05-02T07:53:21.821Z</time></trkpt><trkpt lat="37.6753022" lon="15.0419505"><ele>1350.0</ele><time>2026-05-02T07:53:22.82Z</time></trkpt><trkpt lat="37.6752815" lon="15.0418583"><ele>1350.0</ele><time>2026-05-02T07:53:23.82Z</time></trkpt><trkpt lat="37.6752575" lon="15.0417725"><ele>1350.0</ele><time>2026-05-02T07:53:24.821Z</time></trkpt><trkpt lat="37.6752392" lon="15.0416893"><ele>1348.6666666666667</ele><time>2026-05-02T07:53:25.821Z</time></trkpt><trkpt lat="37.6752226" lon="15.0415964"><ele>1347.3333333333333</ele><time>2026-05-02T07:53:26.82Z</time></trkpt><trkpt lat="37.6751963" lon="15.0415003"><ele>1346.0</ele><time>2026-05-02T07:53:27.821Z</time></trkpt><trkpt lat="37.6751781" lon="15.0414102"><ele>1344.6666666666665</ele><time>2026-05-02T07:53:28.821Z</time></trkpt><trkpt lat="37.6751914" lon="15.0412934"><ele>1343.3333333333333</ele><time>2026-05-02T07:53:30.821Z</time></trkpt><trkpt lat="37.6751962" lon="15.041172"><ele>1342.0</ele><time>2026-05-02T07:53:33.82Z</time></trkpt><trkpt lat="37.6751326" lon="15.0410915"><ele>1342.0</ele><time>2026-05-02T07:53:36.821Z</time></trkpt><trkpt lat="37.6750551" lon="15.0410165"><ele>1342.0</ele><time>2026-05-02T07:53:38.821Z</time></trkpt><trkpt lat="37.6749764" lon="15.040941"><ele>1342.0</ele><time>2026-05-02T07:53:40.82Z</time></trkpt><trkpt lat="37.6749446" lon="15.0408638"><ele>1342.0</ele><time>2026-05-02T07:53:41.82Z</time></trkpt><trkpt lat="37.674866" lon="15.0407564"><ele>1342.0</ele><time>2026-05-02T07:53:43.821Z</time></trkpt><trkpt lat="37.6747354" lon="15.0407232"><ele>1341.6</ele><time>2026-05-02T07:53:45.821Z</time></trkpt><trkpt lat="37.6746527" lon="15.040689"><ele>1341.1999999999998</ele><time>2026-05-02T07:53:46.821Z</time></trkpt><trkpt lat="37.6745717" lon="15.0406639"><ele>1340.8</ele><time>2026-05-02T07:53:47.82Z</time></trkpt><trkpt lat="37.6744846" lon="15.0406322"><ele>1340.4</ele><time>2026-05-02T07:53:48.82Z</time></trkpt><trkpt lat="37.6743895" lon="15.0406218"><ele>1340.0</ele><time>2026-05-02T07:53:49.822Z</time></trkpt><trkpt lat="37.674295" lon="15.0405936"><ele>1340.0</ele><time>2026-05-02T07:53:50.82Z</time></trkpt><trkpt lat="37.6742062" lon="15.0405812"><ele>1340.0</ele><time>2026-05-02T07:53:51.821Z</time></trkpt><trkpt lat="37.6741373" lon="15.0405878"><ele>1340.0</ele><time>2026-05-02T07:53:52.82Z</time></trkpt><trkpt lat="37.6740548" lon="15.0405946"><ele>1340.0</ele><time>2026-05-02T07:53:53.82Z</time></trkpt><trkpt lat="37.6739443" lon="15.0405835"><ele>1340.0</ele><time>2026-05-02T07:53:55.82Z</time></trkpt><trkpt lat="37.6738431" lon="15.0405627"><ele>1340.0</ele><time>2026-05-02T07:53:57.82Z</time></trkpt><trkpt lat="37.673786" lon="15.0405288"><ele>1340.0</ele><time>2026-05-02T07:53:59.821Z</time></trkpt><trkpt lat="37.6736911" lon="15.0404307"><ele>1340.0</ele><time>2026-05-02T07:54:01.82Z</time></trkpt><trkpt lat="37.6736326" lon="15.0403733"><ele>1340.0</ele><time>2026-05-02T07:54:02.82Z</time></trkpt><trkpt lat="37.6735674" lon="15.0402764"><ele>1340.0</ele><time>2026-05-02T07:54:04.821Z</time></trkpt><trkpt lat="37.6735415" lon="15.0401918"><ele>1340.0</ele><time>2026-05-02T07:54:05.822Z</time></trkpt><trkpt lat="37.6735232" lon="15.0401102"><ele>1337.6666666666667</ele><time>2026-05-02T07:54:06.82Z</time></trkpt><trkpt lat="37.673513" lon="15.0400072"><ele>1335.3333333333335</ele><time>2026-05-02T07:54:07.82Z</time></trkpt><trkpt lat="37.6734937" lon="15.0398675"><ele>1333.0</ele><time>2026-05-02T07:54:09.821Z</time></trkpt><trkpt lat="37.6734491" lon="15.0397894"><ele>1330.6666666666667</ele><time>2026-05-02T07:54:11.822Z</time></trkpt><trkpt lat="37.6733721" lon="15.0397884"><ele>1328.3333333333333</ele><time>2026-05-02T07:54:13.821Z</time></trkpt><trkpt lat="37.6733152" lon="15.0398228"><ele>1326.0</ele><time>2026-05-02T07:54:14.821Z</time></trkpt><trkpt lat="37.6732609" lon="15.0398696"><ele>1326.0</ele><time>2026-05-02T07:54:15.822Z</time></trkpt><trkpt lat="37.673167" lon="15.0399238"><ele>1326.0</ele><time>2026-05-02T07:54:17.821Z</time></trkpt><trkpt lat="37.6731051" lon="15.0399614"><ele>1326.0</ele><time>2026-05-02T07:54:19.82Z</time></trkpt><trkpt lat="37.6730336" lon="15.0399824"><ele>1326.0</ele><time>2026-05-02T08:06:28.817Z</time></trkpt><trkpt lat="37.6729869" lon="15.040057"><ele>1326.0</ele><time>2026-05-02T08:06:30.818Z</time></trkpt><trkpt lat="37.6729375" lon="15.0401076"><ele>1326.0</ele><time>2026-05-02T08:06:32.818Z</time></trkpt><trkpt lat="37.6728707" lon="15.0401738"><ele>1325.6666666666667</ele><time>2026-05-02T08:06:34.818Z</time></trkpt><trkpt lat="37.6728186" lon="15.0402264"><ele>1325.3333333333333</ele><time>2026-05-02T08:06:36.818Z</time></trkpt><trkpt lat="37.6728206" lon="15.0403339"><ele>1325.0</ele><time>2026-05-02T08:06:40.818Z</time></trkpt><trkpt lat="37.6728557" lon="15.0404288"><ele>1324.6666666666665</ele><time>2026-05-02T08:06:43.819Z</time></trkpt><trkpt lat="37.6728798" lon="15.040523"><ele>1324.3333333333333</ele><time>2026-05-02T08:06:46.817Z</time></trkpt><trkpt lat="37.6728922" lon="15.0406136"><ele>1324.0</ele><time>2026-05-02T08:06:51.819Z</time></trkpt><trkpt lat="37.6728241" lon="15.0406324"><ele>1322.3333333333333</ele><time>2026-05-02T08:06:54.818Z</time></trkpt><trkpt lat="37.672741" lon="15.0406019"><ele>1320.6666666666665</ele><time>2026-05-02T08:06:57.817Z</time></trkpt><trkpt lat="37.6726432" lon="15.0406212"><ele>1319.0</ele><time>2026-05-02T08:07:00.817Z</time></trkpt><trkpt lat="37.6725692" lon="15.0406597"><ele>1317.3333333333333</ele><time>2026-05-02T08:07:03.818Z</time></trkpt><trkpt lat="37.6724876" lon="15.0406731"><ele>1315.6666666666667</ele><time>2026-05-02T08:07:06.818Z</time></trkpt><trkpt lat="37.6724101" lon="15.0406902"><ele>1314.0</ele><time>2026-05-02T08:07:09.817Z</time></trkpt><trkpt lat="37.6723366" lon="15.0406911"><ele>1314.0</ele><time>2026-05-02T08:07:12.818Z</time></trkpt><trkpt lat="37.6722591" lon="15.0406904"><ele>1314.0</ele><time>2026-05-02T08:07:16.817Z</time></trkpt><trkpt lat="37.6722005" lon="15.0407311"><ele>1314.0</ele><time>2026-05-02T08:07:21.817Z</time></trkpt><trkpt lat="37.6722619" lon="15.0407013"><ele>1314.0</ele><time>2026-05-02T08:07:36.818Z</time></trkpt><trkpt lat="37.6723615" lon="15.0406888"><ele>1314.0</ele><time>2026-05-02T08:07:39.817Z</time></trkpt><trkpt lat="37.672457" lon="15.0406701"><ele>1314.0</ele><time>2026-05-02T08:07:41.818Z</time></trkpt><trkpt lat="37.6725581" lon="15.0406573"><ele>1314.0</ele><time>2026-05-02T08:07:43.818Z</time></trkpt><trkpt lat="37.6726193" lon="15.0406348"><ele>1314.0</ele><time>2026-05-02T08:07:44.818Z</time></trkpt><trkpt lat="37.6726849" lon="15.040632"><ele>1314.0</ele><time>2026-05-02T08:07:45.817Z</time></trkpt><trkpt lat="37.672787" lon="15.0406533"><ele>1314.0</ele><time>2026-05-02T08:07:47.817Z</time></trkpt><trkpt lat="37.672863" lon="15.0406414"><ele>1314.0</ele><time>2026-05-02T08:07:49.818Z</time></trkpt><trkpt lat="37.6728657" lon="15.0405413"><ele>1314.0</ele><time>2026-05-02T08:07:52.817Z</time></trkpt><trkpt lat="37.6728518" lon="15.0404412"><ele>1315.6666666666667</ele><time>2026-05-02T08:07:55.817Z</time></trkpt><trkpt lat="37.6728141" lon="15.0403416"><ele>1317.3333333333333</ele><time>2026-05-02T08:07:58.819Z</time></trkpt><trkpt lat="37.6728158" lon="15.0402451"><ele>1319.0</ele><time>2026-05-02T08:08:02.818Z</time></trkpt><trkpt lat="37.6728932" lon="15.0401692"><ele>1320.6666666666665</ele><time>2026-05-02T08:08:06.819Z</time></trkpt><trkpt lat="37.6729602" lon="15.0401092"><ele>1322.3333333333333</ele><time>2026-05-02T08:08:08.818Z</time></trkpt><trkpt lat="37.6730445" lon="15.0400453"><ele>1324.0</ele><time>2026-05-02T08:11:35.817Z</time></trkpt><trkpt lat="37.6731036" lon="15.0400144"><ele>1324.0</ele><time>2026-05-02T08:11:38.817Z</time></trkpt><trkpt lat="37.6731074" lon="15.0399344"><ele>1324.0</ele><time>2026-05-02T08:11:43.817Z</time></trkpt><trkpt lat="37.6730495" lon="15.0399789"><ele>1324.0</ele><time>2026-05-02T08:11:45.818Z</time></trkpt><trkpt lat="37.6730026" lon="15.0400539"><ele>1324.0</ele><time>2026-05-02T08:11:48.816Z</time></trkpt><trkpt lat="37.6729415" lon="15.0400981"><ele>1324.0</ele><time>2026-05-02T08:12:03.816Z</time></trkpt><trkpt lat="37.6728788" lon="15.040164"><ele>1324.0</ele><time>2026-05-02T08:12:05.817Z</time></trkpt><trkpt lat="37.6728299" lon="15.0402186"><ele>1324.0</ele><time>2026-05-02T08:12:07.816Z</time></trkpt><trkpt lat="37.6727971" lon="15.0402879"><ele>1324.0</ele><time>2026-05-02T08:12:11.817Z</time></trkpt><trkpt lat="37.6728408" lon="15.0403841"><ele>1324.0</ele><time>2026-05-02T08:12:14.817Z</time></trkpt><trkpt lat="37.6728753" lon="15.0404617"><ele>1324.0</ele><time>2026-05-02T08:12:17.816Z</time></trkpt><trkpt lat="37.6728867" lon="15.0405519"><ele>1324.0</ele><time>2026-05-02T08:12:19.818Z</time></trkpt><trkpt lat="37.6728731" lon="15.0406308"><ele>1324.0</ele><time>2026-05-02T08:12:22.816Z</time></trkpt><trkpt lat="37.6728067" lon="15.0406464"><ele>1324.0</ele><time>2026-05-02T08:12:25.816Z</time></trkpt><trkpt lat="37.6727256" lon="15.0406276"><ele>1324.0</ele><time>2026-05-02T08:12:28.818Z</time></trkpt><trkpt lat="37.6726342" lon="15.0406457"><ele>1322.5714285714287</ele><time>2026-05-02T08:12:31.816Z</time></trkpt><trkpt lat="37.6725657" lon="15.040662"><ele>1321.142857142857</ele><time>2026-05-02T08:12:34.816Z</time></trkpt><trkpt lat="37.6725022" lon="15.0406626"><ele>1319.7142857142858</ele><time>2026-05-02T08:12:36.817Z</time></trkpt><trkpt lat="37.6724315" lon="15.0406792"><ele>1318.2857142857142</ele><time>2026-05-02T08:12:38.817Z</time></trkpt><trkpt lat="37.6723663" lon="15.0406896"><ele>1316.857142857143</ele><time>2026-05-02T08:12:40.818Z</time></trkpt><trkpt lat="37.6722911" lon="15.0406869"><ele>1315.4285714285713</ele><time>2026-05-02T08:12:43.817Z</time></trkpt><trkpt lat="37.6722256" lon="15.0407051"><ele>1314.0</ele><time>2026-05-02T08:12:46.816Z</time></trkpt><trkpt lat="37.6721708" lon="15.0407694"><ele>1314.0</ele><time>2026-05-02T08:13:00.817Z</time></trkpt><trkpt lat="37.6720945" lon="15.0407963"><ele>1314.0</ele><time>2026-05-02T08:13:03.816Z</time></trkpt><trkpt lat="37.6720065" lon="15.0408138"><ele>1314.0</ele><time>2026-05-02T08:13:06.817Z</time></trkpt><trkpt lat="37.6719401" lon="15.0408682"><ele>1314.0</ele><time>2026-05-02T08:13:09.817Z</time></trkpt><trkpt lat="37.6718756" lon="15.0409045"><ele>1314.0</ele><time>2026-05-02T08:13:12.816Z</time></trkpt><trkpt lat="37.6718002" lon="15.040926"><ele>1314.0</ele><time>2026-05-02T08:13:14.817Z</time></trkpt><trkpt lat="37.6717208" lon="15.0409533"><ele>1311.8333333333333</ele><time>2026-05-02T08:13:16.817Z</time></trkpt><trkpt lat="37.6716452" lon="15.0409385"><ele>1309.6666666666667</ele><time>2026-05-02T08:13:24.816Z</time></trkpt><trkpt lat="37.6716002" lon="15.0408616"><ele>1307.5</ele><time>2026-05-02T08:13:29.816Z</time></trkpt><trkpt lat="37.6715944" lon="15.0407755"><ele>1305.3333333333335</ele><time>2026-05-02T08:13:32.816Z</time></trkpt><trkpt lat="37.6716829" lon="15.0407054"><ele>1303.1666666666667</ele><time>2026-05-02T08:13:35.817Z</time></trkpt><trkpt lat="37.671746" lon="15.040642"><ele>1301.0</ele><time>2026-05-02T08:13:36.816Z</time></trkpt><trkpt lat="37.6717954" lon="15.0405673"><ele>1301.0</ele><time>2026-05-02T08:13:38.819Z</time></trkpt><trkpt lat="37.6718812" lon="15.0405039"><ele>1301.0</ele><time>2026-05-02T08:13:40.816Z</time></trkpt><trkpt lat="37.672" lon="15.0404835"><ele>1301.0</ele><time>2026-05-02T08:13:42.816Z</time></trkpt><trkpt lat="37.6721045" lon="15.0404214"><ele>1301.0</ele><time>2026-05-02T08:13:44.816Z</time></trkpt><trkpt lat="37.6721486" lon="15.0403547"><ele>1301.0</ele><time>2026-05-02T08:13:45.816Z</time></trkpt><trkpt lat="37.6721904" lon="15.0402925"><ele>1302.857142857143</ele><time>2026-05-02T08:13:46.817Z</time></trkpt><trkpt lat="37.6722315" lon="15.0402197"><ele>1304.7142857142858</ele><time>2026-05-02T08:13:47.816Z</time></trkpt><trkpt lat="37.6722745" lon="15.0401463"><ele>1306.5714285714284</ele><time>2026-05-02T08:13:48.817Z</time></trkpt><trkpt lat="37.6723096" lon="15.040075"><ele>1308.4285714285716</ele><time>2026-05-02T08:13:49.816Z</time></trkpt><trkpt lat="37.6723678" lon="15.0400142"><ele>1310.2857142857144</ele><time>2026-05-02T08:13:55.817Z</time></trkpt><trkpt lat="37.6723348" lon="15.0399404"><ele>1312.142857142857</ele><time>2026-05-02T08:13:57.816Z</time></trkpt><trkpt lat="37.6723012" lon="15.0398477"><ele>1314.0</ele><time>2026-05-02T08:14:00.816Z</time></trkpt><trkpt lat="37.6723312" lon="15.0397472"><ele>1314.0</ele><time>2026-05-02T08:14:04.816Z</time></trkpt><trkpt lat="37.6724226" lon="15.0397087"><ele>1314.0</ele><time>2026-05-02T08:14:07.817Z</time></trkpt><trkpt lat="37.6725136" lon="15.0396932"><ele>1314.0</ele><time>2026-05-02T08:14:10.817Z</time></trkpt><trkpt lat="37.6725909" lon="15.039611"><ele>1314.0</ele><time>2026-05-02T08:14:12.816Z</time></trkpt><trkpt lat="37.672662" lon="15.0395768"><ele>1314.0</ele><time>2026-05-02T08:14:14.817Z</time></trkpt><trkpt lat="37.672768" lon="15.0395686"><ele>1316.4</ele><time>2026-05-02T08:14:16.816Z</time></trkpt><trkpt lat="37.6728624" lon="15.0395229"><ele>1318.8000000000002</ele><time>2026-05-02T08:14:18.817Z</time></trkpt><trkpt lat="37.6729325" lon="15.0394626"><ele>1321.1999999999998</ele><time>2026-05-02T08:14:20.817Z</time></trkpt><trkpt lat="37.6729776" lon="15.0393801"><ele>1323.6</ele><time>2026-05-02T08:14:22.817Z</time></trkpt><trkpt lat="37.6730218" lon="15.0392941"><ele>1326.0</ele><time>2026-05-02T08:14:24.816Z</time></trkpt><trkpt lat="37.6731264" lon="15.0392495"><ele>1326.0</ele><time>2026-05-02T08:14:26.816Z</time></trkpt><trkpt lat="37.6732048" lon="15.0391987"><ele>1326.0</ele><time>2026-05-02T08:14:28.816Z</time></trkpt><trkpt lat="37.6732686" lon="15.0391218"><ele>1326.0</ele><time>2026-05-02T08:14:30.817Z</time></trkpt><trkpt lat="37.6733137" lon="15.0390551"><ele>1326.0</ele><time>2026-05-02T08:14:36.817Z</time></trkpt><trkpt lat="37.6732834" lon="15.038948"><ele>1326.0</ele><time>2026-05-02T08:14:38.816Z</time></trkpt><trkpt lat="37.673306" lon="15.0387832"><ele>1327.5</ele><time>2026-05-02T08:14:40.817Z</time></trkpt><trkpt lat="37.6731456" lon="15.0387334"><ele>1329.0</ele><time>2026-05-02T08:14:41.816Z</time></trkpt><trkpt lat="37.673077" lon="15.0386453"><ele>1330.5</ele><time>2026-05-02T08:14:43.816Z</time></trkpt><trkpt lat="37.673045" lon="15.0384993"><ele>1332.0</ele><time>2026-05-02T08:14:45.816Z</time></trkpt><trkpt lat="37.6730161" lon="15.0383972"><ele>1332.0</ele><time>2026-05-02T08:14:46.817Z</time></trkpt><trkpt lat="37.6729638" lon="15.0383009"><ele>1332.0</ele><time>2026-05-02T08:14:48.816Z</time></trkpt><trkpt lat="37.672993" lon="15.0384202"><ele>1332.0</ele><time>2026-05-02T08:15:01.816Z</time></trkpt><trkpt lat="37.6730252" lon="15.0384888"><ele>1332.0</ele><time>2026-05-02T08:15:02.816Z</time></trkpt><trkpt lat="37.6730605" lon="15.0386261"><ele>1332.0</ele><time>2026-05-02T08:15:04.816Z</time></trkpt><trkpt lat="37.6731381" lon="15.0387347"><ele>1332.0</ele><time>2026-05-02T08:15:06.816Z</time></trkpt><trkpt lat="37.6731897" lon="15.0387941"><ele>1332.0</ele><time>2026-05-02T08:15:07.816Z</time></trkpt><trkpt lat="37.6732595" lon="15.0388666"><ele>1332.0</ele><time>2026-05-02T08:15:08.817Z</time></trkpt><trkpt lat="37.6732978" lon="15.0389653"><ele>1332.0</ele><time>2026-05-02T08:15:09.816Z</time></trkpt><trkpt lat="37.6733416" lon="15.0390726"><ele>1332.0</ele><time>2026-05-02T08:15:10.816Z</time></trkpt><trkpt lat="37.6733798" lon="15.0391676"><ele>1332.0</ele><time>2026-05-02T08:15:11.817Z</time></trkpt><trkpt lat="37.6734163" lon="15.0392808"><ele>1330.8</ele><time>2026-05-02T08:15:12.817Z</time></trkpt><trkpt lat="37.6734505" lon="15.0393916"><ele>1329.6</ele><time>2026-05-02T08:15:13.817Z</time></trkpt><trkpt lat="37.6734628" lon="15.0394761"><ele>1328.3999999999999</ele><time>2026-05-02T08:15:14.816Z</time></trkpt><trkpt lat="37.6734802" lon="15.0395653"><ele>1327.1999999999998</ele><time>2026-05-02T08:15:15.816Z</time></trkpt><trkpt lat="37.6734016" lon="15.0396923"><ele>1326.0</ele><time>2026-05-02T08:15:17.817Z</time></trkpt><trkpt lat="37.6733325" lon="15.0397699"><ele>1326.0</ele><time>2026-05-02T08:15:18.816Z</time></trkpt><trkpt lat="37.6732467" lon="15.0398429"><ele>1326.0</ele><time>2026-05-02T08:15:19.817Z</time></trkpt><trkpt lat="37.6731601" lon="15.03991"><ele>1326.0</ele><time>2026-05-02T08:15:20.816Z</time></trkpt><trkpt lat="37.6730908" lon="15.0399667"><ele>1326.0</ele><time>2026-05-02T08:15:21.816Z</time></trkpt><trkpt lat="37.6730337" lon="15.0400069"><ele>1326.0</ele><time>2026-05-02T08:15:22.816Z</time></trkpt><trkpt lat="37.6729745" lon="15.0400548"><ele>1326.0</ele><time>2026-05-02T08:15:23.817Z</time></trkpt><trkpt lat="37.6728745" lon="15.040138"><ele>1325.6666666666667</ele><time>2026-05-02T08:15:25.817Z</time></trkpt><trkpt lat="37.6728075" lon="15.0402231"><ele>1325.3333333333333</ele><time>2026-05-02T08:15:27.816Z</time></trkpt><trkpt lat="37.6727868" lon="15.0403031"><ele>1325.0</ele><time>2026-05-02T08:15:30.816Z</time></trkpt><trkpt lat="37.6728378" lon="15.0403942"><ele>1324.6666666666665</ele><time>2026-05-02T08:15:32.818Z</time></trkpt><trkpt lat="37.6728748" lon="15.0404619"><ele>1324.3333333333333</ele><time>2026-05-02T08:15:34.816Z</time></trkpt><trkpt lat="37.6728901" lon="15.0405452"><ele>1324.0</ele><time>2026-05-02T08:15:36.816Z</time></trkpt><trkpt lat="37.6728735" lon="15.0406349"><ele>1324.0</ele><time>2026-05-02T08:15:39.816Z</time></trkpt><trkpt lat="37.6728008" lon="15.0406381"><ele>1324.0</ele><time>2026-05-02T08:15:41.817Z</time></trkpt><trkpt lat="37.6727337" lon="15.040619"><ele>1324.0</ele><time>2026-05-02T08:15:43.818Z</time></trkpt><trkpt lat="37.672666" lon="15.0406371"><ele>1324.0</ele><time>2026-05-02T08:15:44.816Z</time></trkpt><trkpt lat="37.6725777" lon="15.0406659"><ele>1324.0</ele><time>2026-05-02T08:15:46.816Z</time></trkpt><trkpt lat="37.6724888" lon="15.040691"><ele>1324.0</ele><time>2026-05-02T08:15:48.816Z</time></trkpt><trkpt lat="37.6724015" lon="15.040691"><ele>1322.3333333333333</ele><time>2026-05-02T08:15:50.818Z</time></trkpt><trkpt lat="37.6723336" lon="15.0407084"><ele>1320.6666666666665</ele><time>2026-05-02T08:15:52.817Z</time></trkpt><trkpt lat="37.6722564" lon="15.0407143"><ele>1319.0</ele><time>2026-05-02T08:15:54.815Z</time></trkpt><trkpt lat="37.6721732" lon="15.0407491"><ele>1317.3333333333333</ele><time>2026-05-02T08:15:56.817Z</time></trkpt><trkpt lat="37.6720696" lon="15.0407964"><ele>1315.6666666666667</ele><time>2026-05-02T08:15:58.817Z</time></trkpt><trkpt lat="37.6720066" lon="15.0408178"><ele>1314.0</ele><time>2026-05-02T08:16:00.817Z</time></trkpt><trkpt lat="37.6719333" lon="15.0408754"><ele>1311.6666666666667</ele><time>2026-05-02T08:16:02.816Z</time></trkpt><trkpt lat="37.6718717" lon="15.0409289"><ele>1309.3333333333333</ele><time>2026-05-02T08:16:04.817Z</time></trkpt><trkpt lat="37.6717678" lon="15.0409509"><ele>1307.0</ele><time>2026-05-02T08:16:06.816Z</time></trkpt><trkpt lat="37.671693" lon="15.0409775"><ele>1304.6666666666665</ele><time>2026-05-02T08:16:08.818Z</time></trkpt><trkpt lat="37.6716256" lon="15.0409787"><ele>1302.3333333333333</ele><time>2026-05-02T08:16:30.815Z</time></trkpt><trkpt lat="37.6716352" lon="15.0410706"><ele>1300.0</ele><time>2026-05-02T08:16:44.815Z</time></trkpt><trkpt lat="37.6716596" lon="15.0411642"><ele>1300.0</ele><time>2026-05-02T08:16:47.817Z</time></trkpt><trkpt lat="37.6717238" lon="15.0412465"><ele>1300.0</ele><time>2026-05-02T08:16:50.816Z</time></trkpt><trkpt lat="37.6717831" lon="15.0413037"><ele>1300.0</ele><time>2026-05-02T08:16:52.818Z</time></trkpt><trkpt lat="37.6718762" lon="15.041382"><ele>1300.0</ele><time>2026-05-02T08:16:54.816Z</time></trkpt><trkpt lat="37.6719362" lon="15.0414151"><ele>1300.0</ele><time>2026-05-02T08:16:55.816Z</time></trkpt><trkpt lat="37.6720063" lon="15.0414334"><ele>1300.0</ele><time>2026-05-02T08:16:56.817Z</time></trkpt><trkpt lat="37.6720685" lon="15.041454"><ele>1302.8</ele><time>2026-05-02T08:16:57.815Z</time></trkpt><trkpt lat="37.6721639" lon="15.0415016"><ele>1305.6</ele><time>2026-05-02T08:16:59.815Z</time></trkpt><trkpt lat="37.6722555" lon="15.0415067"><ele>1308.4</ele><time>2026-05-02T08:17:01.816Z</time></trkpt><trkpt lat="37.6723634" lon="15.0414777"><ele>1311.2</ele><time>2026-05-02T08:17:03.816Z</time></trkpt><trkpt lat="37.6724528" lon="15.0415225"><ele>1314.0</ele><time>2026-05-02T08:17:05.815Z</time></trkpt><trkpt lat="37.6725419" lon="15.0415863"><ele>1310.8333333333333</ele><time>2026-05-02T08:17:07.817Z</time></trkpt><trkpt lat="37.6726089" lon="15.0416764"><ele>1307.6666666666667</ele><time>2026-05-02T08:17:09.816Z</time></trkpt><trkpt lat="37.672644" lon="15.0417856"><ele>1304.5</ele><time>2026-05-02T08:17:11.816Z</time></trkpt><trkpt lat="37.6726899" lon="15.0418612"><ele>1301.3333333333335</ele><time>2026-05-02T08:17:13.815Z</time></trkpt><trkpt lat="37.6727006" lon="15.04194"><ele>1298.1666666666667</ele><time>2026-05-02T08:17:15.816Z</time></trkpt><trkpt lat="37.672646" lon="15.0420202"><ele>1295.0</ele><time>2026-05-02T08:17:18.817Z</time></trkpt><trkpt lat="37.6725596" lon="15.0419666"><ele>1295.0</ele><time>2026-05-02T08:17:21.815Z</time></trkpt><trkpt lat="37.6724588" lon="15.0419179"><ele>1295.0</ele><time>2026-05-02T08:17:23.816Z</time></trkpt><trkpt lat="37.6723517" lon="15.0419044"><ele>1295.0</ele><time>2026-05-02T08:17:25.816Z</time></trkpt><trkpt lat="37.672288" lon="15.0418897"><ele>1295.0</ele><time>2026-05-02T08:17:26.817Z</time></trkpt><trkpt lat="37.6722213" lon="15.0418659"><ele>1295.0</ele><time>2026-05-02T08:17:28.815Z</time></trkpt><trkpt lat="37.6721533" lon="15.0418425"><ele>1295.0</ele><time>2026-05-02T08:17:29.816Z</time></trkpt><trkpt lat="37.6720868" lon="15.0418302"><ele>1295.0</ele><time>2026-05-02T08:17:30.816Z</time></trkpt><trkpt lat="37.6720253" lon="15.0418024"><ele>1295.0</ele><time>2026-05-02T08:17:31.815Z</time></trkpt><trkpt lat="37.6719172" lon="15.0417329"><ele>1295.0</ele><time>2026-05-02T08:17:33.816Z</time></trkpt><trkpt lat="37.6718489" lon="15.0417036"><ele>1295.0</ele><time>2026-05-02T08:17:34.816Z</time></trkpt><trkpt lat="37.6717797" lon="15.0416814"><ele>1295.0</ele><time>2026-05-02T08:17:35.816Z</time></trkpt><trkpt lat="37.6717004" lon="15.0416631"><ele>1295.0</ele><time>2026-05-02T08:17:36.815Z</time></trkpt><trkpt lat="37.6716311" lon="15.0416659"><ele>1292.8</ele><time>2026-05-02T08:17:37.816Z</time></trkpt><trkpt lat="37.6714946" lon="15.0416931"><ele>1290.6</ele><time>2026-05-02T08:17:39.816Z</time></trkpt><trkpt lat="37.6713983" lon="15.0417026"><ele>1288.4</ele><time>2026-05-02T08:17:41.816Z</time></trkpt><trkpt lat="37.6713064" lon="15.0417301"><ele>1286.2</ele><time>2026-05-02T08:17:43.816Z</time></trkpt><trkpt lat="37.6712241" lon="15.0417197"><ele>1284.0</ele><time>2026-05-02T08:17:45.815Z</time></trkpt><trkpt lat="37.6711193" lon="15.0417717"><ele>1282.1666666666667</ele><time>2026-05-02T08:17:47.816Z</time></trkpt><trkpt lat="37.6710395" lon="15.0418039"><ele>1280.3333333333333</ele><time>2026-05-02T08:17:49.817Z</time></trkpt><trkpt lat="37.6709415" lon="15.0418224"><ele>1278.5</ele><time>2026-05-02T08:17:52.815Z</time></trkpt><trkpt lat="37.6708622" lon="15.0418361"><ele>1276.6666666666665</ele><time>2026-05-02T08:17:54.815Z</time></trkpt><trkpt lat="37.6707854" lon="15.0418479"><ele>1274.8333333333333</ele><time>2026-05-02T08:17:56.816Z</time></trkpt><trkpt lat="37.6707047" lon="15.0418429"><ele>1273.0</ele><time>2026-05-02T08:17:58.816Z</time></trkpt><trkpt lat="37.6706119" lon="15.0418419"><ele>1273.0</ele><time>2026-05-02T08:18:00.816Z</time></trkpt><trkpt lat="37.6705009" lon="15.041816"><ele>1273.0</ele><time>2026-05-02T08:18:02.816Z</time></trkpt><trkpt lat="37.6703925" lon="15.0417997"><ele>1273.0</ele><time>2026-05-02T08:18:04.815Z</time></trkpt><trkpt lat="37.6703038" lon="15.0417592"><ele>1273.0</ele><time>2026-05-02T08:18:06.815Z</time></trkpt><trkpt lat="37.6702137" lon="15.0417881"><ele>1273.0</ele><time>2026-05-02T08:18:08.815Z</time></trkpt><trkpt lat="37.6701918" lon="15.0418846"><ele>1273.0</ele><time>2026-05-02T08:18:12.816Z</time></trkpt><trkpt lat="37.6702444" lon="15.041961"><ele>1273.0</ele><time>2026-05-02T08:18:15.815Z</time></trkpt><trkpt lat="37.6703281" lon="15.0420081"><ele>1273.0</ele><time>2026-05-02T08:18:18.815Z</time></trkpt><trkpt lat="37.6703893" lon="15.0420517"><ele>1273.0</ele><time>2026-05-02T08:18:20.816Z</time></trkpt><trkpt lat="37.6704695" lon="15.0420628"><ele>1273.0</ele><time>2026-05-02T08:18:21.816Z</time></trkpt><trkpt lat="37.6705328" lon="15.0420778"><ele>1273.0</ele><time>2026-05-02T08:18:22.816Z</time></trkpt><trkpt lat="37.6706484" lon="15.0421026"><ele>1273.0</ele><time>2026-05-02T08:18:24.816Z</time></trkpt><trkpt lat="37.6707709" lon="15.0421581"><ele>1273.0</ele><time>2026-05-02T08:18:26.815Z</time></trkpt><trkpt lat="37.670853" lon="15.0421796"><ele>1273.0</ele><time>2026-05-02T08:18:27.816Z</time></trkpt><trkpt lat="37.6709178" lon="15.0422001"><ele>1273.0</ele><time>2026-05-02T08:18:28.815Z</time></trkpt><trkpt lat="37.6709856" lon="15.0422102"><ele>1273.0</ele><time>2026-05-02T08:18:29.815Z</time></trkpt><trkpt lat="37.6710568" lon="15.0422077"><ele>1273.0</ele><time>2026-05-02T08:18:30.815Z</time></trkpt><trkpt lat="37.6711649" lon="15.0421949"><ele>1274.8333333333333</ele><time>2026-05-02T08:18:32.817Z</time></trkpt><trkpt lat="37.6712718" lon="15.0422023"><ele>1276.6666666666665</ele><time>2026-05-02T08:18:34.815Z</time></trkpt><trkpt lat="37.6713458" lon="15.042262"><ele>1278.5</ele><time>2026-05-02T08:18:36.815Z</time></trkpt><trkpt lat="37.671416" lon="15.0423168"><ele>1280.3333333333333</ele><time>2026-05-02T08:18:38.815Z</time></trkpt><trkpt lat="37.6714793" lon="15.0423356"><ele>1282.1666666666667</ele><time>2026-05-02T08:18:39.817Z</time></trkpt><trkpt lat="37.6715738" lon="15.0423899"><ele>1284.0</ele><time>2026-05-02T08:18:41.815Z</time></trkpt><trkpt lat="37.671644" lon="15.0424259"><ele>1284.0</ele><time>2026-05-02T08:18:43.817Z</time></trkpt><trkpt lat="37.6717302" lon="15.0424669"><ele>1284.0</ele><time>2026-05-02T08:18:45.815Z</time></trkpt><trkpt lat="37.6717844" lon="15.0425202"><ele>1284.0</ele><time>2026-05-02T08:18:52.817Z</time></trkpt><trkpt lat="37.6717239" lon="15.042463"><ele>1284.0</ele><time>2026-05-02T08:19:32.815Z</time></trkpt><trkpt lat="37.6716306" lon="15.0424431"><ele>1284.0</ele><time>2026-05-02T08:19:44.815Z</time></trkpt><trkpt lat="37.6715526" lon="15.0424084"><ele>1284.0</ele><time>2026-05-02T08:19:46.816Z</time></trkpt><trkpt lat="37.6714765" lon="15.0423777"><ele>1284.0</ele><time>2026-05-02T08:19:48.815Z</time></trkpt><trkpt lat="37.6714062" lon="15.0423192"><ele>1284.0</ele><time>2026-05-02T08:19:50.815Z</time></trkpt><trkpt lat="37.6713487" lon="15.0422465"><ele>1284.0</ele><time>2026-05-02T08:19:52.815Z</time></trkpt><trkpt lat="37.6712832" lon="15.0422271"><ele>1284.0</ele><time>2026-05-02T08:19:53.815Z</time></trkpt><trkpt lat="37.6711669" lon="15.0422026"><ele>1284.0</ele><time>2026-05-02T08:19:55.817Z</time></trkpt><trkpt lat="37.6710345" lon="15.0421859"><ele>1282.1666666666667</ele><time>2026-05-02T08:19:57.816Z</time></trkpt><trkpt lat="37.6709496" lon="15.0421663"><ele>1280.3333333333333</ele><time>2026-05-02T08:19:58.815Z</time></trkpt><trkpt lat="37.6708844" lon="15.0421445"><ele>1278.5</ele><time>2026-05-02T08:19:59.816Z</time></trkpt><trkpt lat="37.6708197" lon="15.0421508"><ele>1276.6666666666665</ele><time>2026-05-02T08:20:00.815Z</time></trkpt><trkpt lat="37.6707305" lon="15.0421208"><ele>1274.8333333333333</ele><time>2026-05-02T08:20:02.817Z</time></trkpt><trkpt lat="37.670654" lon="15.0420907"><ele>1273.0</ele><time>2026-05-02T08:20:04.815Z</time></trkpt><trkpt lat="37.6705696" lon="15.0420907"><ele>1273.0</ele><time>2026-05-02T08:20:06.815Z</time></trkpt><trkpt lat="37.670486" lon="15.0420798"><ele>1273.0</ele><time>2026-05-02T08:20:08.815Z</time></trkpt><trkpt lat="37.6704008" lon="15.0420602"><ele>1273.0</ele><time>2026-05-02T08:20:10.815Z</time></trkpt><trkpt lat="37.6703326" lon="15.0420323"><ele>1273.0</ele><time>2026-05-02T08:20:13.815Z</time></trkpt><trkpt lat="37.670246" lon="15.042062"><ele>1273.0</ele><time>2026-05-02T08:20:19.815Z</time></trkpt><trkpt lat="37.6701865" lon="15.0421111"><ele>1273.0</ele><time>2026-05-02T08:20:21.815Z</time></trkpt><trkpt lat="37.670107" lon="15.0421639"><ele>1270.1666666666665</ele><time>2026-05-02T08:20:24.817Z</time></trkpt><trkpt lat="37.6700386" lon="15.0422108"><ele>1267.3333333333333</ele><time>2026-05-02T08:20:27.816Z</time></trkpt><trkpt lat="37.6699611" lon="15.0422416"><ele>1264.5</ele><time>2026-05-02T08:20:30.816Z</time></trkpt><trkpt lat="37.6698902" lon="15.0422931"><ele>1261.6666666666667</ele><time>2026-05-02T08:20:33.815Z</time></trkpt><trkpt lat="37.6698268" lon="15.0423049"><ele>1258.8333333333335</ele><time>2026-05-02T08:20:45.814Z</time></trkpt><trkpt lat="37.6699277" lon="15.0422795"><ele>1256.0</ele><time>2026-05-02T08:21:21.815Z</time></trkpt><trkpt lat="37.6700388" lon="15.0422143"><ele>1256.0</ele><time>2026-05-02T08:21:23.815Z</time></trkpt><trkpt lat="37.670116" lon="15.0421403"><ele>1256.0</ele><time>2026-05-02T08:21:25.815Z</time></trkpt><trkpt lat="37.6701806" lon="15.0420811"><ele>1256.0</ele><time>2026-05-02T08:21:27.816Z</time></trkpt><trkpt lat="37.6702257" lon="15.0420166"><ele>1256.0</ele><time>2026-05-02T08:21:29.816Z</time></trkpt><trkpt lat="37.6701798" lon="15.0419279"><ele>1256.0</ele><time>2026-05-02T08:21:32.815Z</time></trkpt><trkpt lat="37.6701062" lon="15.0419161"><ele>1256.0</ele><time>2026-05-02T08:21:52.815Z</time></trkpt><trkpt lat="37.6700443" lon="15.0418783"><ele>1255.9999999999998</ele><time>2026-05-02T08:22:25.814Z</time></trkpt><trkpt lat="37.6699644" lon="15.0418883"><ele>1256.0</ele><time>2026-05-02T08:23:09.814Z</time></trkpt><trkpt lat="37.669899" lon="15.0419002"><ele>1256.0</ele><time>2026-05-02T08:23:13.814Z</time></trkpt><trkpt lat="37.6698245" lon="15.0419138"><ele>1256.0</ele><time>2026-05-02T08:23:17.815Z</time></trkpt><trkpt lat="37.6697534" lon="15.0418973"><ele>1256.0</ele><time>2026-05-02T08:23:21.815Z</time></trkpt><trkpt lat="37.6696865" lon="15.0418992"><ele>1255.9999999999998</ele><time>2026-05-02T08:23:25.815Z</time></trkpt><trkpt lat="37.6696268" lon="15.0418547"><ele>1256.0</ele><time>2026-05-02T08:23:28.815Z</time></trkpt><trkpt lat="37.6695656" lon="15.0418243"><ele>1256.0</ele><time>2026-05-02T08:24:52.815Z</time></trkpt><trkpt lat="37.6696279" lon="15.0418718"><ele>1256.0</ele><time>2026-05-02T08:25:16.814Z</time></trkpt><trkpt lat="37.6696861" lon="15.0419041"><ele>1256.0</ele><time>2026-05-02T08:25:19.814Z</time></trkpt><trkpt lat="37.6697671" lon="15.0419267"><ele>1256.0</ele><time>2026-05-02T08:25:22.814Z</time></trkpt><trkpt lat="37.6698531" lon="15.0419496"><ele>1256.0</ele><time>2026-05-02T08:25:25.814Z</time></trkpt><trkpt lat="37.6699252" lon="15.0419392"><ele>1256.0</ele><time>2026-05-02T08:25:27.815Z</time></trkpt><trkpt lat="37.6699986" lon="15.0419234"><ele>1256.0</ele><time>2026-05-02T08:25:29.814Z</time></trkpt><trkpt lat="37.6700805" lon="15.041935"><ele>1256.0</ele><time>2026-05-02T08:25:31.814Z</time></trkpt><trkpt lat="37.6701523" lon="15.0419012"><ele>1256.0</ele><time>2026-05-02T08:25:33.815Z</time></trkpt><trkpt lat="37.6701807" lon="15.0418223"><ele>1256.0</ele><time>2026-05-02T08:25:36.815Z</time></trkpt><trkpt lat="37.670273" lon="15.0417952"><ele>1256.0</ele><time>2026-05-02T08:25:39.814Z</time></trkpt><trkpt lat="37.6703379" lon="15.0418069"><ele>1256.0</ele><time>2026-05-02T08:25:40.815Z</time></trkpt><trkpt lat="37.6704448" lon="15.0418099"><ele>1259.3999999999999</ele><time>2026-05-02T08:25:42.814Z</time></trkpt><trkpt lat="37.6705959" lon="15.0417942"><ele>1262.8</ele><time>2026-05-02T08:25:44.814Z</time></trkpt><trkpt lat="37.6706765" lon="15.041805"><ele>1266.1999999999998</ele><time>2026-05-02T08:25:45.815Z</time></trkpt><trkpt lat="37.6707399" lon="15.0417977"><ele>1269.6</ele><time>2026-05-02T08:25:46.814Z</time></trkpt><trkpt lat="37.6708397" lon="15.041791"><ele>1273.0</ele><time>2026-05-02T08:25:48.814Z</time></trkpt><trkpt lat="37.6709582" lon="15.041754"><ele>1273.0</ele><time>2026-05-02T08:25:50.815Z</time></trkpt><trkpt lat="37.6710677" lon="15.0417222"><ele>1273.0</ele><time>2026-05-02T08:25:52.814Z</time></trkpt><trkpt lat="37.6711405" lon="15.0416957"><ele>1273.0</ele><time>2026-05-02T08:25:53.814Z</time></trkpt><trkpt lat="37.671208" lon="15.041688"><ele>1273.0</ele><time>2026-05-02T08:25:54.814Z</time></trkpt><trkpt lat="37.6712702" lon="15.041664"><ele>1273.0</ele><time>2026-05-02T08:25:55.815Z</time></trkpt><trkpt lat="37.6713443" lon="15.0416431"><ele>1273.0</ele><time>2026-05-02T08:25:56.814Z</time></trkpt><trkpt lat="37.6714097" lon="15.0416488"><ele>1275.2</ele><time>2026-05-02T08:25:57.815Z</time></trkpt><trkpt lat="37.6714789" lon="15.0416532"><ele>1277.4</ele><time>2026-05-02T08:25:58.814Z</time></trkpt><trkpt lat="37.6715994" lon="15.0416431"><ele>1279.6000000000001</ele><time>2026-05-02T08:26:00.814Z</time></trkpt><trkpt lat="37.6717089" lon="15.0416618"><ele>1281.8</ele><time>2026-05-02T08:26:02.814Z</time></trkpt><trkpt lat="37.6718093" lon="15.0417101"><ele>1284.0</ele><time>2026-05-02T08:26:04.815Z</time></trkpt><trkpt lat="37.6718748" lon="15.0417486"><ele>1284.0</ele><time>2026-05-02T08:26:05.814Z</time></trkpt><trkpt lat="37.6719393" lon="15.0417726"><ele>1284.0</ele><time>2026-05-02T08:26:06.815Z</time></trkpt><trkpt lat="37.6720039" lon="15.0417967"><ele>1284.0</ele><time>2026-05-02T08:26:07.814Z</time></trkpt><trkpt lat="37.6720737" lon="15.0418275"><ele>1284.0</ele><time>2026-05-02T08:26:08.814Z</time></trkpt><trkpt lat="37.6721558" lon="15.0418583"><ele>1284.0</ele><time>2026-05-02T08:26:09.815Z</time></trkpt><trkpt lat="37.6722624" lon="15.041879"><ele>1284.0</ele><time>2026-05-02T08:26:10.813Z</time></trkpt><trkpt lat="37.6723468" lon="15.0419013"><ele>1286.2</ele><time>2026-05-02T08:26:11.814Z</time></trkpt><trkpt lat="37.6724346" lon="15.0419418"><ele>1288.4</ele><time>2026-05-02T08:26:12.815Z</time></trkpt><trkpt lat="37.6725028" lon="15.0419794"><ele>1290.6</ele><time>2026-05-02T08:26:13.814Z</time></trkpt><trkpt lat="37.6726235" lon="15.0420363"><ele>1292.8</ele><time>2026-05-02T08:26:15.815Z</time></trkpt><trkpt lat="37.6727076" lon="15.04204"><ele>1295.0</ele><time>2026-05-02T08:26:17.814Z</time></trkpt><trkpt lat="37.672734" lon="15.041925"><ele>1295.0</ele><time>2026-05-02T08:26:20.814Z</time></trkpt><trkpt lat="37.6726912" lon="15.0417955"><ele>1295.0</ele><time>2026-05-02T08:26:22.814Z</time></trkpt><trkpt lat="37.6726128" lon="15.0416628"><ele>1295.0</ele><time>2026-05-02T08:26:24.814Z</time></trkpt><trkpt lat="37.6725603" lon="15.0416085"><ele>1295.0</ele><time>2026-05-02T08:26:25.814Z</time></trkpt><trkpt lat="37.6725024" lon="15.0415472"><ele>1295.0</ele><time>2026-05-02T08:26:26.814Z</time></trkpt><trkpt lat="37.6724032" lon="15.0414992"><ele>1296.0</ele><time>2026-05-02T08:26:28.814Z</time></trkpt><trkpt lat="37.672301" lon="15.0415214"><ele>1297.0</ele><time>2026-05-02T08:26:30.814Z</time></trkpt><trkpt lat="37.6721966" lon="15.0415162"><ele>1298.0</ele><time>2026-05-02T08:26:32.814Z</time></trkpt><trkpt lat="37.6720746" lon="15.0414784"><ele>1299.0</ele><time>2026-05-02T08:26:34.815Z</time></trkpt><trkpt lat="37.6719847" lon="15.0414356"><ele>1300.0</ele><time>2026-05-02T08:26:35.814Z</time></trkpt><trkpt lat="37.6718849" lon="15.0413764"><ele>1300.0</ele><time>2026-05-02T08:26:36.814Z</time></trkpt><trkpt lat="37.671816" lon="15.0413145"><ele>1300.0</ele><time>2026-05-02T08:26:37.814Z</time></trkpt><trkpt lat="37.6717508" lon="15.0412518"><ele>1300.0</ele><time>2026-05-02T08:26:38.814Z</time></trkpt><trkpt lat="37.6716587" lon="15.0411506"><ele>1300.0</ele><time>2026-05-02T08:26:40.813Z</time></trkpt><trkpt lat="37.6716285" lon="15.0410627"><ele>1300.0</ele><time>2026-05-02T08:26:41.815Z</time></trkpt><trkpt lat="37.6715974" lon="15.0409748"><ele>1300.0</ele><time>2026-05-02T08:26:42.815Z</time></trkpt><trkpt lat="37.6715731" lon="15.0408798"><ele>1300.1666666666665</ele><time>2026-05-02T08:26:43.814Z</time></trkpt><trkpt lat="37.6715772" lon="15.0407849"><ele>1300.3333333333333</ele><time>2026-05-02T08:26:45.815Z</time></trkpt><trkpt lat="37.6716599" lon="15.0407458"><ele>1300.5</ele><time>2026-05-02T08:26:47.814Z</time></trkpt><trkpt lat="37.6717094" lon="15.0406938"><ele>1300.6666666666667</ele><time>2026-05-02T08:26:48.814Z</time></trkpt><trkpt lat="37.6717923" lon="15.0405906"><ele>1300.8333333333335</ele><time>2026-05-02T08:26:50.814Z</time></trkpt><trkpt lat="37.6718902" lon="15.0405474"><ele>1301.0</ele><time>2026-05-02T08:26:52.814Z</time></trkpt><trkpt lat="37.6720409" lon="15.0405023"><ele>1303.1666666666667</ele><time>2026-05-02T08:26:54.815Z</time></trkpt><trkpt lat="37.6721096" lon="15.0404669"><ele>1305.3333333333335</ele><time>2026-05-02T08:26:55.814Z</time></trkpt><trkpt lat="37.6721692" lon="15.040316"><ele>1307.5</ele><time>2026-05-02T08:26:57.814Z</time></trkpt><trkpt lat="37.6722142" lon="15.0402355"><ele>1309.6666666666667</ele><time>2026-05-02T08:26:58.814Z</time></trkpt><trkpt lat="37.6722458" lon="15.0401554"><ele>1311.8333333333333</ele><time>2026-05-02T08:26:59.814Z</time></trkpt><trkpt lat="37.6722908" lon="15.0400797"><ele>1314.0</ele><time>2026-05-02T08:27:00.814Z</time></trkpt><trkpt lat="37.6723043" lon="15.0399639"><ele>1314.0</ele><time>2026-05-02T08:27:02.814Z</time></trkpt><trkpt lat="37.6722853" lon="15.0398621"><ele>1314.0</ele><time>2026-05-02T08:27:04.814Z</time></trkpt><trkpt lat="37.6723041" lon="15.0397739"><ele>1314.0</ele><time>2026-05-02T08:27:10.814Z</time></trkpt><trkpt lat="37.6723535" lon="15.039703"><ele>1314.0</ele><time>2026-05-02T08:27:12.814Z</time></trkpt><trkpt lat="37.6724751" lon="15.0396868"><ele>1314.0</ele><time>2026-05-02T08:27:15.813Z</time></trkpt><trkpt lat="37.6725657" lon="15.0396209"><ele>1314.0</ele><time>2026-05-02T08:27:17.813Z</time></trkpt><trkpt lat="37.6726844" lon="15.0395606"><ele>1314.0</ele><time>2026-05-02T08:27:19.815Z</time></trkpt><trkpt lat="37.6728077" lon="15.0395305"><ele>1314.0</ele><time>2026-05-02T08:27:21.814Z</time></trkpt><trkpt lat="37.6728686" lon="15.0394986"><ele>1314.0</ele><time>2026-05-02T08:27:22.814Z</time></trkpt><trkpt lat="37.6729262" lon="15.0394459"><ele>1314.0</ele><time>2026-05-02T08:27:23.814Z</time></trkpt><trkpt lat="37.6729949" lon="15.039314"><ele>1316.4</ele><time>2026-05-02T08:27:25.814Z</time></trkpt><trkpt lat="37.6731329" lon="15.0392562"><ele>1318.8000000000002</ele><time>2026-05-02T08:27:27.815Z</time></trkpt><trkpt lat="37.6732193" lon="15.0391671"><ele>1321.1999999999998</ele><time>2026-05-02T08:27:29.813Z</time></trkpt><trkpt lat="37.6732706" lon="15.0390764"><ele>1323.6</ele><time>2026-05-02T08:27:31.814Z</time></trkpt><trkpt lat="37.6732655" lon="15.0389684"><ele>1326.0</ele><time>2026-05-02T08:27:33.814Z</time></trkpt><trkpt lat="37.6732028" lon="15.0388603"><ele>1327.0</ele><time>2026-05-02T08:27:34.814Z</time></trkpt><trkpt lat="37.6731439" lon="15.0387838"><ele>1328.0</ele><time>2026-05-02T08:27:35.814Z</time></trkpt><trkpt lat="37.673084" lon="15.0387041"><ele>1329.0</ele><time>2026-05-02T08:27:36.814Z</time></trkpt><trkpt lat="37.6730545" lon="15.0385652"><ele>1330.0</ele><time>2026-05-02T08:27:38.814Z</time></trkpt><trkpt lat="37.6730247" lon="15.0384945"><ele>1331.0</ele><time>2026-05-02T08:27:39.814Z</time></trkpt><trkpt lat="37.6729833" lon="15.0384066"><ele>1332.0</ele><time>2026-05-02T08:27:40.814Z</time></trkpt><trkpt lat="37.6729469" lon="15.038285"><ele>1332.857142857143</ele><time>2026-05-02T08:27:42.813Z</time></trkpt><trkpt lat="37.6729419" lon="15.0381982"><ele>1333.7142857142856</ele><time>2026-05-02T08:27:44.814Z</time></trkpt><trkpt lat="37.6729458" lon="15.0381036"><ele>1334.5714285714284</ele><time>2026-05-02T08:27:48.814Z</time></trkpt><trkpt lat="37.6729211" lon="15.0379997"><ele>1335.4285714285716</ele><time>2026-05-02T08:30:11.813Z</time></trkpt><trkpt lat="37.6728695" lon="15.0379304"><ele>1336.2857142857142</ele><time>2026-05-02T08:30:13.814Z</time></trkpt><trkpt lat="37.6728431" lon="15.0378395"><ele>1337.142857142857</ele><time>2026-05-02T08:30:15.813Z</time></trkpt><trkpt lat="37.6728639" lon="15.0377594"><ele>1338.0</ele><time>2026-05-02T08:30:17.814Z</time></trkpt><trkpt lat="37.6728987" lon="15.0376447"><ele>1338.0</ele><time>2026-05-02T08:30:19.814Z</time></trkpt><trkpt lat="37.6729213" lon="15.0375544"><ele>1338.0</ele><time>2026-05-02T08:30:21.813Z</time></trkpt><trkpt lat="37.6729461" lon="15.0374622"><ele>1338.0</ele><time>2026-05-02T08:30:23.813Z</time></trkpt><trkpt lat="37.672962" lon="15.0373689"><ele>1338.0</ele><time>2026-05-02T08:30:25.814Z</time></trkpt><trkpt lat="37.6729936" lon="15.0372814"><ele>1338.0</ele><time>2026-05-02T08:30:27.813Z</time></trkpt><trkpt lat="37.6730241" lon="15.037188"><ele>1338.0</ele><time>2026-05-02T08:30:29.813Z</time></trkpt><trkpt lat="37.6730668" lon="15.0370798"><ele>1337.8333333333333</ele><time>2026-05-02T08:30:31.814Z</time></trkpt><trkpt lat="37.6731175" lon="15.0369727"><ele>1337.6666666666667</ele><time>2026-05-02T08:30:33.814Z</time></trkpt><trkpt lat="37.6731494" lon="15.0369033"><ele>1337.5</ele><time>2026-05-02T08:30:34.814Z</time></trkpt><trkpt lat="37.6731893" lon="15.0368307"><ele>1337.3333333333335</ele><time>2026-05-02T08:30:35.813Z</time></trkpt><trkpt lat="37.6732395" lon="15.0367663"><ele>1337.1666666666667</ele><time>2026-05-02T08:30:36.813Z</time></trkpt><trkpt lat="37.6732859" lon="15.036693"><ele>1337.0</ele><time>2026-05-02T08:30:37.813Z</time></trkpt><trkpt lat="37.6733317" lon="15.0366192"><ele>1336.7142857142858</ele><time>2026-05-02T08:30:38.813Z</time></trkpt><trkpt lat="37.6733788" lon="15.0365501"><ele>1336.4285714285716</ele><time>2026-05-02T08:30:39.815Z</time></trkpt><trkpt lat="37.6734283" lon="15.0364792"><ele>1336.142857142857</ele><time>2026-05-02T08:30:40.813Z</time></trkpt><trkpt lat="37.6734719" lon="15.0364114"><ele>1335.857142857143</ele><time>2026-05-02T08:30:41.814Z</time></trkpt><trkpt lat="37.6735213" lon="15.0363479"><ele>1335.5714285714287</ele><time>2026-05-02T08:30:42.814Z</time></trkpt><trkpt lat="37.6735726" lon="15.0362783"><ele>1335.2857142857142</ele><time>2026-05-02T08:30:43.813Z</time></trkpt><trkpt lat="37.6736222" lon="15.0362053"><ele>1335.0</ele><time>2026-05-02T08:30:44.813Z</time></trkpt><trkpt lat="37.6736627" lon="15.0361314"><ele>1335.0</ele><time>2026-05-02T08:30:45.813Z</time></trkpt><trkpt lat="37.6737097" lon="15.0360626"><ele>1335.0</ele><time>2026-05-02T08:30:46.813Z</time></trkpt><trkpt lat="37.6737576" lon="15.0359915"><ele>1335.0</ele><time>2026-05-02T08:30:47.813Z</time></trkpt><trkpt lat="37.6738026" lon="15.035917"><ele>1335.0</ele><time>2026-05-02T08:30:48.814Z</time></trkpt><trkpt lat="37.6738612" lon="15.0357792"><ele>1335.0</ele><time>2026-05-02T08:30:50.813Z</time></trkpt><trkpt lat="37.673895" lon="15.0357014"><ele>1335.0</ele><time>2026-05-02T08:30:51.813Z</time></trkpt><trkpt lat="37.6739269" lon="15.0356242"><ele>1335.7142857142856</ele><time>2026-05-02T08:30:52.813Z</time></trkpt><trkpt lat="37.673953" lon="15.0355454"><ele>1336.4285714285716</ele><time>2026-05-02T08:30:53.813Z</time></trkpt><trkpt lat="37.6739766" lon="15.0354569"><ele>1337.142857142857</ele><time>2026-05-02T08:30:54.813Z</time></trkpt><trkpt lat="37.6739934" lon="15.0353724"><ele>1337.8571428571427</ele><time>2026-05-02T08:30:55.813Z</time></trkpt><trkpt lat="37.6740066" lon="15.0352802"><ele>1338.5714285714284</ele><time>2026-05-02T08:30:56.813Z</time></trkpt><trkpt lat="37.6740149" lon="15.0351931"><ele>1339.2857142857142</ele><time>2026-05-02T08:30:57.813Z</time></trkpt><trkpt lat="37.6740097" lon="15.0351096"><ele>1340.0</ele><time>2026-05-02T08:30:58.814Z</time></trkpt><trkpt lat="37.674001" lon="15.035025"><ele>1341.1666666666667</ele><time>2026-05-02T08:30:59.814Z</time></trkpt><trkpt lat="37.6739965" lon="15.0349454"><ele>1342.3333333333335</ele><time>2026-05-02T08:31:00.814Z</time></trkpt><trkpt lat="37.6739803" lon="15.0348018"><ele>1343.5</ele><time>2026-05-02T08:31:02.813Z</time></trkpt><trkpt lat="37.6739587" lon="15.0347241"><ele>1344.6666666666667</ele><time>2026-05-02T08:31:03.813Z</time></trkpt><trkpt lat="37.6739426" lon="15.0346351"><ele>1345.8333333333333</ele><time>2026-05-02T08:31:04.814Z</time></trkpt><trkpt lat="37.6739226" lon="15.0345398"><ele>1347.0</ele><time>2026-05-02T08:31:05.813Z</time></trkpt><trkpt lat="37.6738989" lon="15.0344492"><ele>1347.0</ele><time>2026-05-02T08:31:06.814Z</time></trkpt><trkpt lat="37.6738745" lon="15.0343534"><ele>1347.0</ele><time>2026-05-02T08:31:07.813Z</time></trkpt><trkpt lat="37.6738579" lon="15.0342638"><ele>1347.0</ele><time>2026-05-02T08:31:08.814Z</time></trkpt><trkpt lat="37.6738411" lon="15.0341735"><ele>1347.0</ele><time>2026-05-02T08:31:09.813Z</time></trkpt><trkpt lat="37.673823" lon="15.0340816"><ele>1347.0</ele><time>2026-05-02T08:31:10.813Z</time></trkpt><trkpt lat="37.6737977" lon="15.0339908"><ele>1347.0</ele><time>2026-05-02T08:31:11.813Z</time></trkpt><trkpt lat="37.6737778" lon="15.0339006"><ele>1347.7142857142856</ele><time>2026-05-02T08:31:12.813Z</time></trkpt><trkpt lat="37.6737649" lon="15.0338077"><ele>1348.4285714285713</ele><time>2026-05-02T08:31:13.813Z</time></trkpt><trkpt lat="37.6737544" lon="15.0337127"><ele>1349.142857142857</ele><time>2026-05-02T08:31:14.814Z</time></trkpt><trkpt lat="37.6737527" lon="15.0336177"><ele>1349.8571428571427</ele><time>2026-05-02T08:31:15.813Z</time></trkpt><trkpt lat="37.6737554" lon="15.0335296"><ele>1350.5714285714284</ele><time>2026-05-02T08:31:16.813Z</time></trkpt><trkpt lat="37.6737731" lon="15.0334468"><ele>1351.2857142857142</ele><time>2026-05-02T08:31:17.813Z</time></trkpt><trkpt lat="37.6737977" lon="15.0333662"><ele>1352.0</ele><time>2026-05-02T08:31:18.813Z</time></trkpt><trkpt lat="37.6738432" lon="15.0332238"><ele>1353.1666666666667</ele><time>2026-05-02T08:31:20.814Z</time></trkpt><trkpt lat="37.6738892" lon="15.0330832"><ele>1354.3333333333335</ele><time>2026-05-02T08:31:22.813Z</time></trkpt><trkpt lat="37.6739134" lon="15.0330056"><ele>1355.5</ele><time>2026-05-02T08:31:23.813Z</time></trkpt><trkpt lat="37.6739406" lon="15.0329237"><ele>1356.6666666666667</ele><time>2026-05-02T08:31:24.813Z</time></trkpt><trkpt lat="37.6739727" lon="15.0328412"><ele>1357.8333333333333</ele><time>2026-05-02T08:31:25.815Z</time></trkpt><trkpt lat="37.6740026" lon="15.0327603"><ele>1359.0</ele><time>2026-05-02T08:31:26.813Z</time></trkpt><trkpt lat="37.674031" lon="15.0326807"><ele>1359.0</ele><time>2026-05-02T08:31:27.813Z</time></trkpt><trkpt lat="37.674056" lon="15.0325988"><ele>1359.0</ele><time>2026-05-02T08:31:28.813Z</time></trkpt><trkpt lat="37.6740841" lon="15.032516"><ele>1359.0</ele><time>2026-05-02T08:31:29.813Z</time></trkpt><trkpt lat="37.674118" lon="15.0324344"><ele>1359.0</ele><time>2026-05-02T08:31:30.814Z</time></trkpt><trkpt lat="37.6741473" lon="15.0323507"><ele>1359.0</ele><time>2026-05-02T08:31:31.813Z</time></trkpt><trkpt lat="37.6741811" lon="15.0322669"><ele>1359.0</ele><time>2026-05-02T08:31:32.812Z</time></trkpt><trkpt lat="37.6742201" lon="15.0321991"><ele>1359.0</ele><time>2026-05-02T08:31:33.813Z</time></trkpt><trkpt lat="37.6743371" lon="15.0321388"><ele>1359.3333333333333</ele><time>2026-05-02T08:31:35.813Z</time></trkpt><trkpt lat="37.6744079" lon="15.0321504"><ele>1359.6666666666667</ele><time>2026-05-02T08:31:36.813Z</time></trkpt><trkpt lat="37.6744785" lon="15.0321971"><ele>1360.0</ele><time>2026-05-02T08:31:37.812Z</time></trkpt><trkpt lat="37.674554" lon="15.0322567"><ele>1360.3333333333335</ele><time>2026-05-02T08:31:38.814Z</time></trkpt><trkpt lat="37.6746411" lon="15.0323146"><ele>1360.6666666666667</ele><time>2026-05-02T08:31:39.814Z</time></trkpt><trkpt lat="37.6747314" lon="15.0323651"><ele>1361.0</ele><time>2026-05-02T08:31:40.814Z</time></trkpt><trkpt lat="37.6748115" lon="15.0324175"><ele>1363.1666666666667</ele><time>2026-05-02T08:31:41.813Z</time></trkpt><trkpt lat="37.6748911" lon="15.0324632"><ele>1365.3333333333335</ele><time>2026-05-02T08:31:42.813Z</time></trkpt><trkpt lat="37.6749741" lon="15.0324988"><ele>1367.5</ele><time>2026-05-02T08:31:43.813Z</time></trkpt><trkpt lat="37.6750551" lon="15.032545"><ele>1369.6666666666667</ele><time>2026-05-02T08:31:44.812Z</time></trkpt><trkpt lat="37.6751346" lon="15.0325839"><ele>1371.8333333333333</ele><time>2026-05-02T08:31:45.813Z</time></trkpt><trkpt lat="37.6752155" lon="15.0326233"><ele>1374.0</ele><time>2026-05-02T08:31:46.813Z</time></trkpt><trkpt lat="37.6752947" lon="15.0326648"><ele>1376.8000000000002</ele><time>2026-05-02T08:31:47.814Z</time></trkpt><trkpt lat="37.6753747" lon="15.0327045"><ele>1379.6000000000001</ele><time>2026-05-02T08:31:48.813Z</time></trkpt><trkpt lat="37.6754602" lon="15.032741"><ele>1382.4</ele><time>2026-05-02T08:31:49.814Z</time></trkpt><trkpt lat="37.6755489" lon="15.0327768"><ele>1385.2</ele><time>2026-05-02T08:31:50.814Z</time></trkpt><trkpt lat="37.6756367" lon="15.0328105"><ele>1388.0</ele><time>2026-05-02T08:31:51.813Z</time></trkpt><trkpt lat="37.6757227" lon="15.0328383"><ele>1388.0</ele><time>2026-05-02T08:31:52.815Z</time></trkpt><trkpt lat="37.6758075" lon="15.0328653"><ele>1388.0</ele><time>2026-05-02T08:31:53.814Z</time></trkpt><trkpt lat="37.6758917" lon="15.0328938"><ele>1388.0</ele><time>2026-05-02T08:31:54.813Z</time></trkpt><trkpt lat="37.6759824" lon="15.0329223"><ele>1388.0</ele><time>2026-05-02T08:31:55.814Z</time></trkpt><trkpt lat="37.6760627" lon="15.0329488"><ele>1388.0</ele><time>2026-05-02T08:31:56.813Z</time></trkpt><trkpt lat="37.676143" lon="15.0329747"><ele>1388.0</ele><time>2026-05-02T08:31:57.814Z</time></trkpt><trkpt lat="37.6762216" lon="15.0330017"><ele>1388.4</ele><time>2026-05-02T08:31:58.812Z</time></trkpt><trkpt lat="37.6762997" lon="15.033031"><ele>1388.8000000000002</ele><time>2026-05-02T08:31:59.814Z</time></trkpt><trkpt lat="37.6763668" lon="15.0330522"><ele>1389.2</ele><time>2026-05-02T08:32:00.814Z</time></trkpt><trkpt lat="37.6764789" lon="15.0330901"><ele>1389.6</ele><time>2026-05-02T08:32:02.813Z</time></trkpt><trkpt lat="37.67656" lon="15.0331103"><ele>1390.0</ele><time>2026-05-02T08:32:04.813Z</time></trkpt><trkpt lat="37.6766734" lon="15.0331129"><ele>1390.0</ele><time>2026-05-02T08:32:06.813Z</time></trkpt><trkpt lat="37.676748" lon="15.0331082"><ele>1390.0</ele><time>2026-05-02T08:32:07.813Z</time></trkpt><trkpt lat="37.6768333" lon="15.0330986"><ele>1390.0</ele><time>2026-05-02T08:32:08.814Z</time></trkpt><trkpt lat="37.6769137" lon="15.0330848"><ele>1390.0</ele><time>2026-05-02T08:32:09.813Z</time></trkpt><trkpt lat="37.6769984" lon="15.0330613"><ele>1390.0</ele><time>2026-05-02T08:32:10.814Z</time></trkpt><trkpt lat="37.6770811" lon="15.033034"><ele>1390.0</ele><time>2026-05-02T08:32:11.813Z</time></trkpt><trkpt lat="37.6771626" lon="15.0330068"><ele>1390.6666666666665</ele><time>2026-05-02T08:32:12.813Z</time></trkpt><trkpt lat="37.6772476" lon="15.0329637"><ele>1391.3333333333333</ele><time>2026-05-02T08:32:13.815Z</time></trkpt><trkpt lat="37.6773279" lon="15.0329203"><ele>1392.0</ele><time>2026-05-02T08:32:14.814Z</time></trkpt><trkpt lat="37.677403" lon="15.032864"><ele>1392.6666666666667</ele><time>2026-05-02T08:32:15.813Z</time></trkpt><trkpt lat="37.6774802" lon="15.0328132"><ele>1393.3333333333335</ele><time>2026-05-02T08:32:16.813Z</time></trkpt><trkpt lat="37.6775496" lon="15.0327586"><ele>1394.0</ele><time>2026-05-02T08:32:17.813Z</time></trkpt><trkpt lat="37.6776287" lon="15.0327029"><ele>1394.0</ele><time>2026-05-02T08:32:18.814Z</time></trkpt><trkpt lat="37.6777093" lon="15.0326442"><ele>1394.0</ele><time>2026-05-02T08:32:19.813Z</time></trkpt><trkpt lat="37.6777881" lon="15.0325873"><ele>1394.0</ele><time>2026-05-02T08:32:20.814Z</time></trkpt><trkpt lat="37.6778628" lon="15.0325293"><ele>1394.0</ele><time>2026-05-02T08:32:21.814Z</time></trkpt><trkpt lat="37.6779326" lon="15.0324744"><ele>1394.0</ele><time>2026-05-02T08:32:22.813Z</time></trkpt><trkpt lat="37.6780002" lon="15.0324214"><ele>1394.0</ele><time>2026-05-02T08:32:23.813Z</time></trkpt><trkpt lat="37.6780625" lon="15.0323684"><ele>1395.5</ele><time>2026-05-02T08:32:24.813Z</time></trkpt><trkpt lat="37.6781333" lon="15.0323163"><ele>1397.0</ele><time>2026-05-02T08:32:25.813Z</time></trkpt><trkpt lat="37.6781989" lon="15.0322703"><ele>1398.5</ele><time>2026-05-02T08:32:26.813Z</time></trkpt><trkpt lat="37.6782716" lon="15.0322127"><ele>1400.0</ele><time>2026-05-02T08:32:27.813Z</time></trkpt><trkpt lat="37.6783424" lon="15.0321545"><ele>1401.5</ele><time>2026-05-02T08:32:28.814Z</time></trkpt><trkpt lat="37.6784168" lon="15.032097"><ele>1403.0</ele><time>2026-05-02T08:32:29.813Z</time></trkpt><trkpt lat="37.6784826" lon="15.0320376"><ele>1403.0</ele><time>2026-05-02T08:32:30.812Z</time></trkpt><trkpt lat="37.678549" lon="15.0319712"><ele>1403.0</ele><time>2026-05-02T08:32:31.812Z</time></trkpt><trkpt lat="37.678611" lon="15.0318983"><ele>1403.0</ele><time>2026-05-02T08:32:32.813Z</time></trkpt><trkpt lat="37.678671" lon="15.0318191"><ele>1403.0</ele><time>2026-05-02T08:32:33.814Z</time></trkpt><trkpt lat="37.6787252" lon="15.0317331"><ele>1403.0</ele><time>2026-05-02T08:32:34.813Z</time></trkpt><trkpt lat="37.6787681" lon="15.0316362"><ele>1403.0</ele><time>2026-05-02T08:32:35.812Z</time></trkpt><trkpt lat="37.678805" lon="15.0315372"><ele>1404.6666666666667</ele><time>2026-05-02T08:32:36.813Z</time></trkpt><trkpt lat="37.6788329" lon="15.0314392"><ele>1406.3333333333335</ele><time>2026-05-02T08:32:37.813Z</time></trkpt><trkpt lat="37.6788521" lon="15.0313329"><ele>1408.0</ele><time>2026-05-02T08:32:38.814Z</time></trkpt><trkpt lat="37.6788642" lon="15.0312299"><ele>1409.6666666666667</ele><time>2026-05-02T08:32:39.812Z</time></trkpt><trkpt lat="37.6788695" lon="15.0311285"><ele>1411.3333333333333</ele><time>2026-05-02T08:32:40.813Z</time></trkpt><trkpt lat="37.6788776" lon="15.0310192"><ele>1413.0</ele><time>2026-05-02T08:32:41.813Z</time></trkpt><trkpt lat="37.6788858" lon="15.0309133"><ele>1413.0</ele><time>2026-05-02T08:32:42.813Z</time></trkpt><trkpt lat="37.6788902" lon="15.0308134"><ele>1413.0</ele><time>2026-05-02T08:32:43.814Z</time></trkpt><trkpt lat="37.6788969" lon="15.0307119"><ele>1413.0</ele><time>2026-05-02T08:32:44.812Z</time></trkpt><trkpt lat="37.6788994" lon="15.0306087"><ele>1413.0</ele><time>2026-05-02T08:32:45.813Z</time></trkpt><trkpt lat="37.6789077" lon="15.030508"><ele>1413.0</ele><time>2026-05-02T08:32:46.812Z</time></trkpt><trkpt lat="37.6789224" lon="15.0304099"><ele>1413.0</ele><time>2026-05-02T08:32:47.813Z</time></trkpt><trkpt lat="37.6789457" lon="15.0303146"><ele>1413.142857142857</ele><time>2026-05-02T08:32:48.813Z</time></trkpt><trkpt lat="37.6789577" lon="15.0302203"><ele>1413.2857142857142</ele><time>2026-05-02T08:32:49.814Z</time></trkpt><trkpt lat="37.6789811" lon="15.0301286"><ele>1413.4285714285716</ele><time>2026-05-02T08:32:50.813Z</time></trkpt><trkpt lat="37.6789965" lon="15.0300416"><ele>1413.5714285714284</ele><time>2026-05-02T08:32:51.813Z</time></trkpt><trkpt lat="37.6790154" lon="15.0299521"><ele>1413.7142857142858</ele><time>2026-05-02T08:32:52.814Z</time></trkpt><trkpt lat="37.6790308" lon="15.0298644"><ele>1413.857142857143</ele><time>2026-05-02T08:32:53.814Z</time></trkpt><trkpt lat="37.6790536" lon="15.0297794"><ele>1414.0</ele><time>2026-05-02T08:32:54.814Z</time></trkpt><trkpt lat="37.6790803" lon="15.0296965"><ele>1414.0</ele><time>2026-05-02T08:32:55.814Z</time></trkpt><trkpt lat="37.6791122" lon="15.0296167"><ele>1414.0</ele><time>2026-05-02T08:32:56.814Z</time></trkpt><trkpt lat="37.6791505" lon="15.0295417"><ele>1414.0</ele><time>2026-05-02T08:32:57.813Z</time></trkpt><trkpt lat="37.679197" lon="15.0294738"><ele>1414.0</ele><time>2026-05-02T08:32:58.813Z</time></trkpt><trkpt lat="37.679298" lon="15.0293832"><ele>1414.0</ele><time>2026-05-02T08:33:00.813Z</time></trkpt><trkpt lat="37.679359" lon="15.0293543"><ele>1414.0</ele><time>2026-05-02T08:33:01.813Z</time></trkpt><trkpt lat="37.6794774" lon="15.0293489"><ele>1417.6666666666665</ele><time>2026-05-02T08:33:03.815Z</time></trkpt><trkpt lat="37.679578" lon="15.0294301"><ele>1421.3333333333333</ele><time>2026-05-02T08:33:05.813Z</time></trkpt><trkpt lat="37.6796226" lon="15.0294905"><ele>1425.0</ele><time>2026-05-02T08:33:06.815Z</time></trkpt><trkpt lat="37.67966" lon="15.0295617"><ele>1428.6666666666667</ele><time>2026-05-02T08:33:07.812Z</time></trkpt><trkpt lat="37.6796906" lon="15.0296372"><ele>1432.3333333333335</ele><time>2026-05-02T08:33:08.813Z</time></trkpt><trkpt lat="37.6797226" lon="15.0297143"><ele>1436.0</ele><time>2026-05-02T08:33:09.814Z</time></trkpt><trkpt lat="37.6797501" lon="15.0297924"><ele>1436.0</ele><time>2026-05-02T08:33:10.813Z</time></trkpt><trkpt lat="37.6797751" lon="15.0298739"><ele>1436.0</ele><time>2026-05-02T08:33:11.813Z</time></trkpt><trkpt lat="37.6798033" lon="15.029956"><ele>1436.0</ele><time>2026-05-02T08:33:12.814Z</time></trkpt><trkpt lat="37.679829" lon="15.0300408"><ele>1436.0</ele><time>2026-05-02T08:33:13.814Z</time></trkpt><trkpt lat="37.6798582" lon="15.0301184"><ele>1436.0</ele><time>2026-05-02T08:33:14.813Z</time></trkpt><trkpt lat="37.6798843" lon="15.0302022"><ele>1436.0</ele><time>2026-05-02T08:33:15.813Z</time></trkpt><trkpt lat="37.6799084" lon="15.0302831"><ele>1436.0</ele><time>2026-05-02T08:33:16.813Z</time></trkpt><trkpt lat="37.6799308" lon="15.0303664"><ele>1436.142857142857</ele><time>2026-05-02T08:33:17.813Z</time></trkpt><trkpt lat="37.6799518" lon="15.0304468"><ele>1436.2857142857142</ele><time>2026-05-02T08:33:18.812Z</time></trkpt><trkpt lat="37.6799735" lon="15.0305289"><ele>1436.4285714285716</ele><time>2026-05-02T08:33:19.812Z</time></trkpt><trkpt lat="37.6799981" lon="15.0306099"><ele>1436.5714285714284</ele><time>2026-05-02T08:33:20.813Z</time></trkpt><trkpt lat="37.6800191" lon="15.0306957"><ele>1436.7142857142856</ele><time>2026-05-02T08:33:21.812Z</time></trkpt><trkpt lat="37.6800407" lon="15.0307768"><ele>1436.857142857143</ele><time>2026-05-02T08:33:22.813Z</time></trkpt><trkpt lat="37.6800586" lon="15.0308572"><ele>1437.0</ele><time>2026-05-02T08:33:23.813Z</time></trkpt><trkpt lat="37.6800769" lon="15.0309346"><ele>1437.0</ele><time>2026-05-02T08:33:24.813Z</time></trkpt><trkpt lat="37.680093" lon="15.0310154"><ele>1437.0</ele><time>2026-05-02T08:33:25.813Z</time></trkpt><trkpt lat="37.6801142" lon="15.0310965"><ele>1437.0</ele><time>2026-05-02T08:33:26.812Z</time></trkpt><trkpt lat="37.6801291" lon="15.0311812"><ele>1437.0</ele><time>2026-05-02T08:33:27.813Z</time></trkpt><trkpt lat="37.680145" lon="15.0312612"><ele>1437.0</ele><time>2026-05-02T08:33:28.813Z</time></trkpt><trkpt lat="37.6801622" lon="15.0313406"><ele>1437.0</ele><time>2026-05-02T08:33:29.813Z</time></trkpt><trkpt lat="37.6802158" lon="15.0314842"><ele>1437.0</ele><time>2026-05-02T08:33:31.812Z</time></trkpt><trkpt lat="37.6802522" lon="15.0316226"><ele>1437.0</ele><time>2026-05-02T08:33:33.813Z</time></trkpt><trkpt lat="37.6802924" lon="15.0317521"><ele>1437.0</ele><time>2026-05-02T08:33:35.812Z</time></trkpt><trkpt lat="37.6803392" lon="15.0318712"><ele>1437.0</ele><time>2026-05-02T08:33:37.813Z</time></trkpt><trkpt lat="37.6803798" lon="15.0319815"><ele>1437.0</ele><time>2026-05-02T08:33:39.813Z</time></trkpt><trkpt lat="37.6804346" lon="15.0320896"><ele>1440.6</ele><time>2026-05-02T08:33:41.813Z</time></trkpt><trkpt lat="37.6804961" lon="15.0322087"><ele>1444.1999999999998</ele><time>2026-05-02T08:33:43.813Z</time></trkpt><trkpt lat="37.680571" lon="15.0323151"><ele>1447.8</ele><time>2026-05-02T08:33:45.812Z</time></trkpt><trkpt lat="37.6806695" lon="15.0324197"><ele>1451.4</ele><time>2026-05-02T08:33:47.814Z</time></trkpt><trkpt lat="37.6807236" lon="15.03247"><ele>1455.0</ele><time>2026-05-02T08:33:48.813Z</time></trkpt><trkpt lat="37.6807831" lon="15.0325163"><ele>1455.0</ele><time>2026-05-02T08:33:49.814Z</time></trkpt><trkpt lat="37.6808576" lon="15.0325564"><ele>1455.0</ele><time>2026-05-02T08:33:50.813Z</time></trkpt><trkpt lat="37.6809351" lon="15.0325819"><ele>1455.0</ele><time>2026-05-02T08:33:51.813Z</time></trkpt><trkpt lat="37.6810096" lon="15.0326023"><ele>1455.0</ele><time>2026-05-02T08:33:52.813Z</time></trkpt><trkpt lat="37.6810907" lon="15.0326"><ele>1455.0</ele><time>2026-05-02T08:33:53.814Z</time></trkpt><trkpt lat="37.6811722" lon="15.0325959"><ele>1455.0</ele><time>2026-05-02T08:33:54.812Z</time></trkpt><trkpt lat="37.6812523" lon="15.0325751"><ele>1456.8</ele><time>2026-05-02T08:33:55.812Z</time></trkpt><trkpt lat="37.6813308" lon="15.0325408"><ele>1458.6</ele><time>2026-05-02T08:33:56.813Z</time></trkpt><trkpt lat="37.6814162" lon="15.0324982"><ele>1460.4</ele><time>2026-05-02T08:33:57.814Z</time></trkpt><trkpt lat="37.6815062" lon="15.0324506"><ele>1462.2</ele><time>2026-05-02T08:33:58.812Z</time></trkpt><trkpt lat="37.6815918" lon="15.0323999"><ele>1464.0</ele><time>2026-05-02T08:33:59.813Z</time></trkpt><trkpt lat="37.6816786" lon="15.0323602"><ele>1464.0</ele><time>2026-05-02T08:34:00.813Z</time></trkpt><trkpt lat="37.6817662" lon="15.0323111"><ele>1464.0</ele><time>2026-05-02T08:34:01.813Z</time></trkpt><trkpt lat="37.681844" lon="15.0322613"><ele>1464.0</ele><time>2026-05-02T08:34:02.813Z</time></trkpt><trkpt lat="37.6819169" lon="15.0322063"><ele>1464.0</ele><time>2026-05-02T08:34:03.814Z</time></trkpt><trkpt lat="37.6819961" lon="15.0321579"><ele>1464.0</ele><time>2026-05-02T08:34:04.813Z</time></trkpt><trkpt lat="37.6820713" lon="15.0321103"><ele>1464.0</ele><time>2026-05-02T08:34:05.812Z</time></trkpt><trkpt lat="37.6821479" lon="15.0320595"><ele>1464.7142857142858</ele><time>2026-05-02T08:34:06.814Z</time></trkpt><trkpt lat="37.6822086" lon="15.0320196"><ele>1465.4285714285716</ele><time>2026-05-02T08:34:07.813Z</time></trkpt><trkpt lat="37.6822721" lon="15.0319759"><ele>1466.142857142857</ele><time>2026-05-02T08:34:08.813Z</time></trkpt><trkpt lat="37.6823292" lon="15.0319399"><ele>1466.857142857143</ele><time>2026-05-02T08:34:09.813Z</time></trkpt><trkpt lat="37.6823958" lon="15.0318998"><ele>1467.5714285714284</ele><time>2026-05-02T08:34:10.812Z</time></trkpt><trkpt lat="37.6824561" lon="15.0318663"><ele>1468.2857142857142</ele><time>2026-05-02T08:34:11.812Z</time></trkpt><trkpt lat="37.6825185" lon="15.0318238"><ele>1469.0</ele><time>2026-05-02T08:34:12.813Z</time></trkpt><trkpt lat="37.6825864" lon="15.0317776"><ele>1469.0</ele><time>2026-05-02T08:34:13.815Z</time></trkpt><trkpt lat="37.6826554" lon="15.0317304"><ele>1469.0</ele><time>2026-05-02T08:34:14.813Z</time></trkpt><trkpt lat="37.6827216" lon="15.0316843"><ele>1469.0</ele><time>2026-05-02T08:34:15.813Z</time></trkpt><trkpt lat="37.6827909" lon="15.0316447"><ele>1469.0</ele><time>2026-05-02T08:34:16.812Z</time></trkpt><trkpt lat="37.6828584" lon="15.0316054"><ele>1469.0</ele><time>2026-05-02T08:34:17.812Z</time></trkpt><trkpt lat="37.6829321" lon="15.0315583"><ele>1469.0</ele><time>2026-05-02T08:34:18.812Z</time></trkpt><trkpt lat="37.6830045" lon="15.0315071"><ele>1471.1666666666667</ele><time>2026-05-02T08:34:19.813Z</time></trkpt><trkpt lat="37.6830705" lon="15.0314696"><ele>1473.3333333333335</ele><time>2026-05-02T08:34:20.812Z</time></trkpt><trkpt lat="37.683145" lon="15.0314214"><ele>1475.5</ele><time>2026-05-02T08:34:21.812Z</time></trkpt><trkpt lat="37.6832129" lon="15.0313682"><ele>1477.6666666666667</ele><time>2026-05-02T08:34:22.812Z</time></trkpt><trkpt lat="37.6832747" lon="15.0313084"><ele>1479.8333333333333</ele><time>2026-05-02T08:34:23.813Z</time></trkpt><trkpt lat="37.6833323" lon="15.031242"><ele>1482.0</ele><time>2026-05-02T08:34:24.813Z</time></trkpt><trkpt lat="37.6833885" lon="15.0311602"><ele>1482.0</ele><time>2026-05-02T08:34:25.812Z</time></trkpt><trkpt lat="37.6834335" lon="15.0310737"><ele>1482.0</ele><time>2026-05-02T08:34:26.813Z</time></trkpt><trkpt lat="37.6834769" lon="15.0309736"><ele>1482.0</ele><time>2026-05-02T08:34:27.813Z</time></trkpt><trkpt lat="37.6835162" lon="15.0308703"><ele>1482.0</ele><time>2026-05-02T08:34:28.813Z</time></trkpt><trkpt lat="37.6835494" lon="15.0307645"><ele>1482.0</ele><time>2026-05-02T08:34:29.812Z</time></trkpt><trkpt lat="37.6835823" lon="15.0306586"><ele>1482.0</ele><time>2026-05-02T08:34:30.812Z</time></trkpt><trkpt lat="37.6836211" lon="15.030559"><ele>1484.0</ele><time>2026-05-02T08:34:31.813Z</time></trkpt><trkpt lat="37.6836551" lon="15.0304556"><ele>1486.0</ele><time>2026-05-02T08:34:32.813Z</time></trkpt><trkpt lat="37.6836854" lon="15.0303553"><ele>1488.0</ele><time>2026-05-02T08:34:33.813Z</time></trkpt><trkpt lat="37.683715" lon="15.0302537"><ele>1490.0</ele><time>2026-05-02T08:34:34.813Z</time></trkpt><trkpt lat="37.683752" lon="15.0301564"><ele>1492.0</ele><time>2026-05-02T08:34:35.813Z</time></trkpt><trkpt lat="37.6837858" lon="15.0300625"><ele>1494.0</ele><time>2026-05-02T08:34:36.813Z</time></trkpt><trkpt lat="37.6838134" lon="15.029969"><ele>1494.2857142857142</ele><time>2026-05-02T08:34:37.813Z</time></trkpt><trkpt lat="37.6838408" lon="15.0298766"><ele>1494.5714285714284</ele><time>2026-05-02T08:34:38.812Z</time></trkpt><trkpt lat="37.6838658" lon="15.0297901"><ele>1494.8571428571427</ele><time>2026-05-02T08:34:39.813Z</time></trkpt><trkpt lat="37.6838943" lon="15.0297085"><ele>1495.142857142857</ele><time>2026-05-02T08:34:40.812Z</time></trkpt><trkpt lat="37.6839208" lon="15.0296251"><ele>1495.4285714285716</ele><time>2026-05-02T08:34:41.813Z</time></trkpt><trkpt lat="37.6839467" lon="15.0295458"><ele>1495.7142857142856</ele><time>2026-05-02T08:34:42.814Z</time></trkpt><trkpt lat="37.6839738" lon="15.0294649"><ele>1496.0</ele><time>2026-05-02T08:34:43.814Z</time></trkpt><trkpt lat="37.6839977" lon="15.0293854"><ele>1496.0</ele><time>2026-05-02T08:34:44.813Z</time></trkpt><trkpt lat="37.684026" lon="15.029305"><ele>1496.0</ele><time>2026-05-02T08:34:45.814Z</time></trkpt><trkpt lat="37.6840527" lon="15.0292252"><ele>1496.0</ele><time>2026-05-02T08:34:46.813Z</time></trkpt><trkpt lat="37.6840786" lon="15.0291469"><ele>1496.0</ele><time>2026-05-02T08:34:47.812Z</time></trkpt><trkpt lat="37.6841036" lon="15.0290689"><ele>1496.0</ele><time>2026-05-02T08:34:48.813Z</time></trkpt><trkpt lat="37.6841273" lon="15.0289913"><ele>1496.0</ele><time>2026-05-02T08:34:49.813Z</time></trkpt><trkpt lat="37.6841483" lon="15.028916"><ele>1496.0</ele><time>2026-05-02T08:34:50.812Z</time></trkpt><trkpt lat="37.6842371" lon="15.0287985"><ele>1496.3333333333335</ele><time>2026-05-02T08:34:52.814Z</time></trkpt><trkpt lat="37.6843525" lon="15.0287521"><ele>1496.6666666666667</ele><time>2026-05-02T08:34:54.812Z</time></trkpt><trkpt lat="37.6844185" lon="15.0287577"><ele>1497.0</ele><time>2026-05-02T08:34:55.814Z</time></trkpt><trkpt lat="37.6844832" lon="15.0287851"><ele>1497.3333333333333</ele><time>2026-05-02T08:34:56.812Z</time></trkpt><trkpt lat="37.6845423" lon="15.0288244"><ele>1497.6666666666665</ele><time>2026-05-02T08:34:57.813Z</time></trkpt><trkpt lat="37.6845996" lon="15.0288727"><ele>1498.0</ele><time>2026-05-02T08:34:58.813Z</time></trkpt><trkpt lat="37.6846597" lon="15.0289302"><ele>1499.5</ele><time>2026-05-02T08:34:59.813Z</time></trkpt><trkpt lat="37.6847133" lon="15.0289852"><ele>1501.0</ele><time>2026-05-02T08:35:00.814Z</time></trkpt><trkpt lat="37.6847705" lon="15.0290449"><ele>1502.5</ele><time>2026-05-02T08:35:01.812Z</time></trkpt><trkpt lat="37.6848405" lon="15.029104"><ele>1504.0</ele><time>2026-05-02T08:35:02.815Z</time></trkpt><trkpt lat="37.684906" lon="15.0291615"><ele>1505.5</ele><time>2026-05-02T08:35:03.813Z</time></trkpt><trkpt lat="37.6849753" lon="15.0292197"><ele>1507.0</ele><time>2026-05-02T08:35:04.813Z</time></trkpt><trkpt lat="37.6850481" lon="15.0292712"><ele>1507.0</ele><time>2026-05-02T08:35:05.813Z</time></trkpt><trkpt lat="37.6851218" lon="15.0293177"><ele>1507.0</ele><time>2026-05-02T08:35:06.813Z</time></trkpt><trkpt lat="37.6852027" lon="15.0293567"><ele>1507.0</ele><time>2026-05-02T08:35:07.814Z</time></trkpt><trkpt lat="37.6852808" lon="15.0293943"><ele>1507.0</ele><time>2026-05-02T08:35:08.812Z</time></trkpt><trkpt lat="37.685359" lon="15.029434"><ele>1507.0</ele><time>2026-05-02T08:35:09.813Z</time></trkpt><trkpt lat="37.6854393" lon="15.0294729"><ele>1507.0</ele><time>2026-05-02T08:35:10.813Z</time></trkpt><trkpt lat="37.6855107" lon="15.0295079"><ele>1507.857142857143</ele><time>2026-05-02T08:35:11.812Z</time></trkpt><trkpt lat="37.6855827" lon="15.0295366"><ele>1508.7142857142856</ele><time>2026-05-02T08:35:12.814Z</time></trkpt><trkpt lat="37.6856525" lon="15.0295607"><ele>1509.5714285714284</ele><time>2026-05-02T08:35:13.812Z</time></trkpt><trkpt lat="37.6857218" lon="15.0295869"><ele>1510.4285714285716</ele><time>2026-05-02T08:35:14.813Z</time></trkpt><trkpt lat="37.6857855" lon="15.0296185"><ele>1511.2857142857142</ele><time>2026-05-02T08:35:15.812Z</time></trkpt><trkpt lat="37.685851" lon="15.0296493"><ele>1512.142857142857</ele><time>2026-05-02T08:35:16.812Z</time></trkpt><trkpt lat="37.6859142" lon="15.029676"><ele>1513.0</ele><time>2026-05-02T08:35:17.812Z</time></trkpt><trkpt lat="37.6860287" lon="15.0297227"><ele>1514.25</ele><time>2026-05-02T08:35:19.812Z</time></trkpt><trkpt lat="37.6861284" lon="15.0297696"><ele>1515.5</ele><time>2026-05-02T08:35:21.812Z</time></trkpt><trkpt lat="37.686234" lon="15.0298172"><ele>1516.75</ele><time>2026-05-02T08:35:23.813Z</time></trkpt><trkpt lat="37.6863504" lon="15.0298622"><ele>1518.0</ele><time>2026-05-02T08:35:25.813Z</time></trkpt><trkpt lat="37.6864722" lon="15.0298693"><ele>1518.0</ele><time>2026-05-02T08:35:27.812Z</time></trkpt><trkpt lat="37.6865676" lon="15.0298452"><ele>1518.0</ele><time>2026-05-02T08:35:29.813Z</time></trkpt><trkpt lat="37.6866368" lon="15.0298414"><ele>1518.0</ele><time>2026-05-02T08:35:31.812Z</time></trkpt><trkpt lat="37.6867047" lon="15.0298157"><ele>1518.0</ele><time>2026-05-02T08:35:50.814Z</time></trkpt><trkpt lat="37.6867066" lon="15.029726"><ele>1518.0</ele><time>2026-05-02T08:35:54.814Z</time></trkpt><trkpt lat="37.6866143" lon="15.0297134"><ele>1518.0</ele><time>2026-05-02T08:35:56.813Z</time></trkpt><trkpt lat="37.686492" lon="15.0297402"><ele>1518.0</ele><time>2026-05-02T08:35:58.812Z</time></trkpt><trkpt lat="37.6864281" lon="15.0297468"><ele>1518.0</ele><time>2026-05-02T08:35:59.812Z</time></trkpt><trkpt lat="37.6863066" lon="15.0297381"><ele>1518.0</ele><time>2026-05-02T08:36:01.813Z</time></trkpt><trkpt lat="37.6861901" lon="15.0297107"><ele>1518.0</ele><time>2026-05-02T08:36:03.813Z</time></trkpt><trkpt lat="37.6861206" lon="15.0296945"><ele>1518.0</ele><time>2026-05-02T08:36:04.814Z</time></trkpt><trkpt lat="37.6860477" lon="15.0296732"><ele>1517.2857142857142</ele><time>2026-05-02T08:36:05.813Z</time></trkpt><trkpt lat="37.6859786" lon="15.0296439"><ele>1516.5714285714284</ele><time>2026-05-02T08:36:06.812Z</time></trkpt><trkpt lat="37.6859031" lon="15.0296078"><ele>1515.857142857143</ele><time>2026-05-02T08:36:07.813Z</time></trkpt><trkpt lat="37.6858342" lon="15.0295722"><ele>1515.142857142857</ele><time>2026-05-02T08:36:08.812Z</time></trkpt><trkpt lat="37.6857629" lon="15.0295462"><ele>1514.4285714285716</ele><time>2026-05-02T08:36:09.812Z</time></trkpt><trkpt lat="37.6856945" lon="15.0295165"><ele>1513.7142857142858</ele><time>2026-05-02T08:36:10.812Z</time></trkpt><trkpt lat="37.6856307" lon="15.0294856"><ele>1513.0</ele><time>2026-05-02T08:36:11.814Z</time></trkpt><trkpt lat="37.6855716" lon="15.0294543"><ele>1513.0</ele><time>2026-05-02T08:36:12.813Z</time></trkpt><trkpt lat="37.6855096" lon="15.0294212"><ele>1513.0</ele><time>2026-05-02T08:36:13.812Z</time></trkpt><trkpt lat="37.6854467" lon="15.029391"><ele>1513.0</ele><time>2026-05-02T08:36:14.813Z</time></trkpt><trkpt lat="37.685378" lon="15.0293644"><ele>1513.0</ele><time>2026-05-02T08:36:15.812Z</time></trkpt><trkpt lat="37.6853063" lon="15.0293373"><ele>1513.0</ele><time>2026-05-02T08:36:16.813Z</time></trkpt><trkpt lat="37.685237" lon="15.0293066"><ele>1513.0</ele><time>2026-05-02T08:36:17.813Z</time></trkpt><trkpt lat="37.6851711" lon="15.0292709"><ele>1513.0</ele><time>2026-05-02T08:36:18.812Z</time></trkpt><trkpt lat="37.6850996" lon="15.0292313"><ele>1512.0</ele><time>2026-05-02T08:36:19.812Z</time></trkpt><trkpt lat="37.6850334" lon="15.0291821"><ele>1511.0</ele><time>2026-05-02T08:36:20.814Z</time></trkpt><trkpt lat="37.6849685" lon="15.0291313"><ele>1510.0</ele><time>2026-05-02T08:36:21.813Z</time></trkpt><trkpt lat="37.6849078" lon="15.0290721"><ele>1509.0</ele><time>2026-05-02T08:36:22.812Z</time></trkpt><trkpt lat="37.6848447" lon="15.0290156"><ele>1508.0</ele><time>2026-05-02T08:36:23.814Z</time></trkpt><trkpt lat="37.6847845" lon="15.0289599"><ele>1507.0</ele><time>2026-05-02T08:36:24.813Z</time></trkpt><trkpt lat="37.6847191" lon="15.0289007"><ele>1507.0</ele><time>2026-05-02T08:36:25.812Z</time></trkpt><trkpt lat="37.6846566" lon="15.0288374"><ele>1507.0</ele><time>2026-05-02T08:36:26.813Z</time></trkpt><trkpt lat="37.6845989" lon="15.0287824"><ele>1507.0</ele><time>2026-05-02T08:36:27.812Z</time></trkpt><trkpt lat="37.6845361" lon="15.028735"><ele>1507.0</ele><time>2026-05-02T08:36:28.813Z</time></trkpt><trkpt lat="37.6844731" lon="15.0286962"><ele>1507.0</ele><time>2026-05-02T08:36:29.812Z</time></trkpt><trkpt lat="37.6843466" lon="15.0286783"><ele>1507.0</ele><time>2026-05-02T08:36:31.813Z</time></trkpt><trkpt lat="37.6842797" lon="15.0287001"><ele>1505.5</ele><time>2026-05-02T08:36:32.813Z</time></trkpt><trkpt lat="37.6842201" lon="15.028742"><ele>1504.0</ele><time>2026-05-02T08:36:33.812Z</time></trkpt><trkpt lat="37.6841649" lon="15.0288053"><ele>1502.5</ele><time>2026-05-02T08:36:34.812Z</time></trkpt><trkpt lat="37.6841171" lon="15.0288881"><ele>1501.0</ele><time>2026-05-02T08:36:35.812Z</time></trkpt><trkpt lat="37.6840796" lon="15.028987"><ele>1499.5</ele><time>2026-05-02T08:36:36.812Z</time></trkpt><trkpt lat="37.6840432" lon="15.0290947"><ele>1498.0</ele><time>2026-05-02T08:36:37.813Z</time></trkpt><trkpt lat="37.684008" lon="15.0292006"><ele>1497.6000000000001</ele><time>2026-05-02T08:36:38.812Z</time></trkpt><trkpt lat="37.6839767" lon="15.0293123"><ele>1497.2</ele><time>2026-05-02T08:36:39.813Z</time></trkpt><trkpt lat="37.6839409" lon="15.0294223"><ele>1496.8</ele><time>2026-05-02T08:36:40.812Z</time></trkpt><trkpt lat="37.6839027" lon="15.0295317"><ele>1496.4</ele><time>2026-05-02T08:36:41.812Z</time></trkpt><trkpt lat="37.6838676" lon="15.029643"><ele>1496.0</ele><time>2026-05-02T08:36:42.813Z</time></trkpt><trkpt lat="37.683835" lon="15.029755"><ele>1496.0</ele><time>2026-05-02T08:36:43.812Z</time></trkpt><trkpt lat="37.6837999" lon="15.0298645"><ele>1496.0</ele><time>2026-05-02T08:36:44.813Z</time></trkpt><trkpt lat="37.6837645" lon="15.0299747"><ele>1496.0</ele><time>2026-05-02T08:36:45.812Z</time></trkpt><trkpt lat="37.6837279" lon="15.0300861"><ele>1496.0</ele><time>2026-05-02T08:36:46.812Z</time></trkpt><trkpt lat="37.6836946" lon="15.0301954"><ele>1496.0</ele><time>2026-05-02T08:36:47.812Z</time></trkpt><trkpt lat="37.6836567" lon="15.0303071"><ele>1495.6</ele><time>2026-05-02T08:36:48.814Z</time></trkpt><trkpt lat="37.6836202" lon="15.030419"><ele>1495.1999999999998</ele><time>2026-05-02T08:36:49.813Z</time></trkpt><trkpt lat="37.6835859" lon="15.0305282"><ele>1494.8000000000002</ele><time>2026-05-02T08:36:50.813Z</time></trkpt><trkpt lat="37.6835488" lon="15.0306349"><ele>1494.4</ele><time>2026-05-02T08:36:51.812Z</time></trkpt><trkpt lat="37.6835163" lon="15.0307368"><ele>1494.0</ele><time>2026-05-02T08:36:52.814Z</time></trkpt><trkpt lat="37.6834864" lon="15.0308381"><ele>1492.0</ele><time>2026-05-02T08:36:53.812Z</time></trkpt><trkpt lat="37.6834539" lon="15.030941"><ele>1490.0</ele><time>2026-05-02T08:36:54.812Z</time></trkpt><trkpt lat="37.6834123" lon="15.0310362"><ele>1488.0</ele><time>2026-05-02T08:36:55.813Z</time></trkpt><trkpt lat="37.6833625" lon="15.031127"><ele>1486.0</ele><time>2026-05-02T08:36:56.814Z</time></trkpt><trkpt lat="37.6833045" lon="15.0312087"><ele>1484.0</ele><time>2026-05-02T08:36:57.812Z</time></trkpt><trkpt lat="37.6832414" lon="15.0312785"><ele>1482.0</ele><time>2026-05-02T08:36:58.813Z</time></trkpt><trkpt lat="37.6831617" lon="15.0313426"><ele>1482.0</ele><time>2026-05-02T08:36:59.813Z</time></trkpt><trkpt lat="37.6830838" lon="15.0313994"><ele>1482.0</ele><time>2026-05-02T08:37:00.812Z</time></trkpt><trkpt lat="37.6830024" lon="15.031454"><ele>1482.0</ele><time>2026-05-02T08:37:01.812Z</time></trkpt><trkpt lat="37.6829228" lon="15.0315071"><ele>1482.0</ele><time>2026-05-02T08:37:02.813Z</time></trkpt><trkpt lat="37.6828403" lon="15.0315584"><ele>1482.0</ele><time>2026-05-02T08:37:03.812Z</time></trkpt><trkpt lat="37.6827582" lon="15.031612"><ele>1479.3999999999999</ele><time>2026-05-02T08:37:04.812Z</time></trkpt><trkpt lat="37.6826758" lon="15.0316665"><ele>1476.8</ele><time>2026-05-02T08:37:05.812Z</time></trkpt><trkpt lat="37.6825878" lon="15.0317233"><ele>1474.2</ele><time>2026-05-02T08:37:06.812Z</time></trkpt><trkpt lat="37.6824892" lon="15.0317829"><ele>1471.6</ele><time>2026-05-02T08:37:07.812Z</time></trkpt><trkpt lat="37.6823941" lon="15.03184"><ele>1469.0</ele><time>2026-05-02T08:37:08.812Z</time></trkpt><trkpt lat="37.6823002" lon="15.0318915"><ele>1469.0</ele><time>2026-05-02T08:37:09.812Z</time></trkpt><trkpt lat="37.6822062" lon="15.0319465"><ele>1469.0</ele><time>2026-05-02T08:37:10.812Z</time></trkpt><trkpt lat="37.6821184" lon="15.0320042"><ele>1469.0</ele><time>2026-05-02T08:37:11.813Z</time></trkpt><trkpt lat="37.6820274" lon="15.0320635"><ele>1469.0</ele><time>2026-05-02T08:37:12.812Z</time></trkpt><trkpt lat="37.6819406" lon="15.0321184"><ele>1469.0</ele><time>2026-05-02T08:37:13.813Z</time></trkpt><trkpt lat="37.6818544" lon="15.0321699"><ele>1468.0</ele><time>2026-05-02T08:37:14.814Z</time></trkpt><trkpt lat="37.6817617" lon="15.0322215"><ele>1467.0</ele><time>2026-05-02T08:37:15.813Z</time></trkpt><trkpt lat="37.6816757" lon="15.0322779"><ele>1466.0</ele><time>2026-05-02T08:37:16.813Z</time></trkpt><trkpt lat="37.6815963" lon="15.032337"><ele>1465.0</ele><time>2026-05-02T08:37:17.812Z</time></trkpt><trkpt lat="37.6815083" lon="15.0323936"><ele>1464.0</ele><time>2026-05-02T08:37:18.812Z</time></trkpt><trkpt lat="37.6814269" lon="15.0324445"><ele>1464.6</ele><time>2026-05-02T08:37:19.813Z</time></trkpt><trkpt lat="37.6813371" lon="15.0324899"><ele>1465.2</ele><time>2026-05-02T08:37:20.812Z</time></trkpt><trkpt lat="37.6812533" lon="15.0325229"><ele>1465.8</ele><time>2026-05-02T08:37:21.812Z</time></trkpt><trkpt lat="37.6811642" lon="15.0325444"><ele>1466.3999999999999</ele><time>2026-05-02T08:37:22.813Z</time></trkpt><trkpt lat="37.6810739" lon="15.0325435"><ele>1467.0</ele><time>2026-05-02T08:37:23.812Z</time></trkpt><trkpt lat="37.6809818" lon="15.0325367"><ele>1465.3333333333333</ele><time>2026-05-02T08:37:24.813Z</time></trkpt><trkpt lat="37.680897" lon="15.032508"><ele>1463.6666666666667</ele><time>2026-05-02T08:37:25.813Z</time></trkpt><trkpt lat="37.680812" lon="15.032466"><ele>1462.0</ele><time>2026-05-02T08:37:26.813Z</time></trkpt><trkpt lat="37.6807353" lon="15.0324085"><ele>1460.3333333333335</ele><time>2026-05-02T08:37:27.813Z</time></trkpt><trkpt lat="37.6806689" lon="15.0323364"><ele>1458.6666666666667</ele><time>2026-05-02T08:37:28.813Z</time></trkpt><trkpt lat="37.6806015" lon="15.0322606"><ele>1457.0</ele><time>2026-05-02T08:37:29.812Z</time></trkpt><trkpt lat="37.6805404" lon="15.0321791"><ele>1457.0</ele><time>2026-05-02T08:37:30.812Z</time></trkpt><trkpt lat="37.6804831" lon="15.0320857"><ele>1457.0</ele><time>2026-05-02T08:37:31.812Z</time></trkpt><trkpt lat="37.6804365" lon="15.031985"><ele>1457.0</ele><time>2026-05-02T08:37:32.813Z</time></trkpt><trkpt lat="37.6803871" lon="15.0318754"><ele>1457.0</ele><time>2026-05-02T08:37:33.812Z</time></trkpt><trkpt lat="37.6803494" lon="15.0317648"><ele>1457.0</ele><time>2026-05-02T08:37:34.814Z</time></trkpt><trkpt lat="37.6803135" lon="15.0316516"><ele>1456.3999999999999</ele><time>2026-05-02T08:37:35.814Z</time></trkpt><trkpt lat="37.6802802" lon="15.031533"><ele>1455.8</ele><time>2026-05-02T08:37:36.812Z</time></trkpt><trkpt lat="37.6802477" lon="15.0314182"><ele>1455.2</ele><time>2026-05-02T08:37:37.812Z</time></trkpt><trkpt lat="37.6802195" lon="15.0313087"><ele>1454.6</ele><time>2026-05-02T08:37:38.813Z</time></trkpt><trkpt lat="37.6801945" lon="15.0311981"><ele>1454.0</ele><time>2026-05-02T08:37:39.812Z</time></trkpt><trkpt lat="37.6801688" lon="15.0310856"><ele>1450.6</ele><time>2026-05-02T08:37:40.812Z</time></trkpt><trkpt lat="37.6801387" lon="15.0309765"><ele>1447.2</ele><time>2026-05-02T08:37:41.812Z</time></trkpt><trkpt lat="37.6801098" lon="15.0308649"><ele>1443.8</ele><time>2026-05-02T08:37:42.812Z</time></trkpt><trkpt lat="37.6800812" lon="15.0307499"><ele>1440.3999999999999</ele><time>2026-05-02T08:37:43.813Z</time></trkpt><trkpt lat="37.6800546" lon="15.0306405"><ele>1437.0</ele><time>2026-05-02T08:37:44.812Z</time></trkpt><trkpt lat="37.6800277" lon="15.0305318"><ele>1436.3999999999999</ele><time>2026-05-02T08:37:45.813Z</time></trkpt><trkpt lat="37.6799979" lon="15.0304208"><ele>1435.8</ele><time>2026-05-02T08:37:46.812Z</time></trkpt><trkpt lat="37.6799673" lon="15.0303068"><ele>1435.2</ele><time>2026-05-02T08:37:47.813Z</time></trkpt><trkpt lat="37.6799317" lon="15.0301939"><ele>1434.6</ele><time>2026-05-02T08:37:48.813Z</time></trkpt><trkpt lat="37.6798981" lon="15.0300795"><ele>1434.0</ele><time>2026-05-02T08:37:49.813Z</time></trkpt><trkpt lat="37.6798719" lon="15.0299759"><ele>1434.3333333333333</ele><time>2026-05-02T08:37:50.812Z</time></trkpt><trkpt lat="37.6798368" lon="15.0298648"><ele>1434.6666666666667</ele><time>2026-05-02T08:37:51.812Z</time></trkpt><trkpt lat="37.6797995" lon="15.0297563"><ele>1435.0</ele><time>2026-05-02T08:37:52.812Z</time></trkpt><trkpt lat="37.6797629" lon="15.0296529"><ele>1435.3333333333335</ele><time>2026-05-02T08:37:53.812Z</time></trkpt><trkpt lat="37.6797188" lon="15.0295571"><ele>1435.6666666666667</ele><time>2026-05-02T08:37:54.812Z</time></trkpt><trkpt lat="37.6796713" lon="15.0294698"><ele>1436.0</ele><time>2026-05-02T08:37:55.812Z</time></trkpt><trkpt lat="37.6796159" lon="15.029394"><ele>1436.0</ele><time>2026-05-02T08:37:56.812Z</time></trkpt><trkpt lat="37.6795596" lon="15.02933"><ele>1436.0</ele><time>2026-05-02T08:37:57.814Z</time></trkpt><trkpt lat="37.6794941" lon="15.0292884"><ele>1436.0</ele><time>2026-05-02T08:37:58.814Z</time></trkpt><trkpt lat="37.6794202" lon="15.0292715"><ele>1436.0</ele><time>2026-05-02T08:37:59.812Z</time></trkpt><trkpt lat="37.6793457" lon="15.0292829"><ele>1436.0</ele><time>2026-05-02T08:38:00.812Z</time></trkpt><trkpt lat="37.6792691" lon="15.0293128"><ele>1436.0</ele><time>2026-05-02T08:38:01.812Z</time></trkpt><trkpt lat="37.6791956" lon="15.0293564"><ele>1432.3333333333335</ele><time>2026-05-02T08:38:02.812Z</time></trkpt><trkpt lat="37.6791236" lon="15.0294064"><ele>1428.6666666666667</ele><time>2026-05-02T08:38:03.812Z</time></trkpt><trkpt lat="37.6790708" lon="15.0294927"><ele>1425.0</ele><time>2026-05-02T08:38:04.812Z</time></trkpt><trkpt lat="37.6790292" lon="15.0295875"><ele>1421.3333333333333</ele><time>2026-05-02T08:38:05.812Z</time></trkpt><trkpt lat="37.678996" lon="15.0296982"><ele>1417.6666666666665</ele><time>2026-05-02T08:38:06.812Z</time></trkpt><trkpt lat="37.6789732" lon="15.0298076"><ele>1414.0</ele><time>2026-05-02T08:38:07.812Z</time></trkpt><trkpt lat="37.6789523" lon="15.0299114"><ele>1414.1666666666665</ele><time>2026-05-02T08:38:08.812Z</time></trkpt><trkpt lat="37.6789304" lon="15.0300167"><ele>1414.3333333333333</ele><time>2026-05-02T08:38:09.813Z</time></trkpt><trkpt lat="37.6789103" lon="15.0301228"><ele>1414.5</ele><time>2026-05-02T08:38:10.813Z</time></trkpt><trkpt lat="37.6788887" lon="15.0302253"><ele>1414.6666666666667</ele><time>2026-05-02T08:38:11.813Z</time></trkpt><trkpt lat="37.6788693" lon="15.0303303"><ele>1414.8333333333335</ele><time>2026-05-02T08:38:12.812Z</time></trkpt><trkpt lat="37.6788621" lon="15.0304254"><ele>1415.0</ele><time>2026-05-02T08:38:13.813Z</time></trkpt><trkpt lat="37.6788472" lon="15.0305204"><ele>1415.0</ele><time>2026-05-02T08:38:14.812Z</time></trkpt><trkpt lat="37.6788391" lon="15.0306124"><ele>1415.0</ele><time>2026-05-02T08:38:15.812Z</time></trkpt><trkpt lat="37.6788257" lon="15.0307068"><ele>1415.0</ele><time>2026-05-02T08:38:16.813Z</time></trkpt><trkpt lat="37.6788182" lon="15.0307986"><ele>1415.0</ele><time>2026-05-02T08:38:17.812Z</time></trkpt><trkpt lat="37.6788146" lon="15.0308972"><ele>1415.0</ele><time>2026-05-02T08:38:18.812Z</time></trkpt><trkpt lat="37.6788061" lon="15.0309942"><ele>1415.0</ele><time>2026-05-02T08:38:19.812Z</time></trkpt><trkpt lat="37.6788038" lon="15.031088"><ele>1414.8333333333335</ele><time>2026-05-02T08:38:20.814Z</time></trkpt><trkpt lat="37.6787962" lon="15.0311844"><ele>1414.6666666666667</ele><time>2026-05-02T08:38:21.812Z</time></trkpt><trkpt lat="37.6787877" lon="15.0312757"><ele>1414.5</ele><time>2026-05-02T08:38:22.813Z</time></trkpt><trkpt lat="37.6787722" lon="15.0313734"><ele>1414.3333333333333</ele><time>2026-05-02T08:38:23.813Z</time></trkpt><trkpt lat="37.678754" lon="15.0314715"><ele>1414.1666666666665</ele><time>2026-05-02T08:38:24.812Z</time></trkpt><trkpt lat="37.6787274" lon="15.0315624"><ele>1414.0</ele><time>2026-05-02T08:38:25.812Z</time></trkpt><trkpt lat="37.6786961" lon="15.0316536"><ele>1414.0</ele><time>2026-05-02T08:38:26.813Z</time></trkpt><trkpt lat="37.6786559" lon="15.0317385"><ele>1414.0</ele><time>2026-05-02T08:38:27.812Z</time></trkpt><trkpt lat="37.6786083" lon="15.0318154"><ele>1414.0</ele><time>2026-05-02T08:38:28.813Z</time></trkpt><trkpt lat="37.6785539" lon="15.0318839"><ele>1414.0</ele><time>2026-05-02T08:38:29.812Z</time></trkpt><trkpt lat="37.6784896" lon="15.0319483"><ele>1414.0</ele><time>2026-05-02T08:38:30.812Z</time></trkpt><trkpt lat="37.678422" lon="15.0320057"><ele>1414.0</ele><time>2026-05-02T08:38:31.812Z</time></trkpt><trkpt lat="37.6783522" lon="15.0320673"><ele>1412.1666666666665</ele><time>2026-05-02T08:38:32.812Z</time></trkpt><trkpt lat="37.6782802" lon="15.0321214"><ele>1410.3333333333333</ele><time>2026-05-02T08:38:33.812Z</time></trkpt><trkpt lat="37.6782054" lon="15.0321771"><ele>1408.5</ele><time>2026-05-02T08:38:34.812Z</time></trkpt><trkpt lat="37.6781289" lon="15.0322305"><ele>1406.6666666666667</ele><time>2026-05-02T08:38:35.812Z</time></trkpt><trkpt lat="37.6780502" lon="15.0322809"><ele>1404.8333333333335</ele><time>2026-05-02T08:38:36.812Z</time></trkpt><trkpt lat="37.6779755" lon="15.0323399"><ele>1403.0</ele><time>2026-05-02T08:38:37.812Z</time></trkpt><trkpt lat="37.6778977" lon="15.032396"><ele>1402.9999999999998</ele><time>2026-05-02T08:38:38.812Z</time></trkpt><trkpt lat="37.6778304" lon="15.0324477"><ele>1403.0</ele><time>2026-05-02T08:38:39.812Z</time></trkpt><trkpt lat="37.6777604" lon="15.0324992"><ele>1403.0</ele><time>2026-05-02T08:38:40.812Z</time></trkpt><trkpt lat="37.6777062" lon="15.0325478"><ele>1403.0</ele><time>2026-05-02T08:38:41.813Z</time></trkpt><trkpt lat="37.6776482" lon="15.0325955"><ele>1403.0</ele><time>2026-05-02T08:38:42.812Z</time></trkpt><trkpt lat="37.6775898" lon="15.0326389"><ele>1402.9999999999998</ele><time>2026-05-02T08:38:43.813Z</time></trkpt><trkpt lat="37.677525" lon="15.0326879"><ele>1403.0</ele><time>2026-05-02T08:38:44.812Z</time></trkpt><trkpt lat="37.6774581" lon="15.032738"><ele>1401.5</ele><time>2026-05-02T08:38:45.813Z</time></trkpt><trkpt lat="37.6773871" lon="15.0327871"><ele>1400.0</ele><time>2026-05-02T08:38:46.812Z</time></trkpt><trkpt lat="37.6773106" lon="15.0328357"><ele>1398.5</ele><time>2026-05-02T08:38:47.813Z</time></trkpt><trkpt lat="37.6772346" lon="15.0328873"><ele>1397.0</ele><time>2026-05-02T08:38:48.813Z</time></trkpt><trkpt lat="37.677157" lon="15.0329336"><ele>1395.5</ele><time>2026-05-02T08:38:49.811Z</time></trkpt><trkpt lat="37.677079" lon="15.0329707"><ele>1394.0</ele><time>2026-05-02T08:38:50.813Z</time></trkpt><trkpt lat="37.676995" lon="15.0329958"><ele>1393.3333333333335</ele><time>2026-05-02T08:38:51.813Z</time></trkpt><trkpt lat="37.6769139" lon="15.0330168"><ele>1392.6666666666667</ele><time>2026-05-02T08:38:52.813Z</time></trkpt><trkpt lat="37.6768328" lon="15.033024"><ele>1392.0</ele><time>2026-05-02T08:38:53.812Z</time></trkpt><trkpt lat="37.6767425" lon="15.0330328"><ele>1391.3333333333333</ele><time>2026-05-02T08:38:54.812Z</time></trkpt><trkpt lat="37.6766594" lon="15.0330377"><ele>1390.6666666666665</ele><time>2026-05-02T08:38:55.812Z</time></trkpt><trkpt lat="37.6765694" lon="15.0330351"><ele>1390.0</ele><time>2026-05-02T08:38:56.812Z</time></trkpt><trkpt lat="37.6764744" lon="15.0330241"><ele>1390.0</ele><time>2026-05-02T08:38:57.813Z</time></trkpt><trkpt lat="37.6763836" lon="15.0329961"><ele>1390.0</ele><time>2026-05-02T08:38:58.812Z</time></trkpt><trkpt lat="37.6762946" lon="15.032969"><ele>1390.0</ele><time>2026-05-02T08:38:59.812Z</time></trkpt><trkpt lat="37.6762049" lon="15.0329367"><ele>1390.0</ele><time>2026-05-02T08:39:00.811Z</time></trkpt><trkpt lat="37.6761207" lon="15.0329092"><ele>1390.0</ele><time>2026-05-02T08:39:01.812Z</time></trkpt><trkpt lat="37.6760388" lon="15.0328774"><ele>1389.6666666666665</ele><time>2026-05-02T08:39:02.812Z</time></trkpt><trkpt lat="37.6759658" lon="15.0328469"><ele>1389.3333333333333</ele><time>2026-05-02T08:39:03.812Z</time></trkpt><trkpt lat="37.6758873" lon="15.0328172"><ele>1389.0</ele><time>2026-05-02T08:39:04.812Z</time></trkpt><trkpt lat="37.6758064" lon="15.0327885"><ele>1388.6666666666667</ele><time>2026-05-02T08:39:05.813Z</time></trkpt><trkpt lat="37.6757179" lon="15.0327593"><ele>1388.3333333333335</ele><time>2026-05-02T08:39:06.812Z</time></trkpt><trkpt lat="37.6756305" lon="15.032733"><ele>1388.0</ele><time>2026-05-02T08:39:07.812Z</time></trkpt><trkpt lat="37.6755457" lon="15.0326987"><ele>1388.0</ele><time>2026-05-02T08:39:08.812Z</time></trkpt><trkpt lat="37.6754646" lon="15.0326622"><ele>1388.0</ele><time>2026-05-02T08:39:09.811Z</time></trkpt><trkpt lat="37.6753822" lon="15.0326269"><ele>1388.0</ele><time>2026-05-02T08:39:10.812Z</time></trkpt><trkpt lat="37.6752994" lon="15.0325937"><ele>1388.0</ele><time>2026-05-02T08:39:11.812Z</time></trkpt><trkpt lat="37.6752178" lon="15.0325597"><ele>1388.0</ele><time>2026-05-02T08:39:12.812Z</time></trkpt><trkpt lat="37.6751412" lon="15.0325183"><ele>1388.0</ele><time>2026-05-02T08:39:13.812Z</time></trkpt><trkpt lat="37.6750656" lon="15.0324798"><ele>1386.1666666666667</ele><time>2026-05-02T08:39:14.813Z</time></trkpt><trkpt lat="37.674989" lon="15.0324398"><ele>1384.3333333333335</ele><time>2026-05-02T08:39:15.812Z</time></trkpt><trkpt lat="37.67491" lon="15.032394"><ele>1382.5</ele><time>2026-05-02T08:39:16.812Z</time></trkpt><trkpt lat="37.6748317" lon="15.032347"><ele>1380.6666666666667</ele><time>2026-05-02T08:39:17.811Z</time></trkpt><trkpt lat="37.6747602" lon="15.0322913"><ele>1378.8333333333333</ele><time>2026-05-02T08:39:18.812Z</time></trkpt><trkpt lat="37.6746878" lon="15.0322377"><ele>1377.0</ele><time>2026-05-02T08:39:19.812Z</time></trkpt><trkpt lat="37.674613" lon="15.0321848"><ele>1377.0</ele><time>2026-05-02T08:39:20.812Z</time></trkpt><trkpt lat="37.6745399" lon="15.0321318"><ele>1377.0</ele><time>2026-05-02T08:39:21.812Z</time></trkpt><trkpt lat="37.6744692" lon="15.0320829"><ele>1377.0</ele><time>2026-05-02T08:39:22.813Z</time></trkpt><trkpt lat="37.6743937" lon="15.0320486"><ele>1377.0</ele><time>2026-05-02T08:39:23.813Z</time></trkpt><trkpt lat="37.6743132" lon="15.03204"><ele>1377.0</ele><time>2026-05-02T08:39:24.812Z</time></trkpt><trkpt lat="37.6742399" lon="15.0320592"><ele>1377.0</ele><time>2026-05-02T08:39:25.812Z</time></trkpt><trkpt lat="37.6741798" lon="15.0321097"><ele>1374.7142857142856</ele><time>2026-05-02T08:39:26.812Z</time></trkpt><trkpt lat="37.6741362" lon="15.032181"><ele>1372.4285714285716</ele><time>2026-05-02T08:39:27.813Z</time></trkpt><trkpt lat="37.6740988" lon="15.0322628"><ele>1370.142857142857</ele><time>2026-05-02T08:39:28.811Z</time></trkpt><trkpt lat="37.6740734" lon="15.0323459"><ele>1367.8571428571427</ele><time>2026-05-02T08:39:29.812Z</time></trkpt><trkpt lat="37.6740452" lon="15.0324374"><ele>1365.5714285714284</ele><time>2026-05-02T08:39:30.812Z</time></trkpt><trkpt lat="37.6740199" lon="15.0325283"><ele>1363.2857142857142</ele><time>2026-05-02T08:39:31.812Z</time></trkpt><trkpt lat="37.6739928" lon="15.0326202"><ele>1361.0</ele><time>2026-05-02T08:39:32.812Z</time></trkpt><trkpt lat="37.6739613" lon="15.0327113"><ele>1360.6666666666667</ele><time>2026-05-02T08:39:33.813Z</time></trkpt><trkpt lat="37.673926" lon="15.0328062"><ele>1360.3333333333335</ele><time>2026-05-02T08:39:34.812Z</time></trkpt><trkpt lat="37.6738903" lon="15.0329008"><ele>1360.0</ele><time>2026-05-02T08:39:35.812Z</time></trkpt><trkpt lat="37.6738575" lon="15.0329972"><ele>1359.6666666666667</ele><time>2026-05-02T08:39:36.812Z</time></trkpt><trkpt lat="37.6738259" lon="15.0330947"><ele>1359.3333333333333</ele><time>2026-05-02T08:39:37.812Z</time></trkpt><trkpt lat="37.6737943" lon="15.033193"><ele>1359.0</ele><time>2026-05-02T08:39:38.813Z</time></trkpt><trkpt lat="37.67376" lon="15.033294"><ele>1357.8333333333333</ele><time>2026-05-02T08:39:39.812Z</time></trkpt><trkpt lat="37.6737291" lon="15.033393"><ele>1356.6666666666667</ele><time>2026-05-02T08:39:40.811Z</time></trkpt><trkpt lat="37.6737052" lon="15.0334924"><ele>1355.5</ele><time>2026-05-02T08:39:41.812Z</time></trkpt><trkpt lat="37.6736911" lon="15.0335956"><ele>1354.3333333333335</ele><time>2026-05-02T08:39:42.812Z</time></trkpt><trkpt lat="37.6736863" lon="15.0337025"><ele>1353.1666666666667</ele><time>2026-05-02T08:39:43.813Z</time></trkpt><trkpt lat="37.6736931" lon="15.0338165"><ele>1352.0</ele><time>2026-05-02T08:39:44.813Z</time></trkpt><trkpt lat="37.6737095" lon="15.033929"><ele>1352.0</ele><time>2026-05-02T08:39:45.812Z</time></trkpt><trkpt lat="37.6737337" lon="15.0340342"><ele>1352.0</ele><time>2026-05-02T08:39:46.813Z</time></trkpt><trkpt lat="37.6737574" lon="15.0341406"><ele>1352.0</ele><time>2026-05-02T08:39:47.812Z</time></trkpt><trkpt lat="37.6737814" lon="15.0342431"><ele>1352.0</ele><time>2026-05-02T08:39:48.812Z</time></trkpt><trkpt lat="37.6738073" lon="15.0343459"><ele>1352.0</ele><time>2026-05-02T08:39:49.812Z</time></trkpt><trkpt lat="37.6738311" lon="15.0344524"><ele>1352.0</ele><time>2026-05-02T08:39:50.812Z</time></trkpt><trkpt lat="37.6738577" lon="15.0345537"><ele>1351.0</ele><time>2026-05-02T08:39:51.812Z</time></trkpt><trkpt lat="37.6738819" lon="15.0346631"><ele>1350.0</ele><time>2026-05-02T08:39:52.814Z</time></trkpt><trkpt lat="37.6739063" lon="15.0347719"><ele>1349.0</ele><time>2026-05-02T08:39:53.812Z</time></trkpt><trkpt lat="37.6739228" lon="15.0348831"><ele>1348.0</ele><time>2026-05-02T08:39:54.813Z</time></trkpt><trkpt lat="37.6739335" lon="15.0349973"><ele>1347.0</ele><time>2026-05-02T08:39:55.813Z</time></trkpt><trkpt lat="37.6739371" lon="15.0351105"><ele>1345.8333333333333</ele><time>2026-05-02T08:39:56.813Z</time></trkpt><trkpt lat="37.6739274" lon="15.0352207"><ele>1344.6666666666667</ele><time>2026-05-02T08:39:57.812Z</time></trkpt><trkpt lat="37.673909" lon="15.0353281"><ele>1343.5</ele><time>2026-05-02T08:39:58.813Z</time></trkpt><trkpt lat="37.6738857" lon="15.0354332"><ele>1342.3333333333335</ele><time>2026-05-02T08:39:59.813Z</time></trkpt><trkpt lat="37.6738586" lon="15.0355381"><ele>1341.1666666666667</ele><time>2026-05-02T08:40:00.813Z</time></trkpt><trkpt lat="37.6738245" lon="15.0356389"><ele>1340.0</ele><time>2026-05-02T08:40:01.813Z</time></trkpt><trkpt lat="37.6737838" lon="15.0357358"><ele>1339.1666666666667</ele><time>2026-05-02T08:40:02.812Z</time></trkpt><trkpt lat="37.6737437" lon="15.0358311"><ele>1338.3333333333335</ele><time>2026-05-02T08:40:03.813Z</time></trkpt><trkpt lat="37.6737008" lon="15.0359237"><ele>1337.5</ele><time>2026-05-02T08:40:04.812Z</time></trkpt><trkpt lat="37.6736502" lon="15.036007"><ele>1336.6666666666667</ele><time>2026-05-02T08:40:05.812Z</time></trkpt><trkpt lat="37.6736011" lon="15.036092"><ele>1335.8333333333333</ele><time>2026-05-02T08:40:06.811Z</time></trkpt><trkpt lat="37.6735581" lon="15.0361697"><ele>1335.0</ele><time>2026-05-02T08:40:07.813Z</time></trkpt><trkpt lat="37.6735049" lon="15.0362476"><ele>1335.3333333333333</ele><time>2026-05-02T08:40:08.811Z</time></trkpt><trkpt lat="37.6734542" lon="15.0363308"><ele>1335.6666666666667</ele><time>2026-05-02T08:40:09.813Z</time></trkpt><trkpt lat="37.6733953" lon="15.0364122"><ele>1336.0</ele><time>2026-05-02T08:40:10.813Z</time></trkpt><trkpt lat="37.6733359" lon="15.0364929"><ele>1336.3333333333335</ele><time>2026-05-02T08:40:11.811Z</time></trkpt><trkpt lat="37.6732815" lon="15.0365727"><ele>1336.6666666666667</ele><time>2026-05-02T08:40:12.812Z</time></trkpt><trkpt lat="37.6732361" lon="15.036649"><ele>1337.0</ele><time>2026-05-02T08:40:13.812Z</time></trkpt><trkpt lat="37.6731871" lon="15.0367357"><ele>1337.0</ele><time>2026-05-02T08:40:14.813Z</time></trkpt><trkpt lat="37.6731395" lon="15.036821"><ele>1337.0</ele><time>2026-05-02T08:40:15.813Z</time></trkpt><trkpt lat="37.6730983" lon="15.0369056"><ele>1337.0</ele><time>2026-05-02T08:40:16.813Z</time></trkpt><trkpt lat="37.6730655" lon="15.0369875"><ele>1337.0</ele><time>2026-05-02T08:40:17.812Z</time></trkpt><trkpt lat="37.6730326" lon="15.0370649"><ele>1337.0</ele><time>2026-05-02T08:40:18.811Z</time></trkpt><trkpt lat="37.6730072" lon="15.0371402"><ele>1337.0</ele><time>2026-05-02T08:40:19.811Z</time></trkpt><trkpt lat="37.6729796" lon="15.0372173"><ele>1337.0</ele><time>2026-05-02T08:40:20.814Z</time></trkpt><trkpt lat="37.6729593" lon="15.0373002"><ele>1337.0</ele><time>2026-05-02T08:40:21.812Z</time></trkpt><trkpt lat="37.6729346" lon="15.0373857"><ele>1337.0</ele><time>2026-05-02T08:40:22.812Z</time></trkpt><trkpt lat="37.6729124" lon="15.0374731"><ele>1337.0</ele><time>2026-05-02T08:40:23.813Z</time></trkpt><trkpt lat="37.6728912" lon="15.0375502"><ele>1337.0</ele><time>2026-05-02T08:40:24.812Z</time></trkpt><trkpt lat="37.6728664" lon="15.0376301"><ele>1337.0</ele><time>2026-05-02T08:40:25.812Z</time></trkpt><trkpt lat="37.6728137" lon="15.0377399"><ele>1337.0</ele><time>2026-05-02T08:40:27.813Z</time></trkpt><trkpt lat="37.6727838" lon="15.0378178"><ele>1337.0</ele><time>2026-05-02T08:40:30.813Z</time></trkpt><trkpt lat="37.6727927" lon="15.0379047"><ele>1337.1666666666667</ele><time>2026-05-02T08:40:33.813Z</time></trkpt><trkpt lat="37.6728594" lon="15.0379584"><ele>1337.3333333333335</ele><time>2026-05-02T08:40:36.812Z</time></trkpt><trkpt lat="37.6729029" lon="15.0380182"><ele>1337.5</ele><time>2026-05-02T08:40:38.813Z</time></trkpt><trkpt lat="37.6729271" lon="15.0381186"><ele>1337.6666666666667</ele><time>2026-05-02T08:40:41.812Z</time></trkpt><trkpt lat="37.6729172" lon="15.0382093"><ele>1337.8333333333333</ele><time>2026-05-02T08:40:46.811Z</time></trkpt><trkpt lat="37.6729388" lon="15.0383024"><ele>1338.0</ele><time>2026-05-02T08:40:48.812Z</time></trkpt><trkpt lat="37.6729723" lon="15.0384065"><ele>1336.8000000000002</ele><time>2026-05-02T08:40:50.812Z</time></trkpt><trkpt lat="37.6730248" lon="15.0385237"><ele>1335.6</ele><time>2026-05-02T08:40:52.812Z</time></trkpt><trkpt lat="37.6730537" lon="15.0386181"><ele>1334.4</ele><time>2026-05-02T08:40:54.812Z</time></trkpt><trkpt lat="37.6731316" lon="15.0387222"><ele>1333.1999999999998</ele><time>2026-05-02T08:40:56.812Z</time></trkpt><trkpt lat="37.6731789" lon="15.0387772"><ele>1332.0</ele><time>2026-05-02T08:40:57.813Z</time></trkpt><trkpt lat="37.6732566" lon="15.0388996"><ele>1332.0</ele><time>2026-05-02T08:40:59.812Z</time></trkpt><trkpt lat="37.6733181" lon="15.0390189"><ele>1332.0</ele><time>2026-05-02T08:41:01.812Z</time></trkpt><trkpt lat="37.6733576" lon="15.0391175"><ele>1332.0</ele><time>2026-05-02T08:41:03.812Z</time></trkpt><trkpt lat="37.6734072" lon="15.0392403"><ele>1332.0</ele><time>2026-05-02T08:41:05.811Z</time></trkpt><trkpt lat="37.6734405" lon="15.0393811"><ele>1332.0</ele><time>2026-05-02T08:41:07.812Z</time></trkpt><trkpt lat="37.6734325" lon="15.039545"><ele>1331.0</ele><time>2026-05-02T08:41:09.812Z</time></trkpt><trkpt lat="37.6734215" lon="15.0396686"><ele>1330.0</ele><time>2026-05-02T08:41:11.811Z</time></trkpt><trkpt lat="37.6734246" lon="15.0397641"><ele>1329.0</ele><time>2026-05-02T08:41:12.812Z</time></trkpt><trkpt lat="37.6734414" lon="15.0398532"><ele>1328.0</ele><time>2026-05-02T08:41:13.812Z</time></trkpt><trkpt lat="37.6734718" lon="15.0399622"><ele>1327.0</ele><time>2026-05-02T08:41:14.813Z</time></trkpt><trkpt lat="37.6734819" lon="15.0400571"><ele>1326.0</ele><time>2026-05-02T08:41:15.813Z</time></trkpt><trkpt lat="37.6735001" lon="15.0401468"><ele>1325.6</ele><time>2026-05-02T08:41:16.812Z</time></trkpt><trkpt lat="37.6735121" lon="15.0402251"><ele>1325.1999999999998</ele><time>2026-05-02T08:41:17.812Z</time></trkpt><trkpt lat="37.6735865" lon="15.0403453"><ele>1324.8000000000002</ele><time>2026-05-02T08:41:19.812Z</time></trkpt><trkpt lat="37.6736295" lon="15.0404059"><ele>1324.4</ele><time>2026-05-02T08:41:20.812Z</time></trkpt><trkpt lat="37.6737197" lon="15.0405106"><ele>1324.0</ele><time>2026-05-02T08:41:22.811Z</time></trkpt><trkpt lat="37.6738754" lon="15.0405678"><ele>1327.2</ele><time>2026-05-02T08:41:24.812Z</time></trkpt><trkpt lat="37.6739902" lon="15.0405815"><ele>1330.4</ele><time>2026-05-02T08:41:25.812Z</time></trkpt><trkpt lat="37.6740862" lon="15.0405935"><ele>1333.6</ele><time>2026-05-02T08:41:26.811Z</time></trkpt><trkpt lat="37.6741608" lon="15.0405886"><ele>1336.8</ele><time>2026-05-02T08:41:27.812Z</time></trkpt><trkpt lat="37.6742333" lon="15.0405953"><ele>1340.0</ele><time>2026-05-02T08:41:28.812Z</time></trkpt><trkpt lat="37.6743276" lon="15.040592"><ele>1340.0</ele><time>2026-05-02T08:41:29.811Z</time></trkpt><trkpt lat="37.6744165" lon="15.0406105"><ele>1340.0</ele><time>2026-05-02T08:41:30.811Z</time></trkpt><trkpt lat="37.6745232" lon="15.0406263"><ele>1340.0</ele><time>2026-05-02T08:41:31.812Z</time></trkpt><trkpt lat="37.6746233" lon="15.0406703"><ele>1340.0</ele><time>2026-05-02T08:41:32.812Z</time></trkpt><trkpt lat="37.6747186" lon="15.0407131"><ele>1340.0</ele><time>2026-05-02T08:41:33.811Z</time></trkpt><trkpt lat="37.6747976" lon="15.0407258"><ele>1340.3333333333335</ele><time>2026-05-02T08:41:34.811Z</time></trkpt><trkpt lat="37.6748445" lon="15.0408072"><ele>1340.6666666666667</ele><time>2026-05-02T08:41:36.813Z</time></trkpt><trkpt lat="37.67491" lon="15.0409"><ele>1341.0</ele><time>2026-05-02T08:41:38.812Z</time></trkpt><trkpt lat="37.674973" lon="15.0409684"><ele>1341.3333333333333</ele><time>2026-05-02T08:41:39.811Z</time></trkpt><trkpt lat="37.6750625" lon="15.0410372"><ele>1341.6666666666665</ele><time>2026-05-02T08:41:40.811Z</time></trkpt><trkpt lat="37.6751186" lon="15.0410833"><ele>1342.0</ele><time>2026-05-02T08:41:41.812Z</time></trkpt><trkpt lat="37.6751714" lon="15.0411291"><ele>1342.0</ele><time>2026-05-02T08:41:42.812Z</time></trkpt><trkpt lat="37.6751776" lon="15.0412242"><ele>1342.0</ele><time>2026-05-02T08:41:44.811Z</time></trkpt><trkpt lat="37.6751253" lon="15.0413082"><ele>1342.0</ele><time>2026-05-02T08:41:46.811Z</time></trkpt><trkpt lat="37.6751511" lon="15.041474"><ele>1342.0</ele><time>2026-05-02T08:41:48.811Z</time></trkpt><trkpt lat="37.6751812" lon="15.0415711"><ele>1342.0</ele><time>2026-05-02T08:41:49.812Z</time></trkpt><trkpt lat="37.6752332" lon="15.041687"><ele>1343.3333333333333</ele><time>2026-05-02T08:41:50.811Z</time></trkpt><trkpt lat="37.6752699" lon="15.0417903"><ele>1344.6666666666665</ele><time>2026-05-02T08:41:51.813Z</time></trkpt><trkpt lat="37.6753013" lon="15.0418956"><ele>1346.0</ele><time>2026-05-02T08:41:52.813Z</time></trkpt><trkpt lat="37.6753272" lon="15.0420093"><ele>1347.3333333333333</ele><time>2026-05-02T08:41:53.812Z</time></trkpt><trkpt lat="37.6753562" lon="15.0421047"><ele>1348.6666666666667</ele><time>2026-05-02T08:41:54.812Z</time></trkpt><trkpt lat="37.6753803" lon="15.0422214"><ele>1350.0</ele><time>2026-05-02T08:41:55.811Z</time></trkpt><trkpt lat="37.6753927" lon="15.0423121"><ele>1350.0</ele><time>2026-05-02T08:41:56.812Z</time></trkpt><trkpt lat="37.6754093" lon="15.0424004"><ele>1350.0</ele><time>2026-05-02T08:41:57.812Z</time></trkpt><trkpt lat="37.6753893" lon="15.042539"><ele>1350.0</ele><time>2026-05-02T08:41:59.813Z</time></trkpt><trkpt lat="37.6753717" lon="15.0426374"><ele>1350.0</ele><time>2026-05-02T08:42:00.811Z</time></trkpt><trkpt lat="37.6753611" lon="15.0427238"><ele>1350.0</ele><time>2026-05-02T08:42:01.812Z</time></trkpt><trkpt lat="37.6753767" lon="15.0428621"><ele>1350.0</ele><time>2026-05-02T08:42:03.812Z</time></trkpt><trkpt lat="37.6754283" lon="15.0429353"><ele>1350.0</ele><time>2026-05-02T08:42:04.812Z</time></trkpt><trkpt lat="37.6754634" lon="15.0430056"><ele>1350.0</ele><time>2026-05-02T08:42:05.812Z</time></trkpt><trkpt lat="37.6755137" lon="15.0431187"><ele>1350.0</ele><time>2026-05-02T08:42:07.812Z</time></trkpt><trkpt lat="37.6756073" lon="15.0431705"><ele>1350.0</ele><time>2026-05-02T08:42:09.811Z</time></trkpt><trkpt lat="37.6756761" lon="15.0432637"><ele>1350.0</ele><time>2026-05-02T08:42:11.811Z</time></trkpt><trkpt lat="37.6756954" lon="15.0433455"><ele>1350.0</ele><time>2026-05-02T08:42:12.811Z</time></trkpt><trkpt lat="37.6757209" lon="15.0434261"><ele>1349.8333333333333</ele><time>2026-05-02T08:42:13.812Z</time></trkpt><trkpt lat="37.675757" lon="15.0435129"><ele>1349.6666666666667</ele><time>2026-05-02T08:42:14.812Z</time></trkpt><trkpt lat="37.6757835" lon="15.0435957"><ele>1349.5</ele><time>2026-05-02T08:42:15.812Z</time></trkpt><trkpt lat="37.6757981" lon="15.0436804"><ele>1349.3333333333335</ele><time>2026-05-02T08:42:16.812Z</time></trkpt><trkpt lat="37.6758063" lon="15.0437743"><ele>1349.1666666666667</ele><time>2026-05-02T08:42:17.813Z</time></trkpt><trkpt lat="37.6758203" lon="15.0438594"><ele>1349.0</ele><time>2026-05-02T08:42:18.812Z</time></trkpt><trkpt lat="37.6758593" lon="15.0439998"><ele>1349.0</ele><time>2026-05-02T08:42:20.812Z</time></trkpt><trkpt lat="37.6758972" lon="15.0440765"><ele>1349.0</ele><time>2026-05-02T08:42:21.812Z</time></trkpt><trkpt lat="37.6759212" lon="15.0441633"><ele>1349.0</ele><time>2026-05-02T08:42:22.811Z</time></trkpt><trkpt lat="37.6759514" lon="15.0442559"><ele>1349.0</ele><time>2026-05-02T08:42:23.814Z</time></trkpt><trkpt lat="37.6759785" lon="15.0443588"><ele>1349.0</ele><time>2026-05-02T08:42:24.811Z</time></trkpt><trkpt lat="37.6760061" lon="15.0444644"><ele>1349.0</ele><time>2026-05-02T08:42:25.812Z</time></trkpt><trkpt lat="37.6760386" lon="15.0445712"><ele>1349.1666666666667</ele><time>2026-05-02T08:42:26.813Z</time></trkpt><trkpt lat="37.6760674" lon="15.0446705"><ele>1349.3333333333335</ele><time>2026-05-02T08:42:27.812Z</time></trkpt><trkpt lat="37.6760997" lon="15.0447593"><ele>1349.5</ele><time>2026-05-02T08:42:28.813Z</time></trkpt><trkpt lat="37.6761352" lon="15.0448331"><ele>1349.6666666666667</ele><time>2026-05-02T08:42:29.811Z</time></trkpt><trkpt lat="37.6761839" lon="15.0449037"><ele>1349.8333333333333</ele><time>2026-05-02T08:42:30.811Z</time></trkpt><trkpt lat="37.6762331" lon="15.0449594"><ele>1350.0</ele><time>2026-05-02T08:42:31.811Z</time></trkpt><trkpt lat="37.6762888" lon="15.0450554"><ele>1350.0</ele><time>2026-05-02T08:42:33.812Z</time></trkpt><trkpt lat="37.6763106" lon="15.0452165"><ele>1350.0</ele><time>2026-05-02T08:42:35.812Z</time></trkpt><trkpt lat="37.6763386" lon="15.0453494"><ele>1350.0</ele><time>2026-05-02T08:42:37.812Z</time></trkpt><trkpt lat="37.6763518" lon="15.0454965"><ele>1350.0</ele><time>2026-05-02T08:42:39.812Z</time></trkpt><trkpt lat="37.6763637" lon="15.0456358"><ele>1350.0</ele><time>2026-05-02T08:42:41.813Z</time></trkpt><trkpt lat="37.676375" lon="15.0457701"><ele>1350.0</ele><time>2026-05-02T08:42:43.813Z</time></trkpt><trkpt lat="37.6763967" lon="15.0458926"><ele>1350.0</ele><time>2026-05-02T08:42:45.811Z</time></trkpt><trkpt lat="37.6764575" lon="15.0459483"><ele>1350.0</ele><time>2026-05-02T08:42:47.812Z</time></trkpt><trkpt lat="37.6765307" lon="15.0460102"><ele>1350.0</ele><time>2026-05-02T08:42:49.812Z</time></trkpt><trkpt lat="37.6765504" lon="15.046099"><ele>1350.0</ele><time>2026-05-02T08:42:51.811Z</time></trkpt><trkpt lat="37.6765683" lon="15.0462075"><ele>1349.0</ele><time>2026-05-02T08:42:54.811Z</time></trkpt><trkpt lat="37.6766038" lon="15.0463099"><ele>1348.0</ele><time>2026-05-02T08:42:57.811Z</time></trkpt><trkpt lat="37.6765959" lon="15.0464133"><ele>1347.0</ele><time>2026-05-02T08:42:59.812Z</time></trkpt><trkpt lat="37.6766026" lon="15.0465173"><ele>1346.0</ele><time>2026-05-02T08:43:01.811Z</time></trkpt><trkpt lat="37.6766221" lon="15.0466126"><ele>1345.0</ele><time>2026-05-02T08:43:03.811Z</time></trkpt><trkpt lat="37.6766509" lon="15.0467171"><ele>1344.0</ele><time>2026-05-02T08:43:05.811Z</time></trkpt><trkpt lat="37.676655" lon="15.0468182"><ele>1342.3333333333333</ele><time>2026-05-02T08:43:07.812Z</time></trkpt><trkpt lat="37.6766831" lon="15.0468996"><ele>1340.6666666666667</ele><time>2026-05-02T08:43:09.813Z</time></trkpt><trkpt lat="37.6767421" lon="15.0469898"><ele>1339.0</ele><time>2026-05-02T08:43:12.812Z</time></trkpt><trkpt lat="37.6767642" lon="15.047094"><ele>1337.3333333333335</ele><time>2026-05-02T08:43:15.811Z</time></trkpt><trkpt lat="37.67669" lon="15.0471536"><ele>1335.6666666666667</ele><time>2026-05-02T08:43:18.811Z</time></trkpt><trkpt lat="37.6766174" lon="15.0471621"><ele>1334.0</ele><time>2026-05-02T08:43:22.811Z</time></trkpt><trkpt lat="37.6765831" lon="15.0472471"><ele>1334.0</ele><time>2026-05-02T08:43:56.811Z</time></trkpt><trkpt lat="37.6765083" lon="15.0473039"><ele>1334.0</ele><time>2026-05-02T08:44:00.812Z</time></trkpt><trkpt lat="37.6764414" lon="15.0473419"><ele>1334.0</ele><time>2026-05-02T08:44:02.811Z</time></trkpt><trkpt lat="37.6763687" lon="15.0473872"><ele>1334.0</ele><time>2026-05-02T08:44:04.811Z</time></trkpt><trkpt lat="37.676301" lon="15.0474206"><ele>1334.0</ele><time>2026-05-02T08:44:06.813Z</time></trkpt><trkpt lat="37.6762444" lon="15.0474799"><ele>1334.0</ele><time>2026-05-02T08:44:08.812Z</time></trkpt><trkpt lat="37.6761856" lon="15.0475361"><ele>1332.1428571428573</ele><time>2026-05-02T08:44:10.812Z</time></trkpt><trkpt lat="37.6761257" lon="15.0475634"><ele>1330.2857142857142</ele><time>2026-05-02T08:44:12.812Z</time></trkpt><trkpt lat="37.6760585" lon="15.0475693"><ele>1328.4285714285716</ele><time>2026-05-02T08:44:14.812Z</time></trkpt><trkpt lat="37.6759831" lon="15.0476045"><ele>1326.5714285714287</ele><time>2026-05-02T08:44:17.811Z</time></trkpt><trkpt lat="37.6759214" lon="15.0476602"><ele>1324.7142857142858</ele><time>2026-05-02T08:44:20.811Z</time></trkpt><trkpt lat="37.6758512" lon="15.0476938"><ele>1322.857142857143</ele><time>2026-05-02T08:44:23.811Z</time></trkpt><trkpt lat="37.6757921" lon="15.0477482"><ele>1321.0</ele><time>2026-05-02T08:44:26.811Z</time></trkpt><trkpt lat="37.6757236" lon="15.047812"><ele>1320.0</ele><time>2026-05-02T08:44:30.811Z</time></trkpt><trkpt lat="37.6756751" lon="15.0479095"><ele>1319.0</ele><time>2026-05-02T08:44:34.811Z</time></trkpt><trkpt lat="37.6756296" lon="15.0479668"><ele>1318.0</ele><time>2026-05-02T08:44:38.813Z</time></trkpt><trkpt lat="37.6755851" lon="15.0480487"><ele>1317.0</ele><time>2026-05-02T08:45:01.811Z</time></trkpt><trkpt lat="37.6755413" lon="15.0481212"><ele>1316.0</ele><time>2026-05-02T08:45:06.811Z</time></trkpt><trkpt lat="37.6754989" lon="15.0481969"><ele>1315.0</ele><time>2026-05-02T08:45:09.813Z</time></trkpt><trkpt lat="37.6755296" lon="15.0483052"><ele>1313.5</ele><time>2026-05-02T08:45:13.812Z</time></trkpt><trkpt lat="37.675579" lon="15.0484078"><ele>1312.0</ele><time>2026-05-02T08:45:16.811Z</time></trkpt><trkpt lat="37.6756151" lon="15.0484902"><ele>1310.5</ele><time>2026-05-02T08:45:18.811Z</time></trkpt><trkpt lat="37.6756548" lon="15.0485698"><ele>1309.0</ele><time>2026-05-02T08:45:20.812Z</time></trkpt><trkpt lat="37.6757139" lon="15.0486358"><ele>1307.5</ele><time>2026-05-02T08:45:22.811Z</time></trkpt><trkpt lat="37.6757889" lon="15.0487269"><ele>1306.0</ele><time>2026-05-02T08:45:37.811Z</time></trkpt><trkpt lat="37.6758265" lon="15.0488344"><ele>1306.0</ele><time>2026-05-02T08:45:39.811Z</time></trkpt><trkpt lat="37.6758567" lon="15.048941"><ele>1306.0</ele><time>2026-05-02T08:45:41.813Z</time></trkpt><trkpt lat="37.6758946" lon="15.0490401"><ele>1306.0</ele><time>2026-05-02T08:45:43.811Z</time></trkpt><trkpt lat="37.6759196" lon="15.0491218"><ele>1306.0</ele><time>2026-05-02T08:45:45.812Z</time></trkpt><trkpt lat="37.6759466" lon="15.0492093"><ele>1306.0</ele><time>2026-05-02T08:45:47.812Z</time></trkpt><trkpt lat="37.6759959" lon="15.049294"><ele>1306.0</ele><time>2026-05-02T08:45:50.811Z</time></trkpt><trkpt lat="37.6760028" lon="15.0493841"><ele>1304.5714285714287</ele><time>2026-05-02T08:45:53.812Z</time></trkpt><trkpt lat="37.6760061" lon="15.0494786"><ele>1303.142857142857</ele><time>2026-05-02T08:46:06.811Z</time></trkpt><trkpt lat="37.6760562" lon="15.0495498"><ele>1301.7142857142858</ele><time>2026-05-02T08:46:10.811Z</time></trkpt><trkpt lat="37.6760827" lon="15.0496303"><ele>1300.2857142857142</ele><time>2026-05-02T08:46:14.811Z</time></trkpt><trkpt lat="37.6760975" lon="15.0497113"><ele>1298.857142857143</ele><time>2026-05-02T08:46:17.811Z</time></trkpt><trkpt lat="37.6761158" lon="15.0497941"><ele>1297.4285714285716</ele><time>2026-05-02T08:46:19.81Z</time></trkpt><trkpt lat="37.6761565" lon="15.0498768"><ele>1296.0</ele><time>2026-05-02T08:46:21.812Z</time></trkpt><trkpt lat="37.6761861" lon="15.0499543"><ele>1293.6666666666667</ele><time>2026-05-02T08:46:23.811Z</time></trkpt><trkpt lat="37.6761951" lon="15.0500609"><ele>1291.3333333333333</ele><time>2026-05-02T08:46:26.812Z</time></trkpt><trkpt lat="37.676217" lon="15.0501515"><ele>1289.0</ele><time>2026-05-02T08:46:29.811Z</time></trkpt><trkpt lat="37.676223" lon="15.050233"><ele>1286.6666666666665</ele><time>2026-05-02T08:46:31.812Z</time></trkpt><trkpt lat="37.6762248" lon="15.0503351"><ele>1284.3333333333333</ele><time>2026-05-02T08:46:34.812Z</time></trkpt><trkpt lat="37.6762184" lon="15.0504475"><ele>1282.0</ele><time>2026-05-02T08:46:37.811Z</time></trkpt><trkpt lat="37.6762155" lon="15.0505365"><ele>1282.0</ele><time>2026-05-02T08:46:39.812Z</time></trkpt><trkpt lat="37.6761923" lon="15.0506295"><ele>1282.0</ele><time>2026-05-02T08:46:41.812Z</time></trkpt><trkpt lat="37.6762245" lon="15.0507398"><ele>1282.0</ele><time>2026-05-02T08:46:44.811Z</time></trkpt><trkpt lat="37.6762882" lon="15.0507923"><ele>1282.0</ele><time>2026-05-02T08:46:46.812Z</time></trkpt><trkpt lat="37.6763311" lon="15.0508798"><ele>1282.0</ele><time>2026-05-02T08:46:48.81Z</time></trkpt><trkpt lat="37.6763334" lon="15.0510068"><ele>1282.0</ele><time>2026-05-02T08:46:50.811Z</time></trkpt><trkpt lat="37.6763527" lon="15.0511123"><ele>1280.0</ele><time>2026-05-02T08:46:52.812Z</time></trkpt><trkpt lat="37.6763578" lon="15.0512214"><ele>1278.0</ele><time>2026-05-02T08:46:54.811Z</time></trkpt><trkpt lat="37.6763209" lon="15.0513409"><ele>1276.0</ele><time>2026-05-02T08:46:56.811Z</time></trkpt><trkpt lat="37.6763841" lon="15.0514388"><ele>1274.0</ele><time>2026-05-02T08:46:58.811Z</time></trkpt><trkpt lat="37.6763979" lon="15.0515619"><ele>1272.0</ele><time>2026-05-02T08:47:00.812Z</time></trkpt><trkpt lat="37.6763962" lon="15.0516685"><ele>1270.5</ele><time>2026-05-02T08:47:02.81Z</time></trkpt><trkpt lat="37.6764279" lon="15.0517677"><ele>1269.0</ele><time>2026-05-02T08:47:04.811Z</time></trkpt><trkpt lat="37.6764394" lon="15.051871"><ele>1267.5</ele><time>2026-05-02T08:47:06.811Z</time></trkpt><trkpt lat="37.676444" lon="15.0519909"><ele>1266.0</ele><time>2026-05-02T08:47:08.81Z</time></trkpt><trkpt lat="37.6764433" lon="15.0521252"><ele>1264.5</ele><time>2026-05-02T08:47:10.812Z</time></trkpt><trkpt lat="37.6764756" lon="15.0521939"><ele>1263.0</ele><time>2026-05-02T08:47:11.811Z</time></trkpt><trkpt lat="37.6765296" lon="15.0523007"><ele>1263.0</ele><time>2026-05-02T08:47:13.81Z</time></trkpt><trkpt lat="37.6765969" lon="15.0523567"><ele>1263.0</ele><time>2026-05-02T08:47:15.811Z</time></trkpt><trkpt lat="37.6767088" lon="15.0523524"><ele>1263.0</ele><time>2026-05-02T08:47:17.811Z</time></trkpt><trkpt lat="37.6768581" lon="15.052392"><ele>1263.0</ele><time>2026-05-02T08:47:19.811Z</time></trkpt><trkpt lat="37.6769399" lon="15.0524461"><ele>1263.0</ele><time>2026-05-02T08:47:20.811Z</time></trkpt><trkpt lat="37.6770288" lon="15.0524934"><ele>1260.8333333333333</ele><time>2026-05-02T08:47:21.811Z</time></trkpt><trkpt lat="37.6770905" lon="15.0525425"><ele>1258.6666666666667</ele><time>2026-05-02T08:47:22.811Z</time></trkpt><trkpt lat="37.6771411" lon="15.0525962"><ele>1256.5</ele><time>2026-05-02T08:47:23.81Z</time></trkpt><trkpt lat="37.6771832" lon="15.0526583"><ele>1254.3333333333335</ele><time>2026-05-02T08:47:24.811Z</time></trkpt><trkpt lat="37.677215" lon="15.0528206"><ele>1252.1666666666667</ele><time>2026-05-02T08:47:26.811Z</time></trkpt><trkpt lat="37.6772481" lon="15.0529142"><ele>1250.0</ele><time>2026-05-02T08:47:27.811Z</time></trkpt><trkpt lat="37.6772651" lon="15.053016"><ele>1250.0</ele><time>2026-05-02T08:47:28.811Z</time></trkpt><trkpt lat="37.6772913" lon="15.0531621"><ele>1250.0</ele><time>2026-05-02T08:47:30.811Z</time></trkpt><trkpt lat="37.6773276" lon="15.0532595"><ele>1250.0</ele><time>2026-05-02T08:47:32.811Z</time></trkpt><trkpt lat="37.6773758" lon="15.0533309"><ele>1250.0</ele><time>2026-05-02T08:47:34.811Z</time></trkpt><trkpt lat="37.6773821" lon="15.0534358"><ele>1250.0</ele><time>2026-05-02T08:47:36.812Z</time></trkpt><trkpt lat="37.6774066" lon="15.0535372"><ele>1250.0</ele><time>2026-05-02T08:47:38.81Z</time></trkpt><trkpt lat="37.677409" lon="15.053654"><ele>1248.6666666666667</ele><time>2026-05-02T08:47:40.812Z</time></trkpt><trkpt lat="37.6774231" lon="15.0537479"><ele>1247.3333333333335</ele><time>2026-05-02T08:47:41.811Z</time></trkpt><trkpt lat="37.6774354" lon="15.0538367"><ele>1246.0</ele><time>2026-05-02T08:47:42.811Z</time></trkpt><trkpt lat="37.6774505" lon="15.0539234"><ele>1244.6666666666667</ele><time>2026-05-02T08:47:43.812Z</time></trkpt><trkpt lat="37.6774655" lon="15.0540035"><ele>1243.3333333333333</ele><time>2026-05-02T08:47:44.811Z</time></trkpt><trkpt lat="37.6774592" lon="15.0541516"><ele>1242.0</ele><time>2026-05-02T08:47:46.812Z</time></trkpt><trkpt lat="37.6774415" lon="15.0542294"><ele>1240.5</ele><time>2026-05-02T08:47:47.811Z</time></trkpt><trkpt lat="37.6774359" lon="15.0543818"><ele>1239.0</ele><time>2026-05-02T08:47:49.811Z</time></trkpt><trkpt lat="37.6774342" lon="15.054485"><ele>1237.5</ele><time>2026-05-02T08:47:50.812Z</time></trkpt><trkpt lat="37.6774304" lon="15.0545776"><ele>1236.0</ele><time>2026-05-02T08:47:51.811Z</time></trkpt><trkpt lat="37.6774346" lon="15.0546589"><ele>1234.5</ele><time>2026-05-02T08:47:52.811Z</time></trkpt><trkpt lat="37.6774435" lon="15.0547834"><ele>1233.0</ele><time>2026-05-02T08:47:54.81Z</time></trkpt><trkpt lat="37.6773992" lon="15.0549084"><ele>1231.8</ele><time>2026-05-02T08:47:56.81Z</time></trkpt><trkpt lat="37.6773453" lon="15.0550285"><ele>1230.6</ele><time>2026-05-02T08:47:58.81Z</time></trkpt><trkpt lat="37.6772737" lon="15.0551354"><ele>1229.4</ele><time>2026-05-02T08:48:00.811Z</time></trkpt><trkpt lat="37.6772027" lon="15.0552546"><ele>1228.2</ele><time>2026-05-02T08:48:02.812Z</time></trkpt><trkpt lat="37.6771589" lon="15.0553705"><ele>1227.0</ele><time>2026-05-02T08:48:04.811Z</time></trkpt><trkpt lat="37.6771833" lon="15.0554568"><ele>1227.0</ele><time>2026-05-02T08:48:06.81Z</time></trkpt><trkpt lat="37.6772537" lon="15.0554693"><ele>1227.0</ele><time>2026-05-02T08:48:07.813Z</time></trkpt><trkpt lat="37.6773602" lon="15.0555304"><ele>1227.0</ele><time>2026-05-02T08:48:09.811Z</time></trkpt><trkpt lat="37.677432" lon="15.0556162"><ele>1227.0</ele><time>2026-05-02T08:48:11.812Z</time></trkpt><trkpt lat="37.677496" lon="15.0557376"><ele>1227.0</ele><time>2026-05-02T08:48:13.81Z</time></trkpt><trkpt lat="37.6775461" lon="15.0558426"><ele>1226.0</ele><time>2026-05-02T08:48:14.81Z</time></trkpt><trkpt lat="37.677591" lon="15.0559569"><ele>1225.0</ele><time>2026-05-02T08:48:15.812Z</time></trkpt><trkpt lat="37.6776431" lon="15.0560573"><ele>1224.0</ele><time>2026-05-02T08:48:16.811Z</time></trkpt><trkpt lat="37.6777048" lon="15.0561642"><ele>1223.0</ele><time>2026-05-02T08:48:17.811Z</time></trkpt><trkpt lat="37.6777643" lon="15.056273"><ele>1222.0</ele><time>2026-05-02T08:48:18.811Z</time></trkpt><trkpt lat="37.6778111" lon="15.0563895"><ele>1222.0</ele><time>2026-05-02T08:48:19.811Z</time></trkpt><trkpt lat="37.6778818" lon="15.0565169"><ele>1222.0</ele><time>2026-05-02T08:48:20.81Z</time></trkpt><trkpt lat="37.6779422" lon="15.0566203"><ele>1222.0</ele><time>2026-05-02T08:48:21.811Z</time></trkpt><trkpt lat="37.6779889" lon="15.0566969"><ele>1222.0</ele><time>2026-05-02T08:48:22.81Z</time></trkpt><trkpt lat="37.6780255" lon="15.0567649"><ele>1222.0</ele><time>2026-05-02T08:48:23.811Z</time></trkpt><trkpt lat="37.6780851" lon="15.0568501"><ele>1221.0</ele><time>2026-05-02T08:48:25.81Z</time></trkpt><trkpt lat="37.6781153" lon="15.0569267"><ele>1220.0</ele><time>2026-05-02T08:52:20.81Z</time></trkpt><trkpt lat="37.6781696" lon="15.0569808"><ele>1219.0</ele><time>2026-05-02T08:52:23.811Z</time></trkpt><trkpt lat="37.6782645" lon="15.0569269"><ele>1218.0</ele><time>2026-05-02T08:52:26.81Z</time></trkpt><trkpt lat="37.6783575" lon="15.0568368"><ele>1217.0</ele><time>2026-05-02T08:52:28.811Z</time></trkpt><trkpt lat="37.678442" lon="15.0567573"><ele>1217.0</ele><time>2026-05-02T08:52:30.81Z</time></trkpt><trkpt lat="37.6785168" lon="15.0566954"><ele>1217.0</ele><time>2026-05-02T08:52:32.81Z</time></trkpt><trkpt lat="37.6785918" lon="15.0566366"><ele>1217.0</ele><time>2026-05-02T08:52:34.81Z</time></trkpt><trkpt lat="37.6786675" lon="15.0565724"><ele>1217.0</ele><time>2026-05-02T08:52:36.811Z</time></trkpt><trkpt lat="37.6787369" lon="15.056504"><ele>1217.0</ele><time>2026-05-02T08:52:38.811Z</time></trkpt><trkpt lat="37.6788145" lon="15.056449"><ele>1217.0</ele><time>2026-05-02T08:52:40.81Z</time></trkpt><trkpt lat="37.6788282" lon="15.0563346"><ele>1219.6</ele><time>2026-05-02T08:52:42.81Z</time></trkpt><trkpt lat="37.6788461" lon="15.0562204"><ele>1222.2</ele><time>2026-05-02T08:52:44.81Z</time></trkpt><trkpt lat="37.678892" lon="15.0561181"><ele>1224.8</ele><time>2026-05-02T08:52:46.81Z</time></trkpt><trkpt lat="37.6789713" lon="15.0560453"><ele>1227.4</ele><time>2026-05-02T08:52:48.812Z</time></trkpt><trkpt lat="37.6790588" lon="15.0560773"><ele>1230.0</ele><time>2026-05-02T08:52:50.81Z</time></trkpt><trkpt lat="37.6791293" lon="15.0561199"><ele>1230.0</ele><time>2026-05-02T08:52:52.81Z</time></trkpt><trkpt lat="37.6792107" lon="15.0561043"><ele>1230.0</ele><time>2026-05-02T08:52:54.81Z</time></trkpt><trkpt lat="37.6792733" lon="15.056031"><ele>1230.0</ele><time>2026-05-02T08:52:55.811Z</time></trkpt><trkpt lat="37.6793249" lon="15.0559758"><ele>1230.0</ele><time>2026-05-02T08:52:56.811Z</time></trkpt><trkpt lat="37.6793796" lon="15.0559297"><ele>1230.0</ele><time>2026-05-02T08:52:57.811Z</time></trkpt><trkpt lat="37.6794794" lon="15.0558592"><ele>1230.0</ele><time>2026-05-02T08:52:59.81Z</time></trkpt><trkpt lat="37.679531" lon="15.0557697"><ele>1232.0</ele><time>2026-05-02T08:53:01.81Z</time></trkpt><trkpt lat="37.6796271" lon="15.0556829"><ele>1234.0</ele><time>2026-05-02T08:53:03.81Z</time></trkpt><trkpt lat="37.6797246" lon="15.0556066"><ele>1236.0</ele><time>2026-05-02T08:53:05.811Z</time></trkpt><trkpt lat="37.679777" lon="15.0555409"><ele>1238.0</ele><time>2026-05-02T08:53:06.81Z</time></trkpt><trkpt lat="37.6798309" lon="15.0554821"><ele>1240.0</ele><time>2026-05-02T08:53:07.811Z</time></trkpt><trkpt lat="37.6799187" lon="15.0554293"><ele>1240.0</ele><time>2026-05-02T08:53:09.81Z</time></trkpt><trkpt lat="37.6800024" lon="15.055398"><ele>1240.0</ele><time>2026-05-02T08:53:11.81Z</time></trkpt><trkpt lat="37.6801002" lon="15.0553728"><ele>1240.0</ele><time>2026-05-02T08:53:13.81Z</time></trkpt><trkpt lat="37.6801693" lon="15.0553104"><ele>1240.0</ele><time>2026-05-02T08:53:15.811Z</time></trkpt><trkpt lat="37.6802236" lon="15.0552204"><ele>1240.0</ele><time>2026-05-02T08:53:17.81Z</time></trkpt><trkpt lat="37.6802874" lon="15.0551811"><ele>1240.0</ele><time>2026-05-02T08:53:19.809Z</time></trkpt><trkpt lat="37.6803742" lon="15.0551684"><ele>1240.5</ele><time>2026-05-02T08:53:21.81Z</time></trkpt><trkpt lat="37.6804837" lon="15.0551823"><ele>1241.0</ele><time>2026-05-02T08:53:23.811Z</time></trkpt><trkpt lat="37.6805467" lon="15.0551337"><ele>1241.5</ele><time>2026-05-02T08:53:25.81Z</time></trkpt><trkpt lat="37.6805948" lon="15.0550537"><ele>1242.0</ele><time>2026-05-02T08:53:27.811Z</time></trkpt><trkpt lat="37.680652" lon="15.0549208"><ele>1242.5</ele><time>2026-05-02T08:53:29.811Z</time></trkpt><trkpt lat="37.6806907" lon="15.0548538"><ele>1243.0</ele><time>2026-05-02T08:53:30.81Z</time></trkpt><trkpt lat="37.6807721" lon="15.0548015"><ele>1243.6666666666665</ele><time>2026-05-02T08:53:32.81Z</time></trkpt><trkpt lat="37.680869" lon="15.0548512"><ele>1244.3333333333333</ele><time>2026-05-02T08:53:34.81Z</time></trkpt><trkpt lat="37.6809412" lon="15.0548865"><ele>1245.0</ele><time>2026-05-02T08:53:36.81Z</time></trkpt><trkpt lat="37.6810071" lon="15.054872"><ele>1245.6666666666667</ele><time>2026-05-02T08:53:38.81Z</time></trkpt><trkpt lat="37.681084" lon="15.0548763"><ele>1246.3333333333335</ele><time>2026-05-02T08:53:40.81Z</time></trkpt><trkpt lat="37.6811645" lon="15.0548823"><ele>1247.0</ele><time>2026-05-02T08:54:10.809Z</time></trkpt><trkpt lat="37.6812209" lon="15.0549447"><ele>1246.1666666666667</ele><time>2026-05-02T08:54:12.811Z</time></trkpt><trkpt lat="37.6812398" lon="15.0550742"><ele>1245.3333333333335</ele><time>2026-05-02T08:54:14.81Z</time></trkpt><trkpt lat="37.6812518" lon="15.0551613"><ele>1244.5</ele><time>2026-05-02T08:54:16.811Z</time></trkpt><trkpt lat="37.6812814" lon="15.0552578"><ele>1243.6666666666667</ele><time>2026-05-02T08:54:18.811Z</time></trkpt><trkpt lat="37.6813248" lon="15.0553518"><ele>1242.8333333333333</ele><time>2026-05-02T08:54:20.811Z</time></trkpt><trkpt lat="37.6813648" lon="15.05545"><ele>1242.0</ele><time>2026-05-02T08:54:22.81Z</time></trkpt><trkpt lat="37.6814022" lon="15.0555502"><ele>1242.0</ele><time>2026-05-02T08:54:24.811Z</time></trkpt><trkpt lat="37.6814471" lon="15.0556487"><ele>1242.0</ele><time>2026-05-02T08:54:26.809Z</time></trkpt><trkpt lat="37.6814602" lon="15.0557503"><ele>1242.0</ele><time>2026-05-02T08:54:28.81Z</time></trkpt><trkpt lat="37.6814245" lon="15.0558424"><ele>1242.0</ele><time>2026-05-02T08:54:30.81Z</time></trkpt><trkpt lat="37.6814289" lon="15.0559482"><ele>1242.0</ele><time>2026-05-02T08:54:32.81Z</time></trkpt><trkpt lat="37.6814449" lon="15.0560604"><ele>1242.0</ele><time>2026-05-02T08:54:34.81Z</time></trkpt><trkpt lat="37.6814517" lon="15.0561485"><ele>1241.3333333333333</ele><time>2026-05-02T08:54:36.81Z</time></trkpt><trkpt lat="37.6814595" lon="15.0562406"><ele>1240.6666666666667</ele><time>2026-05-02T08:54:38.812Z</time></trkpt><trkpt lat="37.6814623" lon="15.056332"><ele>1240.0</ele><time>2026-05-02T08:54:40.81Z</time></trkpt><trkpt lat="37.6814569" lon="15.0564263"><ele>1239.3333333333335</ele><time>2026-05-02T08:54:42.81Z</time></trkpt><trkpt lat="37.6815212" lon="15.0564929"><ele>1238.6666666666667</ele><time>2026-05-02T08:54:44.809Z</time></trkpt><trkpt lat="37.6815972" lon="15.0565502"><ele>1238.0</ele><time>2026-05-02T08:54:46.809Z</time></trkpt><trkpt lat="37.6816682" lon="15.0566475"><ele>1237.0</ele><time>2026-05-02T08:54:48.81Z</time></trkpt><trkpt lat="37.6817719" lon="15.0567249"><ele>1236.0</ele><time>2026-05-02T08:54:50.811Z</time></trkpt><trkpt lat="37.6818317" lon="15.0567596"><ele>1235.0</ele><time>2026-05-02T08:54:51.809Z</time></trkpt><trkpt lat="37.6819106" lon="15.0568122"><ele>1234.0</ele><time>2026-05-02T08:54:53.809Z</time></trkpt><trkpt lat="37.6819344" lon="15.0569119"><ele>1233.0</ele><time>2026-05-02T08:54:56.809Z</time></trkpt><trkpt lat="37.6819214" lon="15.0570624"><ele>1233.0</ele><time>2026-05-02T08:54:58.809Z</time></trkpt><trkpt lat="37.6819251" lon="15.0571431"><ele>1233.0</ele><time>2026-05-02T08:54:59.809Z</time></trkpt><trkpt lat="37.681929" lon="15.0572865"><ele>1233.0</ele><time>2026-05-02T08:55:01.809Z</time></trkpt><trkpt lat="37.681888" lon="15.0574216"><ele>1233.0</ele><time>2026-05-02T08:55:03.81Z</time></trkpt><trkpt lat="37.6819106" lon="15.0575688"><ele>1233.0</ele><time>2026-05-02T08:55:05.809Z</time></trkpt><trkpt lat="37.6819369" lon="15.057655"><ele>1232.8333333333333</ele><time>2026-05-02T08:55:06.809Z</time></trkpt><trkpt lat="37.6819421" lon="15.0577445"><ele>1232.6666666666667</ele><time>2026-05-02T08:55:07.809Z</time></trkpt><trkpt lat="37.6819263" lon="15.0578326"><ele>1232.5</ele><time>2026-05-02T08:55:08.81Z</time></trkpt><trkpt lat="37.681917" lon="15.0579768"><ele>1232.3333333333335</ele><time>2026-05-02T08:55:10.809Z</time></trkpt><trkpt lat="37.6819154" lon="15.0580923"><ele>1232.1666666666667</ele><time>2026-05-02T08:55:12.81Z</time></trkpt><trkpt lat="37.6819773" lon="15.0581648"><ele>1232.0</ele><time>2026-05-02T08:55:14.809Z</time></trkpt><trkpt lat="37.6819841" lon="15.0582944"><ele>1232.0</ele><time>2026-05-02T08:55:17.809Z</time></trkpt><trkpt lat="37.6820266" lon="15.0584114"><ele>1232.0</ele><time>2026-05-02T08:55:19.81Z</time></trkpt><trkpt lat="37.6820357" lon="15.0585375"><ele>1232.0</ele><time>2026-05-02T08:55:21.809Z</time></trkpt><trkpt lat="37.6820566" lon="15.058651"><ele>1232.0</ele><time>2026-05-02T08:55:23.81Z</time></trkpt><trkpt lat="37.6820869" lon="15.0587645"><ele>1232.0</ele><time>2026-05-02T08:55:25.809Z</time></trkpt><trkpt lat="37.6820737" lon="15.0588694"><ele>1232.0</ele><time>2026-05-02T08:55:27.809Z</time></trkpt><trkpt lat="37.6820006" lon="15.0589576"><ele>1232.0</ele><time>2026-05-02T08:55:29.811Z</time></trkpt><trkpt lat="37.6819839" lon="15.0590925"><ele>1232.0</ele><time>2026-05-02T08:55:31.809Z</time></trkpt><trkpt lat="37.6820452" lon="15.0591642"><ele>1232.0</ele><time>2026-05-02T08:55:32.809Z</time></trkpt><trkpt lat="37.6820749" lon="15.0592404"><ele>1232.0</ele><time>2026-05-02T08:55:33.81Z</time></trkpt><trkpt lat="37.6820998" lon="15.0593396"><ele>1232.0</ele><time>2026-05-02T08:55:34.81Z</time></trkpt><trkpt lat="37.6821175" lon="15.0594528"><ele>1231.0</ele><time>2026-05-02T08:55:35.812Z</time></trkpt><trkpt lat="37.6821336" lon="15.0595667"><ele>1230.0</ele><time>2026-05-02T08:55:36.809Z</time></trkpt><trkpt lat="37.682147" lon="15.0596656"><ele>1229.0</ele><time>2026-05-02T08:55:37.81Z</time></trkpt><trkpt lat="37.6821072" lon="15.0597894"><ele>1228.0</ele><time>2026-05-02T08:55:39.81Z</time></trkpt><trkpt lat="37.6820631" lon="15.059867"><ele>1227.0</ele><time>2026-05-02T08:55:40.81Z</time></trkpt><trkpt lat="37.6820227" lon="15.0599423"><ele>1226.0</ele><time>2026-05-02T08:55:41.809Z</time></trkpt><trkpt lat="37.6819504" lon="15.0600377"><ele>1224.5</ele><time>2026-05-02T08:55:43.81Z</time></trkpt><trkpt lat="37.6818837" lon="15.0600462"><ele>1223.0</ele><time>2026-05-02T08:55:45.811Z</time></trkpt><trkpt lat="37.681791" lon="15.0600489"><ele>1221.5</ele><time>2026-05-02T08:55:47.81Z</time></trkpt><trkpt lat="37.6816902" lon="15.060081"><ele>1220.0</ele><time>2026-05-02T08:55:49.81Z</time></trkpt><trkpt lat="37.6816047" lon="15.0601244"><ele>1218.5</ele><time>2026-05-02T08:55:51.81Z</time></trkpt><trkpt lat="37.6815356" lon="15.0601281"><ele>1217.0</ele><time>2026-05-02T08:55:53.81Z</time></trkpt><trkpt lat="37.6814571" lon="15.0601151"><ele>1217.0</ele><time>2026-05-02T08:55:55.81Z</time></trkpt><trkpt lat="37.6813846" lon="15.0601501"><ele>1217.0</ele><time>2026-05-02T08:55:57.809Z</time></trkpt><trkpt lat="37.6813091" lon="15.0602167"><ele>1217.0</ele><time>2026-05-02T08:55:59.809Z</time></trkpt><trkpt lat="37.6812517" lon="15.0603327"><ele>1217.0</ele><time>2026-05-02T08:56:01.81Z</time></trkpt><trkpt lat="37.6811932" lon="15.0604186"><ele>1217.0</ele><time>2026-05-02T08:56:03.809Z</time></trkpt><trkpt lat="37.6811499" lon="15.0605271"><ele>1217.0</ele><time>2026-05-02T08:56:05.811Z</time></trkpt><trkpt lat="37.6811437" lon="15.0606321"><ele>1217.0</ele><time>2026-05-02T08:56:07.811Z</time></trkpt><trkpt lat="37.6811382" lon="15.0607648"><ele>1217.0</ele><time>2026-05-02T08:56:09.81Z</time></trkpt><trkpt lat="37.6811455" lon="15.0608626"><ele>1217.0</ele><time>2026-05-02T08:56:10.809Z</time></trkpt><trkpt lat="37.6811157" lon="15.0609987"><ele>1217.0</ele><time>2026-05-02T08:56:12.811Z</time></trkpt><trkpt lat="37.6810812" lon="15.0610872"><ele>1215.3333333333335</ele><time>2026-05-02T08:56:14.81Z</time></trkpt><trkpt lat="37.6810808" lon="15.0611829"><ele>1213.6666666666667</ele><time>2026-05-02T08:56:16.809Z</time></trkpt><trkpt lat="37.6810746" lon="15.0612652"><ele>1212.0</ele><time>2026-05-02T08:56:18.81Z</time></trkpt><trkpt lat="37.6809979" lon="15.0613113"><ele>1210.3333333333333</ele><time>2026-05-02T08:56:21.809Z</time></trkpt><trkpt lat="37.6809375" lon="15.0612652"><ele>1208.6666666666665</ele><time>2026-05-02T08:56:23.809Z</time></trkpt><trkpt lat="37.6808577" lon="15.0612136"><ele>1207.0</ele><time>2026-05-02T08:56:26.81Z</time></trkpt><trkpt lat="37.6807906" lon="15.061245"><ele>1207.0</ele><time>2026-05-02T08:56:28.81Z</time></trkpt><trkpt lat="37.6807445" lon="15.0613054"><ele>1207.0</ele><time>2026-05-02T08:56:30.81Z</time></trkpt><trkpt lat="37.6807439" lon="15.0613879"><ele>1207.0</ele><time>2026-05-02T08:56:32.809Z</time></trkpt><trkpt lat="37.680748" lon="15.0614939"><ele>1207.0</ele><time>2026-05-02T08:56:34.81Z</time></trkpt><trkpt lat="37.6807106" lon="15.0616108"><ele>1207.0</ele><time>2026-05-02T08:56:36.81Z</time></trkpt><trkpt lat="37.6806577" lon="15.061663"><ele>1207.0</ele><time>2026-05-02T08:56:38.81Z</time></trkpt><trkpt lat="37.6805692" lon="15.0616628"><ele>1206.142857142857</ele><time>2026-05-02T08:56:40.809Z</time></trkpt><trkpt lat="37.680507" lon="15.0617087"><ele>1205.2857142857142</ele><time>2026-05-02T08:56:42.811Z</time></trkpt><trkpt lat="37.680444" lon="15.0617588"><ele>1204.4285714285716</ele><time>2026-05-02T08:56:44.809Z</time></trkpt><trkpt lat="37.6803624" lon="15.0617948"><ele>1203.5714285714284</ele><time>2026-05-02T08:56:47.809Z</time></trkpt><trkpt lat="37.6802963" lon="15.0618454"><ele>1202.7142857142858</ele><time>2026-05-02T08:56:50.809Z</time></trkpt><trkpt lat="37.6802294" lon="15.0618131"><ele>1201.857142857143</ele><time>2026-05-02T08:56:53.812Z</time></trkpt><trkpt lat="37.6802035" lon="15.0617377"><ele>1201.0</ele><time>2026-05-02T08:56:55.809Z</time></trkpt><trkpt lat="37.6801854" lon="15.0616151"><ele>1201.0</ele><time>2026-05-02T08:56:58.809Z</time></trkpt><trkpt lat="37.6801681" lon="15.0615376"><ele>1201.0</ele><time>2026-05-02T08:57:00.81Z</time></trkpt><trkpt lat="37.6801091" lon="15.0614652"><ele>1201.0</ele><time>2026-05-02T08:57:03.809Z</time></trkpt><trkpt lat="37.6800402" lon="15.0614297"><ele>1201.0</ele><time>2026-05-02T08:57:06.811Z</time></trkpt><trkpt lat="37.6799456" lon="15.0614537"><ele>1201.0</ele><time>2026-05-02T08:57:08.809Z</time></trkpt><trkpt lat="37.6798775" lon="15.0614955"><ele>1201.0</ele><time>2026-05-02T08:57:10.81Z</time></trkpt><trkpt lat="37.6798651" lon="15.0615987"><ele>1199.1666666666665</ele><time>2026-05-02T08:57:13.81Z</time></trkpt><trkpt lat="37.6798706" lon="15.061707"><ele>1197.3333333333333</ele><time>2026-05-02T08:57:15.81Z</time></trkpt><trkpt lat="37.6798909" lon="15.0618074"><ele>1195.5</ele><time>2026-05-02T08:57:17.809Z</time></trkpt><trkpt lat="37.6799213" lon="15.0618904"><ele>1193.6666666666667</ele><time>2026-05-02T08:57:19.81Z</time></trkpt><trkpt lat="37.6799096" lon="15.061989"><ele>1191.8333333333335</ele><time>2026-05-02T08:57:21.81Z</time></trkpt><trkpt lat="37.6799124" lon="15.0620866"><ele>1190.0</ele><time>2026-05-02T08:57:23.81Z</time></trkpt><trkpt lat="37.6798525" lon="15.0621727"><ele>1190.0</ele><time>2026-05-02T08:57:25.809Z</time></trkpt><trkpt lat="37.679797" lon="15.0622425"><ele>1190.0</ele><time>2026-05-02T08:57:27.81Z</time></trkpt><trkpt lat="37.6797619" lon="15.0623109"><ele>1190.0</ele><time>2026-05-02T08:57:29.81Z</time></trkpt><trkpt lat="37.6797463" lon="15.0623972"><ele>1190.0</ele><time>2026-05-02T08:57:31.81Z</time></trkpt><trkpt lat="37.6797454" lon="15.0624923"><ele>1190.0</ele><time>2026-05-02T08:57:33.81Z</time></trkpt><trkpt lat="37.6797316" lon="15.0625737"><ele>1190.0</ele><time>2026-05-02T08:57:35.81Z</time></trkpt><trkpt lat="37.6797081" lon="15.0626513"><ele>1190.0</ele><time>2026-05-02T08:57:37.81Z</time></trkpt><trkpt lat="37.6797274" lon="15.0627437"><ele>1188.5</ele><time>2026-05-02T08:57:39.81Z</time></trkpt><trkpt lat="37.6797835" lon="15.0628564"><ele>1187.0</ele><time>2026-05-02T08:57:41.81Z</time></trkpt><trkpt lat="37.6798023" lon="15.0629566"><ele>1185.5</ele><time>2026-05-02T08:57:44.81Z</time></trkpt><trkpt lat="37.6798022" lon="15.0630549"><ele>1184.0</ele><time>2026-05-02T08:57:56.81Z</time></trkpt><trkpt lat="37.6797633" lon="15.0631291"><ele>1182.5</ele><time>2026-05-02T08:58:00.811Z</time></trkpt><trkpt lat="37.6797213" lon="15.0631979"><ele>1181.0</ele><time>2026-05-02T08:58:05.81Z</time></trkpt><trkpt lat="37.6797356" lon="15.0632757"><ele>1179.3999999999999</ele><time>2026-05-02T08:58:10.81Z</time></trkpt><trkpt lat="37.6798169" lon="15.0633042"><ele>1177.8</ele><time>2026-05-02T08:58:12.81Z</time></trkpt><trkpt lat="37.679881" lon="15.0633622"><ele>1176.1999999999998</ele><time>2026-05-02T08:58:14.81Z</time></trkpt><trkpt lat="37.6799304" lon="15.0634408"><ele>1174.6</ele><time>2026-05-02T08:58:16.81Z</time></trkpt><trkpt lat="37.6799337" lon="15.0635855"><ele>1173.0</ele><time>2026-05-02T08:58:18.81Z</time></trkpt><trkpt lat="37.6801534" lon="15.0632892"><ele>1173.0</ele><time>2026-05-02T08:58:19.81Z</time></trkpt><trkpt lat="37.6801553" lon="15.0634156"><ele>1173.0</ele><time>2026-05-02T08:58:21.81Z</time></trkpt><trkpt lat="37.6801622" lon="15.0635358"><ele>1173.0</ele><time>2026-05-02T08:58:23.81Z</time></trkpt><trkpt lat="37.680101" lon="15.0636189"><ele>1173.0</ele><time>2026-05-02T08:58:25.81Z</time></trkpt><trkpt lat="37.679998" lon="15.0636904"><ele>1173.0</ele><time>2026-05-02T08:58:27.81Z</time></trkpt><trkpt lat="37.6799478" lon="15.0637451"><ele>1173.0</ele><time>2026-05-02T08:58:28.81Z</time></trkpt><trkpt lat="37.6798727" lon="15.0638435"><ele>1173.0</ele><time>2026-05-02T08:58:30.81Z</time></trkpt><trkpt lat="37.6797931" lon="15.0638838"><ele>1173.0</ele><time>2026-05-02T08:58:32.81Z</time></trkpt><trkpt lat="37.6796731" lon="15.0638627"><ele>1173.0</ele><time>2026-05-02T08:58:34.81Z</time></trkpt><trkpt lat="37.6795694" lon="15.0638855"><ele>1173.0</ele><time>2026-05-02T08:58:36.811Z</time></trkpt><trkpt lat="37.6794915" lon="15.0639569"><ele>1173.0</ele><time>2026-05-02T08:58:38.81Z</time></trkpt><trkpt lat="37.6794609" lon="15.0640543"><ele>1173.0</ele><time>2026-05-02T08:58:40.811Z</time></trkpt><trkpt lat="37.6794628" lon="15.0641389"><ele>1173.0</ele><time>2026-05-02T08:58:42.81Z</time></trkpt><trkpt lat="37.6794897" lon="15.0642501"><ele>1173.0</ele><time>2026-05-02T08:58:45.81Z</time></trkpt><trkpt lat="37.6794913" lon="15.0643417"><ele>1173.0</ele><time>2026-05-02T08:58:47.81Z</time></trkpt><trkpt lat="37.6794445" lon="15.0644342"><ele>1173.0</ele><time>2026-05-02T08:58:49.81Z</time></trkpt><trkpt lat="37.6793825" lon="15.0645157"><ele>1170.2</ele><time>2026-05-02T08:58:51.81Z</time></trkpt><trkpt lat="37.6793081" lon="15.0645956"><ele>1167.4</ele><time>2026-05-02T08:58:53.811Z</time></trkpt><trkpt lat="37.6792659" lon="15.0647022"><ele>1164.6000000000001</ele><time>2026-05-02T08:58:55.81Z</time></trkpt><trkpt lat="37.6792466" lon="15.0648367"><ele>1161.8</ele><time>2026-05-02T08:58:57.81Z</time></trkpt><trkpt lat="37.6792049" lon="15.0649337"><ele>1159.0</ele><time>2026-05-02T08:58:59.81Z</time></trkpt><trkpt lat="37.6791106" lon="15.0649895"><ele>1158.3333333333333</ele><time>2026-05-02T08:59:01.81Z</time></trkpt><trkpt lat="37.6790306" lon="15.0650048"><ele>1157.6666666666665</ele><time>2026-05-02T08:59:02.809Z</time></trkpt><trkpt lat="37.6789448" lon="15.0650177"><ele>1157.0</ele><time>2026-05-02T08:59:03.81Z</time></trkpt><trkpt lat="37.6788773" lon="15.0650334"><ele>1156.3333333333333</ele><time>2026-05-02T08:59:04.809Z</time></trkpt><trkpt lat="37.6787668" lon="15.0650428"><ele>1155.6666666666667</ele><time>2026-05-02T08:59:06.809Z</time></trkpt><trkpt lat="37.678669" lon="15.0650311"><ele>1155.0</ele><time>2026-05-02T08:59:08.809Z</time></trkpt><trkpt lat="37.6785635" lon="15.065076"><ele>1153.6666666666667</ele><time>2026-05-02T08:59:10.809Z</time></trkpt><trkpt lat="37.6784859" lon="15.0651473"><ele>1152.3333333333333</ele><time>2026-05-02T08:59:12.809Z</time></trkpt><trkpt lat="37.6784451" lon="15.0652133"><ele>1151.0</ele><time>2026-05-02T08:59:13.809Z</time></trkpt><trkpt lat="37.6783921" lon="15.0652994"><ele>1149.6666666666665</ele><time>2026-05-02T08:59:14.809Z</time></trkpt><trkpt lat="37.6783403" lon="15.0653731"><ele>1148.3333333333333</ele><time>2026-05-02T08:59:15.809Z</time></trkpt><trkpt lat="37.6782817" lon="15.0654294"><ele>1147.0</ele><time>2026-05-02T08:59:16.81Z</time></trkpt><trkpt lat="37.6782237" lon="15.0654852"><ele>1147.0</ele><time>2026-05-02T08:59:17.81Z</time></trkpt><trkpt lat="37.6781627" lon="15.0655318"><ele>1147.0</ele><time>2026-05-02T08:59:18.81Z</time></trkpt><trkpt lat="37.6780961" lon="15.0655847"><ele>1147.0</ele><time>2026-05-02T08:59:19.809Z</time></trkpt><trkpt lat="37.6780304" lon="15.0656256"><ele>1147.0</ele><time>2026-05-02T08:59:20.809Z</time></trkpt><trkpt lat="37.677969" lon="15.065665"><ele>1147.0</ele><time>2026-05-02T08:59:21.81Z</time></trkpt><trkpt lat="37.6779083" lon="15.0656959"><ele>1147.0</ele><time>2026-05-02T08:59:22.809Z</time></trkpt><trkpt lat="37.6777937" lon="15.0657435"><ele>1146.0</ele><time>2026-05-02T08:59:24.809Z</time></trkpt><trkpt lat="37.6777199" lon="15.0657915"><ele>1145.0</ele><time>2026-05-02T08:59:26.809Z</time></trkpt><trkpt lat="37.6776907" lon="15.0658964"><ele>1144.0</ele><time>2026-05-02T08:59:29.809Z</time></trkpt><trkpt lat="37.677696" lon="15.0659771"><ele>1143.0</ele><time>2026-05-02T08:59:31.81Z</time></trkpt><trkpt lat="37.6777424" lon="15.066054"><ele>1142.0</ele><time>2026-05-02T08:59:33.809Z</time></trkpt><trkpt lat="37.6778278" lon="15.0660871"><ele>1141.0</ele><time>2026-05-02T08:59:35.809Z</time></trkpt><trkpt lat="37.6779125" lon="15.0661253"><ele>1141.0</ele><time>2026-05-02T08:59:37.809Z</time></trkpt><trkpt lat="37.6779685" lon="15.0661766"><ele>1141.0</ele><time>2026-05-02T08:59:39.809Z</time></trkpt><trkpt lat="37.6780427" lon="15.0662051"><ele>1141.0</ele><time>2026-05-02T08:59:41.809Z</time></trkpt><trkpt lat="37.67812" lon="15.0661953"><ele>1141.0</ele><time>2026-05-02T08:59:43.809Z</time></trkpt><trkpt lat="37.678195" lon="15.0662042"><ele>1141.0</ele><time>2026-05-02T08:59:58.809Z</time></trkpt><trkpt lat="37.678122" lon="15.0662738"><ele>1141.0</ele><time>2026-05-02T09:00:03.809Z</time></trkpt><trkpt lat="37.6780646" lon="15.0663102"><ele>1141.0</ele><time>2026-05-02T09:00:05.81Z</time></trkpt><trkpt lat="37.6780039" lon="15.0663517"><ele>1141.0</ele><time>2026-05-02T09:00:07.808Z</time></trkpt><trkpt lat="37.6779306" lon="15.066448"><ele>1141.0</ele><time>2026-05-02T09:00:09.81Z</time></trkpt><trkpt lat="37.6778565" lon="15.0664891"><ele>1141.0</ele><time>2026-05-02T09:00:11.809Z</time></trkpt><trkpt lat="37.6777536" lon="15.0664951"><ele>1141.0</ele><time>2026-05-02T09:00:13.81Z</time></trkpt><trkpt lat="37.6776714" lon="15.0665386"><ele>1141.0</ele><time>2026-05-02T09:00:15.808Z</time></trkpt><trkpt lat="37.6776064" lon="15.0666152"><ele>1140.3333333333333</ele><time>2026-05-02T09:00:17.809Z</time></trkpt><trkpt lat="37.6775195" lon="15.0666299"><ele>1139.6666666666665</ele><time>2026-05-02T09:00:19.809Z</time></trkpt><trkpt lat="37.6774394" lon="15.0666013"><ele>1139.0</ele><time>2026-05-02T09:00:21.809Z</time></trkpt><trkpt lat="37.6773644" lon="15.0666083"><ele>1138.3333333333333</ele><time>2026-05-02T09:00:23.809Z</time></trkpt><trkpt lat="37.6772853" lon="15.0666793"><ele>1137.6666666666667</ele><time>2026-05-02T09:00:25.809Z</time></trkpt><trkpt lat="37.6772372" lon="15.0667322"><ele>1137.0</ele><time>2026-05-02T09:00:26.808Z</time></trkpt><trkpt lat="37.677154" lon="15.0668046"><ele>1135.8333333333333</ele><time>2026-05-02T09:00:28.809Z</time></trkpt><trkpt lat="37.6770766" lon="15.0668125"><ele>1134.6666666666667</ele><time>2026-05-02T09:00:30.81Z</time></trkpt><trkpt lat="37.6770059" lon="15.0667661"><ele>1133.5</ele><time>2026-05-02T09:00:32.809Z</time></trkpt><trkpt lat="37.6769616" lon="15.0666871"><ele>1132.3333333333335</ele><time>2026-05-02T09:00:34.81Z</time></trkpt><trkpt lat="37.6769267" lon="15.0666092"><ele>1131.1666666666667</ele><time>2026-05-02T09:00:36.81Z</time></trkpt><trkpt lat="37.6768879" lon="15.0665239"><ele>1130.0</ele><time>2026-05-02T09:00:38.81Z</time></trkpt><trkpt lat="37.6768326" lon="15.0664574"><ele>1130.0</ele><time>2026-05-02T09:00:40.809Z</time></trkpt><trkpt lat="37.6767483" lon="15.0664163"><ele>1130.0</ele><time>2026-05-02T09:00:42.809Z</time></trkpt><trkpt lat="37.6766866" lon="15.0663207"><ele>1130.0</ele><time>2026-05-02T09:00:44.809Z</time></trkpt><trkpt lat="37.6766098" lon="15.0662163"><ele>1130.0</ele><time>2026-05-02T09:00:46.809Z</time></trkpt><trkpt lat="37.6765476" lon="15.0661615"><ele>1130.0</ele><time>2026-05-02T09:00:48.81Z</time></trkpt><trkpt lat="37.6765356" lon="15.0660378"><ele>1130.0</ele><time>2026-05-02T09:00:51.809Z</time></trkpt><trkpt lat="37.6764919" lon="15.0659528"><ele>1130.0</ele><time>2026-05-02T09:00:53.808Z</time></trkpt><trkpt lat="37.6764407" lon="15.0658977"><ele>1130.0</ele><time>2026-05-02T09:00:55.81Z</time></trkpt><trkpt lat="37.6764189" lon="15.0657725"><ele>1130.0</ele><time>2026-05-02T09:00:57.809Z</time></trkpt><trkpt lat="37.6764168" lon="15.0656906"><ele>1130.0</ele><time>2026-05-02T09:00:58.809Z</time></trkpt><trkpt lat="37.6764121" lon="15.0655971"><ele>1130.0</ele><time>2026-05-02T09:00:59.811Z</time></trkpt><trkpt lat="37.6764138" lon="15.0654964"><ele>1131.4</ele><time>2026-05-02T09:01:00.809Z</time></trkpt><trkpt lat="37.6764105" lon="15.0654061"><ele>1132.8</ele><time>2026-05-02T09:01:01.809Z</time></trkpt><trkpt lat="37.676415" lon="15.0652663"><ele>1134.2</ele><time>2026-05-02T09:01:03.81Z</time></trkpt><trkpt lat="37.6764149" lon="15.0651547"><ele>1135.6</ele><time>2026-05-02T09:01:05.809Z</time></trkpt><trkpt lat="37.6763803" lon="15.0650417"><ele>1137.0</ele><time>2026-05-02T09:01:07.81Z</time></trkpt><trkpt lat="37.6762933" lon="15.0649845"><ele>1137.0</ele><time>2026-05-02T09:01:09.809Z</time></trkpt><trkpt lat="37.6762122" lon="15.0649704"><ele>1137.0</ele><time>2026-05-02T09:01:10.808Z</time></trkpt><trkpt lat="37.6761444" lon="15.0649303"><ele>1137.0</ele><time>2026-05-02T09:01:11.81Z</time></trkpt><trkpt lat="37.6760862" lon="15.0648998"><ele>1137.0</ele><time>2026-05-02T09:01:12.808Z</time></trkpt><trkpt lat="37.6760087" lon="15.0648749"><ele>1137.0</ele><time>2026-05-02T09:01:14.809Z</time></trkpt><trkpt lat="37.6759465" lon="15.0648152"><ele>1137.0</ele><time>2026-05-02T09:01:16.809Z</time></trkpt><trkpt lat="37.67589" lon="15.0647367"><ele>1136.8</ele><time>2026-05-02T09:01:18.808Z</time></trkpt><trkpt lat="37.6758194" lon="15.0646609"><ele>1136.6</ele><time>2026-05-02T09:01:20.809Z</time></trkpt><trkpt lat="37.6757198" lon="15.0646089"><ele>1136.3999999999999</ele><time>2026-05-02T09:01:22.811Z</time></trkpt><trkpt lat="37.6756065" lon="15.0645795"><ele>1136.2</ele><time>2026-05-02T09:01:24.809Z</time></trkpt><trkpt lat="37.6755082" lon="15.0645556"><ele>1136.0</ele><time>2026-05-02T09:01:26.809Z</time></trkpt><trkpt lat="37.6754134" lon="15.0645285"><ele>1136.0</ele><time>2026-05-02T09:01:27.809Z</time></trkpt><trkpt lat="37.6753222" lon="15.0645086"><ele>1136.0</ele><time>2026-05-02T09:01:28.81Z</time></trkpt><trkpt lat="37.6752487" lon="15.0645003"><ele>1136.0</ele><time>2026-05-02T09:01:29.809Z</time></trkpt><trkpt lat="37.6751812" lon="15.0644884"><ele>1136.0</ele><time>2026-05-02T09:01:30.81Z</time></trkpt><trkpt lat="37.675087" lon="15.0644623"><ele>1136.0</ele><time>2026-05-02T09:01:32.81Z</time></trkpt><trkpt lat="37.6749938" lon="15.0644191"><ele>1136.0</ele><time>2026-05-02T09:01:34.809Z</time></trkpt><trkpt lat="37.6749146" lon="15.0643848"><ele>1134.1666666666667</ele><time>2026-05-02T09:01:36.808Z</time></trkpt><trkpt lat="37.6748511" lon="15.0643537"><ele>1132.3333333333335</ele><time>2026-05-02T09:01:38.81Z</time></trkpt><trkpt lat="37.6747598" lon="15.0642738"><ele>1130.5</ele><time>2026-05-02T09:01:40.809Z</time></trkpt><trkpt lat="37.6746813" lon="15.0642291"><ele>1128.6666666666667</ele><time>2026-05-02T09:01:42.808Z</time></trkpt><trkpt lat="37.6746004" lon="15.0642253"><ele>1126.8333333333333</ele><time>2026-05-02T09:01:44.81Z</time></trkpt><trkpt lat="37.674524" lon="15.0642752"><ele>1125.0</ele><time>2026-05-02T09:01:46.81Z</time></trkpt><trkpt lat="37.6744317" lon="15.0643371"><ele>1124.0</ele><time>2026-05-02T09:01:48.808Z</time></trkpt><trkpt lat="37.6743518" lon="15.0643805"><ele>1123.0</ele><time>2026-05-02T09:01:50.809Z</time></trkpt><trkpt lat="37.6742679" lon="15.0644437"><ele>1122.0</ele><time>2026-05-02T09:01:52.808Z</time></trkpt><trkpt lat="37.6742006" lon="15.0645048"><ele>1121.0</ele><time>2026-05-02T09:01:54.809Z</time></trkpt><trkpt lat="37.6741479" lon="15.0645522"><ele>1120.0</ele><time>2026-05-02T09:01:56.809Z</time></trkpt><trkpt lat="37.6740862" lon="15.0645839"><ele>1119.0</ele><time>2026-05-02T09:01:58.81Z</time></trkpt><trkpt lat="37.6740197" lon="15.0646228"><ele>1119.0</ele><time>2026-05-02T09:02:00.81Z</time></trkpt><trkpt lat="37.6739484" lon="15.0646564"><ele>1119.0</ele><time>2026-05-02T09:02:02.81Z</time></trkpt><trkpt lat="37.6738788" lon="15.064673"><ele>1119.0</ele><time>2026-05-02T09:02:04.808Z</time></trkpt><trkpt lat="37.6738076" lon="15.0646682"><ele>1119.0</ele><time>2026-05-02T09:02:06.809Z</time></trkpt><trkpt lat="37.6737405" lon="15.0646402"><ele>1119.0</ele><time>2026-05-02T09:02:08.809Z</time></trkpt><trkpt lat="37.6736803" lon="15.0645516"><ele>1119.0</ele><time>2026-05-02T09:02:10.808Z</time></trkpt><trkpt lat="37.673653" lon="15.0644786"><ele>1119.0</ele><time>2026-05-02T09:02:12.809Z</time></trkpt><trkpt lat="37.6735755" lon="15.0644307"><ele>1118.1666666666667</ele><time>2026-05-02T09:02:15.81Z</time></trkpt><trkpt lat="37.6735124" lon="15.0643545"><ele>1117.3333333333333</ele><time>2026-05-02T09:11:55.807Z</time></trkpt><trkpt lat="37.6734912" lon="15.0642424"><ele>1116.5</ele><time>2026-05-02T09:11:58.807Z</time></trkpt><trkpt lat="37.6734995" lon="15.0641373"><ele>1115.6666666666665</ele><time>2026-05-02T09:12:00.807Z</time></trkpt><trkpt lat="37.6735477" lon="15.0640632"><ele>1114.8333333333333</ele><time>2026-05-02T09:12:02.808Z</time></trkpt><trkpt lat="37.6735821" lon="15.0639835"><ele>1114.0</ele><time>2026-05-02T09:12:06.807Z</time></trkpt><trkpt lat="37.6735185" lon="15.0639936"><ele>1114.0</ele><time>2026-05-02T09:12:13.807Z</time></trkpt><trkpt lat="37.6735033" lon="15.06408"><ele>1114.0</ele><time>2026-05-02T09:12:16.807Z</time></trkpt><trkpt lat="37.673505" lon="15.0641758"><ele>1109.0</ele><time>2026-05-02T09:12:19.806Z</time></trkpt><trkpt lat="37.6734856" lon="15.0642583"><ele>1109.0</ele><time>2026-05-02T09:12:21.806Z</time></trkpt><trkpt lat="37.6734879" lon="15.0643692"><ele>1109.0</ele><time>2026-05-02T09:12:24.806Z</time></trkpt></trkseg></trk></gpx>